<?xml version="1.0" encoding="UTF-8" standalone="no" ?>
<gpx xmlns="http://www.topografix.com/GPX/1/1" xmlns:xsi="http://www.w3.org/2001/XMLSchema-instance" xsi:schemaLocation="http://www.topografix.com/GPX/1/1 http://www.topografix.com/GPX/1/1/gpx.xsd" version="1.1" creator="VisuGPX - https://www.visugpx.com">
  <metadata>
    <name>Yerres et alentours - Boucle 22 km</name>
    <desc><![CDATA[Sortie effectuée avec le Rando Club Yerrois en Mai 2017
Tracée et animée par Pascale-]]></desc>
  </metadata>
  <trk>
    <name><![CDATA[Yerres et alentours - Boucle 22 km_1]]></name>
    <trkseg>
      <trkpt lat="48.7148" lon="2.47911">
        <ele>37.7</ele>
        <time>2017-05-31T06:52:10Z</time>
      </trkpt>
      <trkpt lat="48.7148" lon="2.47911">
        <ele>72.8472</ele>
        <time>2017-05-31T06:52:15Z</time>
      </trkpt>
      <trkpt lat="48.7148" lon="2.47911">
        <ele>37.7</ele>
        <time>2017-05-31T06:59:09Z</time>
      </trkpt>
      <trkpt lat="48.7148" lon="2.47911">
        <ele>37.7</ele>
        <time>2017-05-31T07:00:31Z</time>
      </trkpt>
      <trkpt lat="48.71484" lon="2.47913">
        <ele>81.6296</ele>
        <time>2017-05-31T07:00:31Z</time>
      </trkpt>
      <trkpt lat="48.71512" lon="2.4791">
        <ele>82.8534</ele>
        <time>2017-05-31T07:03:37Z</time>
      </trkpt>
      <trkpt lat="48.71526" lon="2.47916">
        <ele>82.4642</ele>
        <time>2017-05-31T07:03:53Z</time>
      </trkpt>
      <trkpt lat="48.7153" lon="2.47938">
        <ele>81.5909</ele>
        <time>2017-05-31T07:04:07Z</time>
      </trkpt>
      <trkpt lat="48.71541" lon="2.4796">
        <ele>80.292</ele>
        <time>2017-05-31T07:04:27Z</time>
      </trkpt>
      <trkpt lat="48.71547" lon="2.47985">
        <ele>79.6407</ele>
        <time>2017-05-31T07:04:41Z</time>
      </trkpt>
      <trkpt lat="48.71555" lon="2.48005">
        <ele>79.2541</ele>
        <time>2017-05-31T07:04:50Z</time>
      </trkpt>
      <trkpt lat="48.71565" lon="2.48017">
        <ele>78.8757</ele>
        <time>2017-05-31T07:05:00Z</time>
      </trkpt>
      <trkpt lat="48.71576" lon="2.48042">
        <ele>78.3943</ele>
        <time>2017-05-31T07:05:16Z</time>
      </trkpt>
      <trkpt lat="48.71577" lon="2.48068">
        <ele>78.0054</ele>
        <time>2017-05-31T07:05:33Z</time>
      </trkpt>
      <trkpt lat="48.71577" lon="2.48088">
        <ele>77.7902</ele>
        <time>2017-05-31T07:05:43Z</time>
      </trkpt>
      <trkpt lat="48.71579" lon="2.48095">
        <ele>77.7091</ele>
        <time>2017-05-31T07:05:47Z</time>
      </trkpt>
      <trkpt lat="48.71579" lon="2.48095">
        <ele>34.5</ele>
        <time>2017-05-31T07:05:54Z</time>
      </trkpt>
      <trkpt lat="48.71583" lon="2.48112">
        <ele>77.471</ele>
        <time>2017-05-31T07:06:02Z</time>
      </trkpt>
      <trkpt lat="48.71583" lon="2.48112">
        <ele>35</ele>
        <time>2017-05-31T07:06:02Z</time>
      </trkpt>
      <trkpt lat="48.71593" lon="2.48137">
        <ele>77.3368</ele>
        <time>2017-05-31T07:06:16Z</time>
      </trkpt>
      <trkpt lat="48.71602" lon="2.48145">
        <ele>77.2488</ele>
        <time>2017-05-31T07:06:24Z</time>
      </trkpt>
      <trkpt lat="48.71608" lon="2.48171">
        <ele>77.2058</ele>
        <time>2017-05-31T07:06:45Z</time>
      </trkpt>
      <trkpt lat="48.71603" lon="2.48192">
        <ele>77.271</ele>
        <time>2017-05-31T07:06:52Z</time>
      </trkpt>
      <trkpt lat="48.716" lon="2.48213">
        <ele>77.3812</ele>
        <time>2017-05-31T07:06:59Z</time>
      </trkpt>
      <trkpt lat="48.716" lon="2.48226">
        <ele>77.5114</ele>
        <time>2017-05-31T07:07:10Z</time>
      </trkpt>
      <trkpt lat="48.716" lon="2.48226">
        <ele>35</ele>
        <time>2017-05-31T07:07:18Z</time>
      </trkpt>
      <trkpt lat="48.716" lon="2.48236">
        <ele>77.6093</ele>
        <time>2017-05-31T07:07:24Z</time>
      </trkpt>
      <trkpt lat="48.716" lon="2.48236">
        <ele>35</ele>
        <time>2017-05-31T07:07:24Z</time>
      </trkpt>
      <trkpt lat="48.7161" lon="2.48277">
        <ele>77.6817</ele>
        <time>2017-05-31T07:07:43Z</time>
      </trkpt>
      <trkpt lat="48.71591" lon="2.48326">
        <ele>77.7945</ele>
        <time>2017-05-31T07:08:00Z</time>
      </trkpt>
      <trkpt lat="48.71583" lon="2.48346">
        <ele>77.8788</ele>
        <time>2017-05-31T07:08:11Z</time>
      </trkpt>
      <trkpt lat="48.71567" lon="2.48377">
        <ele>78.0044</ele>
        <time>2017-05-31T07:08:29Z</time>
      </trkpt>
      <trkpt lat="48.71561" lon="2.48396">
        <ele>78.0645</ele>
        <time>2017-05-31T07:08:36Z</time>
      </trkpt>
      <trkpt lat="48.71552" lon="2.48412">
        <ele>78.1347</ele>
        <time>2017-05-31T07:08:44Z</time>
      </trkpt>
      <trkpt lat="48.71538" lon="2.48434">
        <ele>78.1889</ele>
        <time>2017-05-31T07:08:59Z</time>
      </trkpt>
      <trkpt lat="48.71523" lon="2.48429">
        <ele>78.1847</ele>
        <time>2017-05-31T07:09:11Z</time>
      </trkpt>
      <trkpt lat="48.71512" lon="2.48445">
        <ele>78.2013</ele>
        <time>2017-05-31T07:09:25Z</time>
      </trkpt>
      <trkpt lat="48.71525" lon="2.48468">
        <ele>78.2105</ele>
        <time>2017-05-31T07:09:46Z</time>
      </trkpt>
      <trkpt lat="48.71539" lon="2.48481">
        <ele>78.193</ele>
        <time>2017-05-31T07:09:56Z</time>
      </trkpt>
      <trkpt lat="48.71539" lon="2.48481">
        <ele>35.3</ele>
        <time>2017-05-31T07:10:04Z</time>
      </trkpt>
      <trkpt lat="48.71541" lon="2.48494">
        <ele>78.1675</ele>
        <time>2017-05-31T07:10:11Z</time>
      </trkpt>
      <trkpt lat="48.71541" lon="2.48494">
        <ele>35.4</ele>
        <time>2017-05-31T07:10:11Z</time>
      </trkpt>
      <trkpt lat="48.71535" lon="2.48512">
        <ele>78.187</ele>
        <time>2017-05-31T07:10:29Z</time>
      </trkpt>
      <trkpt lat="48.71532" lon="2.4854">
        <ele>78.2648</ele>
        <time>2017-05-31T07:10:49Z</time>
      </trkpt>
      <trkpt lat="48.71522" lon="2.48577">
        <ele>78.3391</ele>
        <time>2017-05-31T07:11:01Z</time>
      </trkpt>
      <trkpt lat="48.71509" lon="2.48599">
        <ele>78.4295</ele>
        <time>2017-05-31T07:11:10Z</time>
      </trkpt>
      <trkpt lat="48.715" lon="2.48616">
        <ele>78.4822</ele>
        <time>2017-05-31T07:11:20Z</time>
      </trkpt>
      <trkpt lat="48.71491" lon="2.48655">
        <ele>78.5214</ele>
        <time>2017-05-31T07:11:35Z</time>
      </trkpt>
      <trkpt lat="48.71492" lon="2.48663">
        <ele>78.5294</ele>
        <time>2017-05-31T07:11:43Z</time>
      </trkpt>
      <trkpt lat="48.71492" lon="2.48663">
        <ele>35.3</ele>
        <time>2017-05-31T07:11:50Z</time>
      </trkpt>
      <trkpt lat="48.71489" lon="2.48676">
        <ele>78.52</ele>
        <time>2017-05-31T07:11:55Z</time>
      </trkpt>
      <trkpt lat="48.71489" lon="2.48676">
        <ele>35.2</ele>
        <time>2017-05-31T07:11:55Z</time>
      </trkpt>
      <trkpt lat="48.71478" lon="2.48703">
        <ele>78.5211</ele>
        <time>2017-05-31T07:12:08Z</time>
      </trkpt>
      <trkpt lat="48.7147" lon="2.48719">
        <ele>78.5709</ele>
        <time>2017-05-31T07:12:22Z</time>
      </trkpt>
      <trkpt lat="48.71462" lon="2.48738">
        <ele>78.5993</ele>
        <time>2017-05-31T07:12:35Z</time>
      </trkpt>
      <trkpt lat="48.71462" lon="2.48738">
        <ele>78.5993</ele>
        <time>2017-05-31T07:12:42Z</time>
      </trkpt>
      <trkpt lat="48.71462" lon="2.48738">
        <ele>36.2</ele>
        <time>2017-05-31T07:12:42Z</time>
      </trkpt>
      <trkpt lat="48.71454" lon="2.48759">
        <ele>78.6155</ele>
        <time>2017-05-31T07:12:53Z</time>
      </trkpt>
      <trkpt lat="48.71454" lon="2.48759">
        <ele>35.9</ele>
        <time>2017-05-31T07:12:53Z</time>
      </trkpt>
      <trkpt lat="48.71441" lon="2.48758">
        <ele>78.5913</ele>
        <time>2017-05-31T07:13:06Z</time>
      </trkpt>
      <trkpt lat="48.71437" lon="2.48769">
        <ele>78.5804</ele>
        <time>2017-05-31T07:13:16Z</time>
      </trkpt>
      <trkpt lat="48.71437" lon="2.48769">
        <ele>36.4</ele>
        <time>2017-05-31T07:13:24Z</time>
      </trkpt>
      <trkpt lat="48.71416" lon="2.48799">
        <ele>78.2209</ele>
        <time>2017-05-31T07:17:35Z</time>
      </trkpt>
      <trkpt lat="48.71416" lon="2.48799">
        <ele>36.3</ele>
        <time>2017-05-31T07:17:35Z</time>
      </trkpt>
      <trkpt lat="48.71414" lon="2.48818">
        <ele>78.2874</ele>
        <time>2017-05-31T07:17:53Z</time>
      </trkpt>
      <trkpt lat="48.71404" lon="2.48839">
        <ele>78.3512</ele>
        <time>2017-05-31T07:18:11Z</time>
      </trkpt>
      <trkpt lat="48.71389" lon="2.48859">
        <ele>78.3781</ele>
        <time>2017-05-31T07:18:28Z</time>
      </trkpt>
      <trkpt lat="48.71386" lon="2.48882">
        <ele>78.4053</ele>
        <time>2017-05-31T07:18:45Z</time>
      </trkpt>
      <trkpt lat="48.714" lon="2.48917">
        <ele>78.4148</ele>
        <time>2017-05-31T07:19:27Z</time>
      </trkpt>
      <trkpt lat="48.71415" lon="2.48928">
        <ele>78.3952</ele>
        <time>2017-05-31T07:19:38Z</time>
      </trkpt>
      <trkpt lat="48.71437" lon="2.48938">
        <ele>78.3546</ele>
        <time>2017-05-31T07:19:55Z</time>
      </trkpt>
      <trkpt lat="48.71456" lon="2.48953">
        <ele>78.3504</ele>
        <time>2017-05-31T07:20:12Z</time>
      </trkpt>
      <trkpt lat="48.71469" lon="2.48959">
        <ele>78.3414</ele>
        <time>2017-05-31T07:20:25Z</time>
      </trkpt>
      <trkpt lat="48.71471" lon="2.48944">
        <ele>78.2929</ele>
        <time>2017-05-31T07:20:42Z</time>
      </trkpt>
      <trkpt lat="48.71464" lon="2.48929">
        <ele>78.2351</ele>
        <time>2017-05-31T07:20:54Z</time>
      </trkpt>
      <trkpt lat="48.7145" lon="2.48935">
        <ele>78.1736</ele>
        <time>2017-05-31T07:21:07Z</time>
      </trkpt>
      <trkpt lat="48.71438" lon="2.48974">
        <ele>77.9578</ele>
        <time>2017-05-31T07:21:27Z</time>
      </trkpt>
      <trkpt lat="48.71448" lon="2.48995">
        <ele>77.9453</ele>
        <time>2017-05-31T07:21:31Z</time>
      </trkpt>
      <trkpt lat="48.71448" lon="2.48995">
        <ele>35.4</ele>
        <time>2017-05-31T07:21:37Z</time>
      </trkpt>
      <trkpt lat="48.71448" lon="2.49028">
        <ele>77.9149</ele>
        <time>2017-05-31T07:21:59Z</time>
      </trkpt>
      <trkpt lat="48.71448" lon="2.49028">
        <ele>35.2</ele>
        <time>2017-05-31T07:21:59Z</time>
      </trkpt>
      <trkpt lat="48.71434" lon="2.49068">
        <ele>77.8958</ele>
        <time>2017-05-31T07:22:20Z</time>
      </trkpt>
      <trkpt lat="48.7143" lon="2.49093">
        <ele>77.8847</ele>
        <time>2017-05-31T07:22:32Z</time>
      </trkpt>
      <trkpt lat="48.71431" lon="2.491">
        <ele>77.8811</ele>
        <time>2017-05-31T07:22:34Z</time>
      </trkpt>
      <trkpt lat="48.71431" lon="2.491">
        <ele>35.9</ele>
        <time>2017-05-31T07:22:40Z</time>
      </trkpt>
      <trkpt lat="48.71428" lon="2.49111">
        <ele>77.8659</ele>
        <time>2017-05-31T07:22:44Z</time>
      </trkpt>
      <trkpt lat="48.71428" lon="2.49111">
        <ele>35.8</ele>
        <time>2017-05-31T07:22:44Z</time>
      </trkpt>
      <trkpt lat="48.71423" lon="2.4912">
        <ele>77.8613</ele>
        <time>2017-05-31T07:22:47Z</time>
      </trkpt>
      <trkpt lat="48.71423" lon="2.4912">
        <ele>35.6</ele>
        <time>2017-05-31T07:22:52Z</time>
      </trkpt>
      <trkpt lat="48.71418" lon="2.49131">
        <ele>77.8602</ele>
        <time>2017-05-31T07:22:57Z</time>
      </trkpt>
      <trkpt lat="48.71418" lon="2.49131">
        <ele>35.7</ele>
        <time>2017-05-31T07:22:57Z</time>
      </trkpt>
      <trkpt lat="48.71407" lon="2.49144">
        <ele>77.8596</ele>
        <time>2017-05-31T07:23:07Z</time>
      </trkpt>
      <trkpt lat="48.71405" lon="2.49147">
        <ele>77.8587</ele>
        <time>2017-05-31T07:23:10Z</time>
      </trkpt>
      <trkpt lat="48.71405" lon="2.49147">
        <ele>35.7</ele>
        <time>2017-05-31T07:23:17Z</time>
      </trkpt>
      <trkpt lat="48.71405" lon="2.49161">
        <ele>77.8574</ele>
        <time>2017-05-31T07:23:23Z</time>
      </trkpt>
      <trkpt lat="48.71405" lon="2.49161">
        <ele>36.1</ele>
        <time>2017-05-31T07:23:23Z</time>
      </trkpt>
      <trkpt lat="48.71392" lon="2.49187">
        <ele>77.8507</ele>
        <time>2017-05-31T07:23:37Z</time>
      </trkpt>
      <trkpt lat="48.71387" lon="2.49213">
        <ele>77.8613</ele>
        <time>2017-05-31T07:23:52Z</time>
      </trkpt>
      <trkpt lat="48.71387" lon="2.49213">
        <ele>77.8613</ele>
        <time>2017-05-31T07:24:00Z</time>
      </trkpt>
      <trkpt lat="48.71387" lon="2.49213">
        <ele>36.6</ele>
        <time>2017-05-31T07:24:00Z</time>
      </trkpt>
      <trkpt lat="48.71387" lon="2.49213">
        <ele>36.6</ele>
        <time>2017-05-31T07:24:14Z</time>
      </trkpt>
      <trkpt lat="48.71387" lon="2.49245">
        <ele>77.909</ele>
        <time>2017-05-31T07:24:14Z</time>
      </trkpt>
      <trkpt lat="48.7138" lon="2.49272">
        <ele>77.929</ele>
        <time>2017-05-31T07:24:25Z</time>
      </trkpt>
      <trkpt lat="48.71377" lon="2.49295">
        <ele>77.9741</ele>
        <time>2017-05-31T07:24:36Z</time>
      </trkpt>
      <trkpt lat="48.71356" lon="2.49315">
        <ele>78.0274</ele>
        <time>2017-05-31T07:24:56Z</time>
      </trkpt>
      <trkpt lat="48.71331" lon="2.49298">
        <ele>78.0155</ele>
        <time>2017-05-31T07:25:12Z</time>
      </trkpt>
      <trkpt lat="48.71331" lon="2.49298">
        <ele>34.6</ele>
        <time>2017-05-31T07:25:20Z</time>
      </trkpt>
      <trkpt lat="48.71331" lon="2.49298">
        <ele>34.6</ele>
        <time>2017-05-31T07:25:28Z</time>
      </trkpt>
      <trkpt lat="48.71321" lon="2.49305">
        <ele>77.9872</ele>
        <time>2017-05-31T07:25:28Z</time>
      </trkpt>
      <trkpt lat="48.71321" lon="2.49305">
        <ele>77.9872</ele>
        <time>2017-05-31T07:25:36Z</time>
      </trkpt>
      <trkpt lat="48.71321" lon="2.49305">
        <ele>34.9</ele>
        <time>2017-05-31T07:25:36Z</time>
      </trkpt>
      <trkpt lat="48.71321" lon="2.49305">
        <ele>34.9</ele>
        <time>2017-05-31T07:25:55Z</time>
      </trkpt>
      <trkpt lat="48.71306" lon="2.49308">
        <ele>77.9552</ele>
        <time>2017-05-31T07:25:55Z</time>
      </trkpt>
      <trkpt lat="48.71284" lon="2.49323">
        <ele>77.9561</ele>
        <time>2017-05-31T07:26:04Z</time>
      </trkpt>
      <trkpt lat="48.71284" lon="2.49339">
        <ele>77.9512</ele>
        <time>2017-05-31T07:26:13Z</time>
      </trkpt>
      <trkpt lat="48.71278" lon="2.49359">
        <ele>77.9621</ele>
        <time>2017-05-31T07:26:28Z</time>
      </trkpt>
      <trkpt lat="48.71267" lon="2.4938">
        <ele>77.9705</ele>
        <time>2017-05-31T07:26:43Z</time>
      </trkpt>
      <trkpt lat="48.7125" lon="2.49388">
        <ele>77.9648</ele>
        <time>2017-05-31T07:26:54Z</time>
      </trkpt>
      <trkpt lat="48.7123" lon="2.4939">
        <ele>77.9732</ele>
        <time>2017-05-31T07:27:09Z</time>
      </trkpt>
      <trkpt lat="48.71216" lon="2.494">
        <ele>77.9822</ele>
        <time>2017-05-31T07:27:19Z</time>
      </trkpt>
      <trkpt lat="48.71205" lon="2.49406">
        <ele>78.0001</ele>
        <time>2017-05-31T07:27:28Z</time>
      </trkpt>
      <trkpt lat="48.71188" lon="2.49426">
        <ele>78.0134</ele>
        <time>2017-05-31T07:27:48Z</time>
      </trkpt>
      <trkpt lat="48.71162" lon="2.49443">
        <ele>78.0568</ele>
        <time>2017-05-31T07:28:06Z</time>
      </trkpt>
      <trkpt lat="48.71153" lon="2.49459">
        <ele>78.0719</ele>
        <time>2017-05-31T07:28:20Z</time>
      </trkpt>
      <trkpt lat="48.71148" lon="2.49476">
        <ele>78.0738</ele>
        <time>2017-05-31T07:28:25Z</time>
      </trkpt>
      <trkpt lat="48.71137" lon="2.49484">
        <ele>78.0773</ele>
        <time>2017-05-31T07:28:32Z</time>
      </trkpt>
      <trkpt lat="48.71125" lon="2.49496">
        <ele>78.0996</ele>
        <time>2017-05-31T07:28:44Z</time>
      </trkpt>
      <trkpt lat="48.71099" lon="2.49502">
        <ele>78.1349</ele>
        <time>2017-05-31T07:29:01Z</time>
      </trkpt>
      <trkpt lat="48.71079" lon="2.49514">
        <ele>78.1702</ele>
        <time>2017-05-31T07:29:15Z</time>
      </trkpt>
      <trkpt lat="48.71065" lon="2.4952">
        <ele>78.2052</ele>
        <time>2017-05-31T07:29:27Z</time>
      </trkpt>
      <trkpt lat="48.71051" lon="2.4953">
        <ele>78.2523</ele>
        <time>2017-05-31T07:29:40Z</time>
      </trkpt>
      <trkpt lat="48.71036" lon="2.4955">
        <ele>78.3339</ele>
        <time>2017-05-31T07:29:56Z</time>
      </trkpt>
      <trkpt lat="48.71022" lon="2.49569">
        <ele>78.4823</ele>
        <time>2017-05-31T07:30:10Z</time>
      </trkpt>
      <trkpt lat="48.71005" lon="2.49597">
        <ele>78.6925</ele>
        <time>2017-05-31T07:30:28Z</time>
      </trkpt>
      <trkpt lat="48.70999" lon="2.49611">
        <ele>78.8149</ele>
        <time>2017-05-31T07:30:42Z</time>
      </trkpt>
      <trkpt lat="48.70987" lon="2.49629">
        <ele>78.9078</ele>
        <time>2017-05-31T07:30:53Z</time>
      </trkpt>
      <trkpt lat="48.70963" lon="2.49641">
        <ele>79.0218</ele>
        <time>2017-05-31T07:31:09Z</time>
      </trkpt>
      <trkpt lat="48.7095" lon="2.49642">
        <ele>79.0785</ele>
        <time>2017-05-31T07:31:20Z</time>
      </trkpt>
      <trkpt lat="48.70939" lon="2.49649">
        <ele>79.1366</ele>
        <time>2017-05-31T07:31:30Z</time>
      </trkpt>
      <trkpt lat="48.7092" lon="2.49649">
        <ele>79.1764</ele>
        <time>2017-05-31T07:31:42Z</time>
      </trkpt>
      <trkpt lat="48.70908" lon="2.49643">
        <ele>79.205</ele>
        <time>2017-05-31T07:31:52Z</time>
      </trkpt>
      <trkpt lat="48.70893" lon="2.4964">
        <ele>79.2574</ele>
        <time>2017-05-31T07:32:03Z</time>
      </trkpt>
      <trkpt lat="48.70872" lon="2.49643">
        <ele>79.3214</ele>
        <time>2017-05-31T07:32:21Z</time>
      </trkpt>
      <trkpt lat="48.70853" lon="2.49645">
        <ele>79.3512</ele>
        <time>2017-05-31T07:32:38Z</time>
      </trkpt>
      <trkpt lat="48.70842" lon="2.49648">
        <ele>79.3779</ele>
        <time>2017-05-31T07:32:46Z</time>
      </trkpt>
      <trkpt lat="48.70828" lon="2.49659">
        <ele>79.4248</ele>
        <time>2017-05-31T07:32:58Z</time>
      </trkpt>
      <trkpt lat="48.70809" lon="2.49667">
        <ele>79.4482</ele>
        <time>2017-05-31T07:33:11Z</time>
      </trkpt>
      <trkpt lat="48.70809" lon="2.49667">
        <ele>37</ele>
        <time>2017-05-31T07:33:18Z</time>
      </trkpt>
      <trkpt lat="48.70809" lon="2.49667">
        <ele>37</ele>
        <time>2017-05-31T07:34:01Z</time>
      </trkpt>
      <trkpt lat="48.70788" lon="2.49703">
        <ele>79.5378</ele>
        <time>2017-05-31T07:34:01Z</time>
      </trkpt>
      <trkpt lat="48.70781" lon="2.49734">
        <ele>79.6045</ele>
        <time>2017-05-31T07:34:17Z</time>
      </trkpt>
      <trkpt lat="48.70761" lon="2.49717">
        <ele>79.7062</ele>
        <time>2017-05-31T07:34:38Z</time>
      </trkpt>
      <trkpt lat="48.70736" lon="2.49716">
        <ele>79.8039</ele>
        <time>2017-05-31T07:35:03Z</time>
      </trkpt>
      <trkpt lat="48.70718" lon="2.49722">
        <ele>79.8344</ele>
        <time>2017-05-31T07:35:15Z</time>
      </trkpt>
      <trkpt lat="48.70715" lon="2.49744">
        <ele>79.8781</ele>
        <time>2017-05-31T07:35:27Z</time>
      </trkpt>
      <trkpt lat="48.70721" lon="2.49772">
        <ele>79.9223</ele>
        <time>2017-05-31T07:35:43Z</time>
      </trkpt>
      <trkpt lat="48.70728" lon="2.49787">
        <ele>79.9359</ele>
        <time>2017-05-31T07:35:55Z</time>
      </trkpt>
      <trkpt lat="48.70728" lon="2.49787">
        <ele>39.9</ele>
        <time>2017-05-31T07:36:04Z</time>
      </trkpt>
      <trkpt lat="48.70728" lon="2.49787">
        <ele>39.9</ele>
        <time>2017-05-31T07:37:11Z</time>
      </trkpt>
      <trkpt lat="48.70717" lon="2.49824">
        <ele>79.8338</ele>
        <time>2017-05-31T07:37:11Z</time>
      </trkpt>
      <trkpt lat="48.7072" lon="2.49842">
        <ele>79.8248</ele>
        <time>2017-05-31T07:37:19Z</time>
      </trkpt>
      <trkpt lat="48.70722" lon="2.4987">
        <ele>79.8186</ele>
        <time>2017-05-31T07:37:34Z</time>
      </trkpt>
      <trkpt lat="48.70708" lon="2.49846">
        <ele>79.8548</ele>
        <time>2017-05-31T07:37:50Z</time>
      </trkpt>
      <trkpt lat="48.70704" lon="2.4983">
        <ele>79.8626</ele>
        <time>2017-05-31T07:37:57Z</time>
      </trkpt>
      <trkpt lat="48.707" lon="2.49812">
        <ele>79.8675</ele>
        <time>2017-05-31T07:38:06Z</time>
      </trkpt>
      <trkpt lat="48.70698" lon="2.49787">
        <ele>79.8779</ele>
        <time>2017-05-31T07:38:18Z</time>
      </trkpt>
      <trkpt lat="48.70695" lon="2.4977">
        <ele>79.8957</ele>
        <time>2017-05-31T07:38:31Z</time>
      </trkpt>
      <trkpt lat="48.70687" lon="2.49766">
        <ele>79.9052</ele>
        <time>2017-05-31T07:38:37Z</time>
      </trkpt>
      <trkpt lat="48.70687" lon="2.49766">
        <ele>37.3</ele>
        <time>2017-05-31T07:38:45Z</time>
      </trkpt>
      <trkpt lat="48.70687" lon="2.49766">
        <ele>37.3</ele>
        <time>2017-05-31T07:38:54Z</time>
      </trkpt>
      <trkpt lat="48.70682" lon="2.49777">
        <ele>79.9267</ele>
        <time>2017-05-31T07:38:54Z</time>
      </trkpt>
      <trkpt lat="48.7066" lon="2.49771">
        <ele>79.9253</ele>
        <time>2017-05-31T07:39:13Z</time>
      </trkpt>
      <trkpt lat="48.70639" lon="2.49758">
        <ele>79.9107</ele>
        <time>2017-05-31T07:39:25Z</time>
      </trkpt>
      <trkpt lat="48.70636" lon="2.49747">
        <ele>79.9088</ele>
        <time>2017-05-31T07:39:29Z</time>
      </trkpt>
      <trkpt lat="48.70636" lon="2.49747">
        <ele>36.9</ele>
        <time>2017-05-31T07:39:34Z</time>
      </trkpt>
      <trkpt lat="48.70636" lon="2.49747">
        <ele>36.9</ele>
        <time>2017-05-31T07:39:41Z</time>
      </trkpt>
      <trkpt lat="48.70633" lon="2.49736">
        <ele>79.8918</ele>
        <time>2017-05-31T07:39:41Z</time>
      </trkpt>
      <trkpt lat="48.70633" lon="2.49736">
        <ele>79.8918</ele>
        <time>2017-05-31T07:39:48Z</time>
      </trkpt>
      <trkpt lat="48.70633" lon="2.49736">
        <ele>36.9</ele>
        <time>2017-05-31T07:39:48Z</time>
      </trkpt>
      <trkpt lat="48.70633" lon="2.49736">
        <ele>36.9</ele>
        <time>2017-05-31T07:40:00Z</time>
      </trkpt>
      <trkpt lat="48.70621" lon="2.49722">
        <ele>79.8508</ele>
        <time>2017-05-31T07:40:00Z</time>
      </trkpt>
      <trkpt lat="48.70615" lon="2.49709">
        <ele>79.8336</ele>
        <time>2017-05-31T07:40:14Z</time>
      </trkpt>
      <trkpt lat="48.70615" lon="2.49709">
        <ele>37</ele>
        <time>2017-05-31T07:40:22Z</time>
      </trkpt>
      <trkpt lat="48.70615" lon="2.49709">
        <ele>37</ele>
        <time>2017-05-31T07:40:31Z</time>
      </trkpt>
      <trkpt lat="48.70606" lon="2.49718">
        <ele>79.8358</ele>
        <time>2017-05-31T07:40:31Z</time>
      </trkpt>
      <trkpt lat="48.70587" lon="2.49718">
        <ele>79.8314</ele>
        <time>2017-05-31T07:40:41Z</time>
      </trkpt>
      <trkpt lat="48.70587" lon="2.49718">
        <ele>39.6</ele>
        <time>2017-05-31T07:40:48Z</time>
      </trkpt>
      <trkpt lat="48.70587" lon="2.49718">
        <ele>39.6</ele>
        <time>2017-05-31T07:41:19Z</time>
      </trkpt>
      <trkpt lat="48.70562" lon="2.49692">
        <ele>79.2626</ele>
        <time>2017-05-31T07:46:17Z</time>
      </trkpt>
      <trkpt lat="48.70557" lon="2.49688">
        <ele>79.2308</ele>
        <time>2017-05-31T07:46:23Z</time>
      </trkpt>
      <trkpt lat="48.70557" lon="2.49688">
        <ele>41.4</ele>
        <time>2017-05-31T07:46:34Z</time>
      </trkpt>
      <trkpt lat="48.70557" lon="2.49688">
        <ele>41.4</ele>
        <time>2017-05-31T07:46:38Z</time>
      </trkpt>
      <trkpt lat="48.70553" lon="2.4968">
        <ele>79.351</ele>
        <time>2017-05-31T07:46:38Z</time>
      </trkpt>
      <trkpt lat="48.70534" lon="2.49676">
        <ele>79.341</ele>
        <time>2017-05-31T07:46:56Z</time>
      </trkpt>
      <trkpt lat="48.70511" lon="2.49672">
        <ele>79.3417</ele>
        <time>2017-05-31T07:47:15Z</time>
      </trkpt>
      <trkpt lat="48.70496" lon="2.49681">
        <ele>79.3202</ele>
        <time>2017-05-31T07:47:24Z</time>
      </trkpt>
      <trkpt lat="48.70479" lon="2.49674">
        <ele>79.3005</ele>
        <time>2017-05-31T07:47:38Z</time>
      </trkpt>
      <trkpt lat="48.70468" lon="2.49668">
        <ele>79.2946</ele>
        <time>2017-05-31T07:47:48Z</time>
      </trkpt>
      <trkpt lat="48.70458" lon="2.49666">
        <ele>79.2996</ele>
        <time>2017-05-31T07:47:56Z</time>
      </trkpt>
      <trkpt lat="48.7043" lon="2.49652">
        <ele>79.3282</ele>
        <time>2017-05-31T07:48:16Z</time>
      </trkpt>
      <trkpt lat="48.70413" lon="2.49624">
        <ele>79.3273</ele>
        <time>2017-05-31T07:48:45Z</time>
      </trkpt>
      <trkpt lat="48.70413" lon="2.49624">
        <ele>79.3273</ele>
        <time>2017-05-31T07:48:53Z</time>
      </trkpt>
      <trkpt lat="48.70413" lon="2.49624">
        <ele>37</ele>
        <time>2017-05-31T07:48:53Z</time>
      </trkpt>
      <trkpt lat="48.70413" lon="2.49624">
        <ele>37</ele>
        <time>2017-05-31T07:49:07Z</time>
      </trkpt>
      <trkpt lat="48.70412" lon="2.49592">
        <ele>79.2903</ele>
        <time>2017-05-31T07:49:07Z</time>
      </trkpt>
      <trkpt lat="48.70408" lon="2.49559">
        <ele>79.3336</ele>
        <time>2017-05-31T07:49:22Z</time>
      </trkpt>
      <trkpt lat="48.70407" lon="2.4953">
        <ele>79.3838</ele>
        <time>2017-05-31T07:49:35Z</time>
      </trkpt>
      <trkpt lat="48.70401" lon="2.49511">
        <ele>79.4084</ele>
        <time>2017-05-31T07:49:46Z</time>
      </trkpt>
      <trkpt lat="48.70389" lon="2.49484">
        <ele>79.4824</ele>
        <time>2017-05-31T07:50:02Z</time>
      </trkpt>
      <trkpt lat="48.70381" lon="2.49471">
        <ele>79.5238</ele>
        <time>2017-05-31T07:50:08Z</time>
      </trkpt>
      <trkpt lat="48.70381" lon="2.49471">
        <ele>36.9</ele>
        <time>2017-05-31T07:50:14Z</time>
      </trkpt>
      <trkpt lat="48.70381" lon="2.49471">
        <ele>36.9</ele>
        <time>2017-05-31T07:50:19Z</time>
      </trkpt>
      <trkpt lat="48.70372" lon="2.49462">
        <ele>79.5991</ele>
        <time>2017-05-31T07:50:19Z</time>
      </trkpt>
      <trkpt lat="48.70356" lon="2.49466">
        <ele>79.6794</ele>
        <time>2017-05-31T07:50:37Z</time>
      </trkpt>
      <trkpt lat="48.70326" lon="2.49454">
        <ele>79.6348</ele>
        <time>2017-05-31T07:50:57Z</time>
      </trkpt>
      <trkpt lat="48.70313" lon="2.49455">
        <ele>79.618</ele>
        <time>2017-05-31T07:51:10Z</time>
      </trkpt>
      <trkpt lat="48.70298" lon="2.49452">
        <ele>79.638</ele>
        <time>2017-05-31T07:51:23Z</time>
      </trkpt>
      <trkpt lat="48.70278" lon="2.49448">
        <ele>79.667</ele>
        <time>2017-05-31T07:51:36Z</time>
      </trkpt>
      <trkpt lat="48.70266" lon="2.49449">
        <ele>79.7041</ele>
        <time>2017-05-31T07:51:47Z</time>
      </trkpt>
      <trkpt lat="48.70266" lon="2.49449">
        <ele>79.7041</ele>
        <time>2017-05-31T07:51:52Z</time>
      </trkpt>
      <trkpt lat="48.70266" lon="2.49449">
        <ele>37.2</ele>
        <time>2017-05-31T07:51:52Z</time>
      </trkpt>
      <trkpt lat="48.70266" lon="2.49449">
        <ele>37.2</ele>
        <time>2017-05-31T07:52:00Z</time>
      </trkpt>
      <trkpt lat="48.70247" lon="2.49444">
        <ele>79.734</ele>
        <time>2017-05-31T07:52:00Z</time>
      </trkpt>
      <trkpt lat="48.7024" lon="2.49446">
        <ele>79.7489</ele>
        <time>2017-05-31T07:52:09Z</time>
      </trkpt>
      <trkpt lat="48.70216" lon="2.49449">
        <ele>79.8089</ele>
        <time>2017-05-31T07:52:29Z</time>
      </trkpt>
      <trkpt lat="48.70202" lon="2.49461">
        <ele>79.9029</ele>
        <time>2017-05-31T07:52:42Z</time>
      </trkpt>
      <trkpt lat="48.70197" lon="2.49466">
        <ele>79.9503</ele>
        <time>2017-05-31T07:52:48Z</time>
      </trkpt>
      <trkpt lat="48.70197" lon="2.49466">
        <ele>38.5</ele>
        <time>2017-05-31T07:52:56Z</time>
      </trkpt>
      <trkpt lat="48.70197" lon="2.49466">
        <ele>38.5</ele>
        <time>2017-05-31T07:53:05Z</time>
      </trkpt>
      <trkpt lat="48.70189" lon="2.49453">
        <ele>80.045</ele>
        <time>2017-05-31T07:53:05Z</time>
      </trkpt>
      <trkpt lat="48.70178" lon="2.49441">
        <ele>80.0437</ele>
        <time>2017-05-31T07:53:16Z</time>
      </trkpt>
      <trkpt lat="48.70165" lon="2.49425">
        <ele>80.0486</ele>
        <time>2017-05-31T07:53:28Z</time>
      </trkpt>
      <trkpt lat="48.7016" lon="2.49409">
        <ele>80.1376</ele>
        <time>2017-05-31T07:53:37Z</time>
      </trkpt>
      <trkpt lat="48.70156" lon="2.49386">
        <ele>80.3335</ele>
        <time>2017-05-31T07:53:52Z</time>
      </trkpt>
      <trkpt lat="48.70153" lon="2.4938">
        <ele>80.4298</ele>
        <time>2017-05-31T07:53:57Z</time>
      </trkpt>
      <trkpt lat="48.70153" lon="2.4938">
        <ele>38.3</ele>
        <time>2017-05-31T07:54:04Z</time>
      </trkpt>
      <trkpt lat="48.70153" lon="2.4938">
        <ele>38.3</ele>
        <time>2017-05-31T07:54:10Z</time>
      </trkpt>
      <trkpt lat="48.70147" lon="2.49377">
        <ele>80.6892</ele>
        <time>2017-05-31T07:54:10Z</time>
      </trkpt>
      <trkpt lat="48.70141" lon="2.49392">
        <ele>80.9467</ele>
        <time>2017-05-31T07:54:23Z</time>
      </trkpt>
      <trkpt lat="48.70141" lon="2.49392">
        <ele>38.8</ele>
        <time>2017-05-31T07:54:31Z</time>
      </trkpt>
      <trkpt lat="48.70141" lon="2.49392">
        <ele>38.8</ele>
        <time>2017-05-31T07:54:37Z</time>
      </trkpt>
      <trkpt lat="48.70142" lon="2.49406">
        <ele>81.2095</ele>
        <time>2017-05-31T07:54:37Z</time>
      </trkpt>
      <trkpt lat="48.70136" lon="2.49422">
        <ele>81.3952</ele>
        <time>2017-05-31T07:54:51Z</time>
      </trkpt>
      <trkpt lat="48.70116" lon="2.49446">
        <ele>81.5267</ele>
        <time>2017-05-31T07:55:06Z</time>
      </trkpt>
      <trkpt lat="48.70097" lon="2.49471">
        <ele>81.6179</ele>
        <time>2017-05-31T07:55:28Z</time>
      </trkpt>
      <trkpt lat="48.70082" lon="2.49483">
        <ele>81.6754</ele>
        <time>2017-05-31T07:55:41Z</time>
      </trkpt>
      <trkpt lat="48.70066" lon="2.49502">
        <ele>81.7861</ele>
        <time>2017-05-31T07:55:58Z</time>
      </trkpt>
      <trkpt lat="48.70057" lon="2.49519">
        <ele>81.8525</ele>
        <time>2017-05-31T07:56:12Z</time>
      </trkpt>
      <trkpt lat="48.70052" lon="2.49545">
        <ele>81.8947</ele>
        <time>2017-05-31T07:56:26Z</time>
      </trkpt>
      <trkpt lat="48.70041" lon="2.49568">
        <ele>81.918</ele>
        <time>2017-05-31T07:56:42Z</time>
      </trkpt>
      <trkpt lat="48.70018" lon="2.49574">
        <ele>81.9542</ele>
        <time>2017-05-31T07:56:56Z</time>
      </trkpt>
      <trkpt lat="48.70008" lon="2.49564">
        <ele>81.9929</ele>
        <time>2017-05-31T07:57:08Z</time>
      </trkpt>
      <trkpt lat="48.69998" lon="2.4953">
        <ele>82.0788</ele>
        <time>2017-05-31T07:57:25Z</time>
      </trkpt>
      <trkpt lat="48.69987" lon="2.4951">
        <ele>82.1315</ele>
        <time>2017-05-31T07:57:40Z</time>
      </trkpt>
      <trkpt lat="48.69967" lon="2.49499">
        <ele>82.1611</ele>
        <time>2017-05-31T07:57:55Z</time>
      </trkpt>
      <trkpt lat="48.69952" lon="2.4949">
        <ele>82.1852</ele>
        <time>2017-05-31T07:58:06Z</time>
      </trkpt>
      <trkpt lat="48.69932" lon="2.49496">
        <ele>82.2288</ele>
        <time>2017-05-31T07:58:21Z</time>
      </trkpt>
      <trkpt lat="48.69913" lon="2.4951">
        <ele>82.2891</ele>
        <time>2017-05-31T07:58:39Z</time>
      </trkpt>
      <trkpt lat="48.69895" lon="2.49529">
        <ele>82.3288</ele>
        <time>2017-05-31T07:58:54Z</time>
      </trkpt>
      <trkpt lat="48.69885" lon="2.49542">
        <ele>82.3547</ele>
        <time>2017-05-31T07:59:04Z</time>
      </trkpt>
      <trkpt lat="48.6988" lon="2.49566">
        <ele>82.3926</ele>
        <time>2017-05-31T07:59:18Z</time>
      </trkpt>
      <trkpt lat="48.69878" lon="2.49586">
        <ele>82.4219</ele>
        <time>2017-05-31T07:59:31Z</time>
      </trkpt>
      <trkpt lat="48.69878" lon="2.49586">
        <ele>36.5</ele>
        <time>2017-05-31T07:59:38Z</time>
      </trkpt>
      <trkpt lat="48.69878" lon="2.49586">
        <ele>36.5</ele>
        <time>2017-05-31T07:59:46Z</time>
      </trkpt>
      <trkpt lat="48.69886" lon="2.49594">
        <ele>82.3955</ele>
        <time>2017-05-31T07:59:46Z</time>
      </trkpt>
      <trkpt lat="48.69907" lon="2.49618">
        <ele>82.3209</ele>
        <time>2017-05-31T08:00:02Z</time>
      </trkpt>
      <trkpt lat="48.69924" lon="2.49637">
        <ele>82.2725</ele>
        <time>2017-05-31T08:00:13Z</time>
      </trkpt>
      <trkpt lat="48.69934" lon="2.49664">
        <ele>82.2224</ele>
        <time>2017-05-31T08:00:28Z</time>
      </trkpt>
      <trkpt lat="48.69927" lon="2.49675">
        <ele>82.2227</ele>
        <time>2017-05-31T08:00:44Z</time>
      </trkpt>
      <trkpt lat="48.69922" lon="2.49672">
        <ele>82.225</ele>
        <time>2017-05-31T08:00:47Z</time>
      </trkpt>
      <trkpt lat="48.69922" lon="2.49672">
        <ele>36.8</ele>
        <time>2017-05-31T08:00:55Z</time>
      </trkpt>
      <trkpt lat="48.69922" lon="2.49672">
        <ele>36.8</ele>
        <time>2017-05-31T08:01:05Z</time>
      </trkpt>
      <trkpt lat="48.69915" lon="2.49676">
        <ele>82.215</ele>
        <time>2017-05-31T08:01:05Z</time>
      </trkpt>
      <trkpt lat="48.69904" lon="2.49692">
        <ele>82.1839</ele>
        <time>2017-05-31T08:01:14Z</time>
      </trkpt>
      <trkpt lat="48.69896" lon="2.49701">
        <ele>82.1666</ele>
        <time>2017-05-31T08:01:21Z</time>
      </trkpt>
      <trkpt lat="48.69887" lon="2.49717">
        <ele>82.1515</ele>
        <time>2017-05-31T08:01:30Z</time>
      </trkpt>
      <trkpt lat="48.69884" lon="2.49729">
        <ele>82.1326</ele>
        <time>2017-05-31T08:01:38Z</time>
      </trkpt>
      <trkpt lat="48.69874" lon="2.49751">
        <ele>82.0636</ele>
        <time>2017-05-31T08:01:54Z</time>
      </trkpt>
      <trkpt lat="48.69858" lon="2.49761">
        <ele>82.0241</ele>
        <time>2017-05-31T08:02:03Z</time>
      </trkpt>
      <trkpt lat="48.69855" lon="2.49766">
        <ele>82.0107</ele>
        <time>2017-05-31T08:02:07Z</time>
      </trkpt>
      <trkpt lat="48.69855" lon="2.49766">
        <ele>36.6</ele>
        <time>2017-05-31T08:02:12Z</time>
      </trkpt>
      <trkpt lat="48.69855" lon="2.49766">
        <ele>36.6</ele>
        <time>2017-05-31T08:02:16Z</time>
      </trkpt>
      <trkpt lat="48.69847" lon="2.49775">
        <ele>81.9913</ele>
        <time>2017-05-31T08:02:16Z</time>
      </trkpt>
      <trkpt lat="48.69832" lon="2.49808">
        <ele>81.9465</ele>
        <time>2017-05-31T08:02:34Z</time>
      </trkpt>
      <trkpt lat="48.69823" lon="2.49831">
        <ele>81.9039</ele>
        <time>2017-05-31T08:02:48Z</time>
      </trkpt>
      <trkpt lat="48.69811" lon="2.49843">
        <ele>81.857</ele>
        <time>2017-05-31T08:03:00Z</time>
      </trkpt>
      <trkpt lat="48.69806" lon="2.49845">
        <ele>81.8311</ele>
        <time>2017-05-31T08:03:05Z</time>
      </trkpt>
      <trkpt lat="48.69806" lon="2.49845">
        <ele>36.6</ele>
        <time>2017-05-31T08:03:12Z</time>
      </trkpt>
      <trkpt lat="48.69806" lon="2.49845">
        <ele>36.6</ele>
        <time>2017-05-31T08:03:16Z</time>
      </trkpt>
      <trkpt lat="48.69806" lon="2.49863">
        <ele>81.7796</ele>
        <time>2017-05-31T08:03:16Z</time>
      </trkpt>
      <trkpt lat="48.69796" lon="2.49874">
        <ele>81.7236</ele>
        <time>2017-05-31T08:03:25Z</time>
      </trkpt>
      <trkpt lat="48.69786" lon="2.49909">
        <ele>81.5917</ele>
        <time>2017-05-31T08:03:43Z</time>
      </trkpt>
      <trkpt lat="48.69772" lon="2.4992">
        <ele>81.5469</ele>
        <time>2017-05-31T08:03:50Z</time>
      </trkpt>
      <trkpt lat="48.69756" lon="2.49941">
        <ele>81.4971</ele>
        <time>2017-05-31T08:04:01Z</time>
      </trkpt>
      <trkpt lat="48.6975" lon="2.49957">
        <ele>81.4723</ele>
        <time>2017-05-31T08:04:12Z</time>
      </trkpt>
      <trkpt lat="48.69741" lon="2.4997">
        <ele>81.4601</ele>
        <time>2017-05-31T08:04:24Z</time>
      </trkpt>
      <trkpt lat="48.69734" lon="2.49983">
        <ele>81.4561</ele>
        <time>2017-05-31T08:04:32Z</time>
      </trkpt>
      <trkpt lat="48.69716" lon="2.49994">
        <ele>81.4458</ele>
        <time>2017-05-31T08:04:42Z</time>
      </trkpt>
      <trkpt lat="48.69705" lon="2.5">
        <ele>81.4496</ele>
        <time>2017-05-31T08:04:50Z</time>
      </trkpt>
      <trkpt lat="48.69697" lon="2.5001">
        <ele>81.4526</ele>
        <time>2017-05-31T08:04:58Z</time>
      </trkpt>
      <trkpt lat="48.69693" lon="2.50032">
        <ele>81.4475</ele>
        <time>2017-05-31T08:05:09Z</time>
      </trkpt>
      <trkpt lat="48.69678" lon="2.50044">
        <ele>81.4197</ele>
        <time>2017-05-31T08:05:23Z</time>
      </trkpt>
      <trkpt lat="48.69656" lon="2.50068">
        <ele>81.3648</ele>
        <time>2017-05-31T08:05:41Z</time>
      </trkpt>
      <trkpt lat="48.69643" lon="2.50092">
        <ele>81.2272</ele>
        <time>2017-05-31T08:05:58Z</time>
      </trkpt>
      <trkpt lat="48.69638" lon="2.50112">
        <ele>81.1339</ele>
        <time>2017-05-31T08:06:12Z</time>
      </trkpt>
      <trkpt lat="48.6963" lon="2.50142">
        <ele>80.9907</ele>
        <time>2017-05-31T08:06:28Z</time>
      </trkpt>
      <trkpt lat="48.69618" lon="2.50183">
        <ele>80.7717</ele>
        <time>2017-05-31T08:06:46Z</time>
      </trkpt>
      <trkpt lat="48.69615" lon="2.50202">
        <ele>80.6007</ele>
        <time>2017-05-31T08:06:59Z</time>
      </trkpt>
      <trkpt lat="48.69605" lon="2.50214">
        <ele>80.4542</ele>
        <time>2017-05-31T08:07:14Z</time>
      </trkpt>
      <trkpt lat="48.69593" lon="2.50231">
        <ele>80.3235</ele>
        <time>2017-05-31T08:07:25Z</time>
      </trkpt>
      <trkpt lat="48.69585" lon="2.50249">
        <ele>80.1972</ele>
        <time>2017-05-31T08:07:38Z</time>
      </trkpt>
      <trkpt lat="48.69585" lon="2.50297">
        <ele>80.0055</ele>
        <time>2017-05-31T08:08:43Z</time>
      </trkpt>
      <trkpt lat="48.69585" lon="2.50297">
        <ele>80.0055</ele>
        <time>2017-05-31T08:08:50Z</time>
      </trkpt>
      <trkpt lat="48.69585" lon="2.50297">
        <ele>37.7</ele>
        <time>2017-05-31T08:08:50Z</time>
      </trkpt>
      <trkpt lat="48.69585" lon="2.50297">
        <ele>37.7</ele>
        <time>2017-05-31T08:08:59Z</time>
      </trkpt>
      <trkpt lat="48.69592" lon="2.50306">
        <ele>79.9815</ele>
        <time>2017-05-31T08:08:59Z</time>
      </trkpt>
      <trkpt lat="48.69606" lon="2.50313">
        <ele>79.9591</ele>
        <time>2017-05-31T08:09:13Z</time>
      </trkpt>
      <trkpt lat="48.69614" lon="2.50324">
        <ele>79.9236</ele>
        <time>2017-05-31T08:09:25Z</time>
      </trkpt>
      <trkpt lat="48.69615" lon="2.50347">
        <ele>79.8431</ele>
        <time>2017-05-31T08:09:37Z</time>
      </trkpt>
      <trkpt lat="48.69611" lon="2.50366">
        <ele>79.7959</ele>
        <time>2017-05-31T08:09:48Z</time>
      </trkpt>
      <trkpt lat="48.69607" lon="2.50388">
        <ele>79.7638</ele>
        <time>2017-05-31T08:10:02Z</time>
      </trkpt>
      <trkpt lat="48.69604" lon="2.50407">
        <ele>79.7283</ele>
        <time>2017-05-31T08:10:14Z</time>
      </trkpt>
      <trkpt lat="48.69602" lon="2.50421">
        <ele>79.6833</ele>
        <time>2017-05-31T08:10:24Z</time>
      </trkpt>
      <trkpt lat="48.69593" lon="2.50451">
        <ele>79.5809</ele>
        <time>2017-05-31T08:10:45Z</time>
      </trkpt>
      <trkpt lat="48.69593" lon="2.50471">
        <ele>79.5208</ele>
        <time>2017-05-31T08:10:57Z</time>
      </trkpt>
      <trkpt lat="48.69601" lon="2.50493">
        <ele>79.4862</ele>
        <time>2017-05-31T08:11:12Z</time>
      </trkpt>
      <trkpt lat="48.69606" lon="2.50513">
        <ele>79.4654</ele>
        <time>2017-05-31T08:11:29Z</time>
      </trkpt>
      <trkpt lat="48.69608" lon="2.50544">
        <ele>79.4553</ele>
        <time>2017-05-31T08:11:48Z</time>
      </trkpt>
      <trkpt lat="48.69605" lon="2.50569">
        <ele>79.4277</ele>
        <time>2017-05-31T08:12:02Z</time>
      </trkpt>
      <trkpt lat="48.69604" lon="2.50592">
        <ele>79.3951</ele>
        <time>2017-05-31T08:12:15Z</time>
      </trkpt>
      <trkpt lat="48.69608" lon="2.50622">
        <ele>79.3594</ele>
        <time>2017-05-31T08:12:29Z</time>
      </trkpt>
      <trkpt lat="48.6961" lon="2.50652">
        <ele>79.3632</ele>
        <time>2017-05-31T08:12:45Z</time>
      </trkpt>
      <trkpt lat="48.69612" lon="2.50673">
        <ele>79.3603</ele>
        <time>2017-05-31T08:12:57Z</time>
      </trkpt>
      <trkpt lat="48.69614" lon="2.50699">
        <ele>79.3302</ele>
        <time>2017-05-31T08:13:12Z</time>
      </trkpt>
      <trkpt lat="48.69616" lon="2.50737">
        <ele>79.2921</ele>
        <time>2017-05-31T08:13:30Z</time>
      </trkpt>
      <trkpt lat="48.69617" lon="2.50756">
        <ele>79.2709</ele>
        <time>2017-05-31T08:13:40Z</time>
      </trkpt>
      <trkpt lat="48.69616" lon="2.50779">
        <ele>79.2332</ele>
        <time>2017-05-31T08:13:52Z</time>
      </trkpt>
      <trkpt lat="48.69616" lon="2.508">
        <ele>79.2092</ele>
        <time>2017-05-31T08:14:03Z</time>
      </trkpt>
      <trkpt lat="48.6962" lon="2.50836">
        <ele>79.208</ele>
        <time>2017-05-31T08:14:22Z</time>
      </trkpt>
      <trkpt lat="48.69619" lon="2.50861">
        <ele>79.1932</ele>
        <time>2017-05-31T08:14:34Z</time>
      </trkpt>
      <trkpt lat="48.69622" lon="2.50892">
        <ele>79.161</ele>
        <time>2017-05-31T08:14:50Z</time>
      </trkpt>
      <trkpt lat="48.69622" lon="2.50921">
        <ele>79.1706</ele>
        <time>2017-05-31T08:15:09Z</time>
      </trkpt>
      <trkpt lat="48.6963" lon="2.50954">
        <ele>79.2025</ele>
        <time>2017-05-31T08:15:26Z</time>
      </trkpt>
      <trkpt lat="48.69631" lon="2.50963">
        <ele>79.2121</ele>
        <time>2017-05-31T08:15:31Z</time>
      </trkpt>
      <trkpt lat="48.69631" lon="2.50963">
        <ele>37.8</ele>
        <time>2017-05-31T08:15:38Z</time>
      </trkpt>
      <trkpt lat="48.69631" lon="2.50963">
        <ele>37.8</ele>
        <time>2017-05-31T08:15:43Z</time>
      </trkpt>
      <trkpt lat="48.69637" lon="2.50974">
        <ele>79.2324</ele>
        <time>2017-05-31T08:15:43Z</time>
      </trkpt>
      <trkpt lat="48.69645" lon="2.51002">
        <ele>79.2388</ele>
        <time>2017-05-31T08:16:00Z</time>
      </trkpt>
      <trkpt lat="48.69651" lon="2.51032">
        <ele>79.2322</ele>
        <time>2017-05-31T08:16:18Z</time>
      </trkpt>
      <trkpt lat="48.69663" lon="2.5105">
        <ele>79.2281</ele>
        <time>2017-05-31T08:16:31Z</time>
      </trkpt>
      <trkpt lat="48.69666" lon="2.51063">
        <ele>79.2105</ele>
        <time>2017-05-31T08:16:39Z</time>
      </trkpt>
      <trkpt lat="48.69666" lon="2.51098">
        <ele>79.1337</ele>
        <time>2017-05-31T08:16:56Z</time>
      </trkpt>
      <trkpt lat="48.69669" lon="2.5113">
        <ele>79.0859</ele>
        <time>2017-05-31T08:17:11Z</time>
      </trkpt>
      <trkpt lat="48.69658" lon="2.51157">
        <ele>79.1334</ele>
        <time>2017-05-31T08:17:28Z</time>
      </trkpt>
      <trkpt lat="48.6966" lon="2.5118">
        <ele>79.2582</ele>
        <time>2017-05-31T08:17:42Z</time>
      </trkpt>
      <trkpt lat="48.69668" lon="2.51193">
        <ele>79.3279</ele>
        <time>2017-05-31T08:17:52Z</time>
      </trkpt>
      <trkpt lat="48.69681" lon="2.5121">
        <ele>79.4143</ele>
        <time>2017-05-31T08:18:05Z</time>
      </trkpt>
      <trkpt lat="48.69688" lon="2.51227">
        <ele>79.5341</ele>
        <time>2017-05-31T08:18:23Z</time>
      </trkpt>
      <trkpt lat="48.69698" lon="2.51243">
        <ele>79.5561</ele>
        <time>2017-05-31T08:18:34Z</time>
      </trkpt>
      <trkpt lat="48.69705" lon="2.51262">
        <ele>79.5507</ele>
        <time>2017-05-31T08:18:42Z</time>
      </trkpt>
      <trkpt lat="48.69713" lon="2.51287">
        <ele>79.5476</ele>
        <time>2017-05-31T08:18:57Z</time>
      </trkpt>
      <trkpt lat="48.6972" lon="2.5132">
        <ele>79.5633</ele>
        <time>2017-05-31T08:19:12Z</time>
      </trkpt>
      <trkpt lat="48.69724" lon="2.51337">
        <ele>79.5698</ele>
        <time>2017-05-31T08:19:23Z</time>
      </trkpt>
      <trkpt lat="48.69726" lon="2.51368">
        <ele>79.513</ele>
        <time>2017-05-31T08:19:39Z</time>
      </trkpt>
      <trkpt lat="48.69723" lon="2.51396">
        <ele>79.475</ele>
        <time>2017-05-31T08:19:53Z</time>
      </trkpt>
      <trkpt lat="48.6973" lon="2.51414">
        <ele>79.4681</ele>
        <time>2017-05-31T08:20:04Z</time>
      </trkpt>
      <trkpt lat="48.69733" lon="2.51433">
        <ele>79.4454</ele>
        <time>2017-05-31T08:20:17Z</time>
      </trkpt>
      <trkpt lat="48.69736" lon="2.5146">
        <ele>79.3946</ele>
        <time>2017-05-31T08:20:32Z</time>
      </trkpt>
      <trkpt lat="48.69734" lon="2.51493">
        <ele>79.3487</ele>
        <time>2017-05-31T08:20:46Z</time>
      </trkpt>
      <trkpt lat="48.69739" lon="2.51523">
        <ele>79.327</ele>
        <time>2017-05-31T08:21:02Z</time>
      </trkpt>
      <trkpt lat="48.69741" lon="2.51544">
        <ele>79.3494</ele>
        <time>2017-05-31T08:21:14Z</time>
      </trkpt>
      <trkpt lat="48.69745" lon="2.51566">
        <ele>79.3937</ele>
        <time>2017-05-31T08:21:28Z</time>
      </trkpt>
      <trkpt lat="48.69746" lon="2.51603">
        <ele>79.4329</ele>
        <time>2017-05-31T08:21:48Z</time>
      </trkpt>
      <trkpt lat="48.69743" lon="2.51632">
        <ele>79.4352</ele>
        <time>2017-05-31T08:22:02Z</time>
      </trkpt>
      <trkpt lat="48.69749" lon="2.51661">
        <ele>79.4432</ele>
        <time>2017-05-31T08:22:18Z</time>
      </trkpt>
      <trkpt lat="48.69736" lon="2.51678">
        <ele>79.4737</ele>
        <time>2017-05-31T08:22:33Z</time>
      </trkpt>
      <trkpt lat="48.6973" lon="2.517">
        <ele>79.5532</ele>
        <time>2017-05-31T08:22:44Z</time>
      </trkpt>
      <trkpt lat="48.69737" lon="2.51719">
        <ele>79.6284</ele>
        <time>2017-05-31T08:22:55Z</time>
      </trkpt>
      <trkpt lat="48.69755" lon="2.51741">
        <ele>79.7255</ele>
        <time>2017-05-31T08:23:14Z</time>
      </trkpt>
      <trkpt lat="48.69768" lon="2.5176">
        <ele>79.7352</ele>
        <time>2017-05-31T08:23:28Z</time>
      </trkpt>
      <trkpt lat="48.69778" lon="2.51773">
        <ele>79.6735</ele>
        <time>2017-05-31T08:23:39Z</time>
      </trkpt>
      <trkpt lat="48.69791" lon="2.51781">
        <ele>79.6096</ele>
        <time>2017-05-31T08:23:51Z</time>
      </trkpt>
      <trkpt lat="48.69803" lon="2.51792">
        <ele>79.538</ele>
        <time>2017-05-31T08:24:02Z</time>
      </trkpt>
      <trkpt lat="48.6982" lon="2.51806">
        <ele>79.4006</ele>
        <time>2017-05-31T08:24:19Z</time>
      </trkpt>
      <trkpt lat="48.69839" lon="2.51823">
        <ele>79.3074</ele>
        <time>2017-05-31T08:24:39Z</time>
      </trkpt>
      <trkpt lat="48.69857" lon="2.51838">
        <ele>79.3032</ele>
        <time>2017-05-31T08:24:53Z</time>
      </trkpt>
      <trkpt lat="48.6987" lon="2.51857">
        <ele>79.3051</ele>
        <time>2017-05-31T08:25:10Z</time>
      </trkpt>
      <trkpt lat="48.6989" lon="2.51879">
        <ele>79.2394</ele>
        <time>2017-05-31T08:25:28Z</time>
      </trkpt>
      <trkpt lat="48.69898" lon="2.51898">
        <ele>79.1863</ele>
        <time>2017-05-31T08:25:38Z</time>
      </trkpt>
      <trkpt lat="48.69908" lon="2.51911">
        <ele>79.1161</ele>
        <time>2017-05-31T08:25:50Z</time>
      </trkpt>
      <trkpt lat="48.6992" lon="2.51929">
        <ele>79.0411</ele>
        <time>2017-05-31T08:26:03Z</time>
      </trkpt>
      <trkpt lat="48.69934" lon="2.51952">
        <ele>78.9645</ele>
        <time>2017-05-31T08:26:18Z</time>
      </trkpt>
      <trkpt lat="48.69942" lon="2.51966">
        <ele>78.8785</ele>
        <time>2017-05-31T08:26:34Z</time>
      </trkpt>
      <trkpt lat="48.6995" lon="2.5198">
        <ele>78.8261</ele>
        <time>2017-05-31T08:26:44Z</time>
      </trkpt>
      <trkpt lat="48.69971" lon="2.52008">
        <ele>78.8135</ele>
        <time>2017-05-31T08:27:17Z</time>
      </trkpt>
      <trkpt lat="48.69984" lon="2.52026">
        <ele>78.8761</ele>
        <time>2017-05-31T08:27:29Z</time>
      </trkpt>
      <trkpt lat="48.70002" lon="2.52043">
        <ele>78.9774</ele>
        <time>2017-05-31T08:27:43Z</time>
      </trkpt>
      <trkpt lat="48.70012" lon="2.5206">
        <ele>79.0375</ele>
        <time>2017-05-31T08:27:52Z</time>
      </trkpt>
      <trkpt lat="48.70021" lon="2.52071">
        <ele>79.0774</ele>
        <time>2017-05-31T08:28:01Z</time>
      </trkpt>
      <trkpt lat="48.70037" lon="2.5209">
        <ele>79.1163</ele>
        <time>2017-05-31T08:28:16Z</time>
      </trkpt>
      <trkpt lat="48.7005" lon="2.52103">
        <ele>79.1712</ele>
        <time>2017-05-31T08:28:29Z</time>
      </trkpt>
      <trkpt lat="48.70057" lon="2.52109">
        <ele>79.193</ele>
        <time>2017-05-31T08:28:37Z</time>
      </trkpt>
      <trkpt lat="48.70067" lon="2.52122">
        <ele>79.1996</ele>
        <time>2017-05-31T08:28:48Z</time>
      </trkpt>
      <trkpt lat="48.70076" lon="2.52138">
        <ele>79.1776</ele>
        <time>2017-05-31T08:28:59Z</time>
      </trkpt>
      <trkpt lat="48.70088" lon="2.5216">
        <ele>79.1415</ele>
        <time>2017-05-31T08:29:15Z</time>
      </trkpt>
      <trkpt lat="48.70099" lon="2.52167">
        <ele>79.1216</ele>
        <time>2017-05-31T08:29:24Z</time>
      </trkpt>
      <trkpt lat="48.70108" lon="2.52177">
        <ele>79.0978</ele>
        <time>2017-05-31T08:29:33Z</time>
      </trkpt>
      <trkpt lat="48.70121" lon="2.52177">
        <ele>79.0667</ele>
        <time>2017-05-31T08:29:47Z</time>
      </trkpt>
      <trkpt lat="48.70135" lon="2.52172">
        <ele>79.0556</ele>
        <time>2017-05-31T08:30:00Z</time>
      </trkpt>
      <trkpt lat="48.70147" lon="2.52171">
        <ele>79.0727</ele>
        <time>2017-05-31T08:30:11Z</time>
      </trkpt>
      <trkpt lat="48.7016" lon="2.52168">
        <ele>79.0913</ele>
        <time>2017-05-31T08:30:20Z</time>
      </trkpt>
      <trkpt lat="48.70184" lon="2.52169">
        <ele>79.174</ele>
        <time>2017-05-31T08:30:41Z</time>
      </trkpt>
      <trkpt lat="48.70201" lon="2.52179">
        <ele>79.3808</ele>
        <time>2017-05-31T08:31:03Z</time>
      </trkpt>
      <trkpt lat="48.70212" lon="2.52182">
        <ele>79.5614</ele>
        <time>2017-05-31T08:31:14Z</time>
      </trkpt>
      <trkpt lat="48.70237" lon="2.52184">
        <ele>79.7668</ele>
        <time>2017-05-31T08:31:27Z</time>
      </trkpt>
      <trkpt lat="48.70241" lon="2.52187">
        <ele>79.8313</ele>
        <time>2017-05-31T08:31:31Z</time>
      </trkpt>
      <trkpt lat="48.70241" lon="2.52187">
        <ele>38.8</ele>
        <time>2017-05-31T08:31:37Z</time>
      </trkpt>
      <trkpt lat="48.70241" lon="2.52187">
        <ele>38.8</ele>
        <time>2017-05-31T08:32:16Z</time>
      </trkpt>
      <trkpt lat="48.70273" lon="2.52194">
        <ele>80.5702</ele>
        <time>2017-05-31T08:32:16Z</time>
      </trkpt>
      <trkpt lat="48.70282" lon="2.52195">
        <ele>80.7757</ele>
        <time>2017-05-31T08:32:24Z</time>
      </trkpt>
      <trkpt lat="48.70304" lon="2.52195">
        <ele>81.0771</ele>
        <time>2017-05-31T08:32:37Z</time>
      </trkpt>
      <trkpt lat="48.70316" lon="2.52197">
        <ele>81.2336</ele>
        <time>2017-05-31T08:32:45Z</time>
      </trkpt>
      <trkpt lat="48.70343" lon="2.52206">
        <ele>81.5144</ele>
        <time>2017-05-31T08:33:04Z</time>
      </trkpt>
      <trkpt lat="48.70371" lon="2.52219">
        <ele>81.7064</ele>
        <time>2017-05-31T08:33:22Z</time>
      </trkpt>
      <trkpt lat="48.70382" lon="2.52222">
        <ele>81.7814</ele>
        <time>2017-05-31T08:33:31Z</time>
      </trkpt>
      <trkpt lat="48.70394" lon="2.52225">
        <ele>81.8297</ele>
        <time>2017-05-31T08:33:38Z</time>
      </trkpt>
      <trkpt lat="48.70402" lon="2.5223">
        <ele>81.8896</ele>
        <time>2017-05-31T08:33:45Z</time>
      </trkpt>
      <trkpt lat="48.70417" lon="2.52234">
        <ele>81.9952</ele>
        <time>2017-05-31T08:33:58Z</time>
      </trkpt>
      <trkpt lat="48.7043" lon="2.52242">
        <ele>82.0854</ele>
        <time>2017-05-31T08:34:11Z</time>
      </trkpt>
      <trkpt lat="48.70453" lon="2.52258">
        <ele>82.1056</ele>
        <time>2017-05-31T08:34:29Z</time>
      </trkpt>
      <trkpt lat="48.70462" lon="2.52277">
        <ele>82.0564</ele>
        <time>2017-05-31T08:34:42Z</time>
      </trkpt>
      <trkpt lat="48.70473" lon="2.52301">
        <ele>81.9825</ele>
        <time>2017-05-31T08:34:56Z</time>
      </trkpt>
      <trkpt lat="48.70476" lon="2.52327">
        <ele>81.9379</ele>
        <time>2017-05-31T08:35:10Z</time>
      </trkpt>
      <trkpt lat="48.70484" lon="2.52357">
        <ele>81.9221</ele>
        <time>2017-05-31T08:35:26Z</time>
      </trkpt>
      <trkpt lat="48.70492" lon="2.52387">
        <ele>81.9137</ele>
        <time>2017-05-31T08:35:44Z</time>
      </trkpt>
      <trkpt lat="48.70499" lon="2.52411">
        <ele>81.9437</ele>
        <time>2017-05-31T08:35:59Z</time>
      </trkpt>
      <trkpt lat="48.70504" lon="2.52442">
        <ele>81.9805</ele>
        <time>2017-05-31T08:36:18Z</time>
      </trkpt>
      <trkpt lat="48.70506" lon="2.52466">
        <ele>81.9912</ele>
        <time>2017-05-31T08:36:30Z</time>
      </trkpt>
      <trkpt lat="48.70505" lon="2.52485">
        <ele>81.9859</ele>
        <time>2017-05-31T08:36:40Z</time>
      </trkpt>
      <trkpt lat="48.70502" lon="2.52506">
        <ele>81.9589</ele>
        <time>2017-05-31T08:36:52Z</time>
      </trkpt>
      <trkpt lat="48.70498" lon="2.5254">
        <ele>81.8919</ele>
        <time>2017-05-31T08:37:12Z</time>
      </trkpt>
      <trkpt lat="48.70484" lon="2.52564">
        <ele>81.8442</ele>
        <time>2017-05-31T08:37:28Z</time>
      </trkpt>
      <trkpt lat="48.70474" lon="2.52592">
        <ele>81.8103</ele>
        <time>2017-05-31T08:37:43Z</time>
      </trkpt>
      <trkpt lat="48.70474" lon="2.52592">
        <ele>81.8103</ele>
        <time>2017-05-31T08:37:50Z</time>
      </trkpt>
      <trkpt lat="48.70474" lon="2.52592">
        <ele>38.7</ele>
        <time>2017-05-31T08:37:50Z</time>
      </trkpt>
      <trkpt lat="48.70474" lon="2.52592">
        <ele>38.7</ele>
        <time>2017-05-31T08:38:02Z</time>
      </trkpt>
      <trkpt lat="48.70462" lon="2.52609">
        <ele>81.9413</ele>
        <time>2017-05-31T08:38:02Z</time>
      </trkpt>
      <trkpt lat="48.70458" lon="2.52634">
        <ele>82.0131</ele>
        <time>2017-05-31T08:38:13Z</time>
      </trkpt>
      <trkpt lat="48.70456" lon="2.52652">
        <ele>82.1108</ele>
        <time>2017-05-31T08:38:22Z</time>
      </trkpt>
      <trkpt lat="48.70453" lon="2.5267">
        <ele>82.3116</ele>
        <time>2017-05-31T08:38:35Z</time>
      </trkpt>
      <trkpt lat="48.70445" lon="2.52705">
        <ele>82.6442</ele>
        <time>2017-05-31T08:38:53Z</time>
      </trkpt>
      <trkpt lat="48.70437" lon="2.52723">
        <ele>82.973</ele>
        <time>2017-05-31T08:39:05Z</time>
      </trkpt>
      <trkpt lat="48.70429" lon="2.5274">
        <ele>83.2138</ele>
        <time>2017-05-31T08:39:17Z</time>
      </trkpt>
      <trkpt lat="48.7042" lon="2.5276">
        <ele>83.4068</ele>
        <time>2017-05-31T08:39:30Z</time>
      </trkpt>
      <trkpt lat="48.70408" lon="2.52782">
        <ele>83.5558</ele>
        <time>2017-05-31T08:39:43Z</time>
      </trkpt>
      <trkpt lat="48.70394" lon="2.52809">
        <ele>83.6901</ele>
        <time>2017-05-31T08:40:00Z</time>
      </trkpt>
      <trkpt lat="48.70382" lon="2.52826">
        <ele>83.7434</ele>
        <time>2017-05-31T08:40:13Z</time>
      </trkpt>
      <trkpt lat="48.70369" lon="2.52834">
        <ele>83.7525</ele>
        <time>2017-05-31T08:40:23Z</time>
      </trkpt>
      <trkpt lat="48.70353" lon="2.52845">
        <ele>83.7449</ele>
        <time>2017-05-31T08:40:36Z</time>
      </trkpt>
      <trkpt lat="48.7033" lon="2.5286">
        <ele>83.6844</ele>
        <time>2017-05-31T08:40:54Z</time>
      </trkpt>
      <trkpt lat="48.70311" lon="2.52874">
        <ele>83.6432</ele>
        <time>2017-05-31T08:41:07Z</time>
      </trkpt>
      <trkpt lat="48.70296" lon="2.52879">
        <ele>83.6039</ele>
        <time>2017-05-31T08:41:19Z</time>
      </trkpt>
      <trkpt lat="48.70277" lon="2.5289">
        <ele>83.507</ele>
        <time>2017-05-31T08:41:37Z</time>
      </trkpt>
      <trkpt lat="48.70261" lon="2.52898">
        <ele>83.4338</ele>
        <time>2017-05-31T08:41:51Z</time>
      </trkpt>
      <trkpt lat="48.70261" lon="2.52898">
        <ele>39</ele>
        <time>2017-05-31T08:41:59Z</time>
      </trkpt>
      <trkpt lat="48.70261" lon="2.52898">
        <ele>39</ele>
        <time>2017-05-31T08:44:52Z</time>
      </trkpt>
      <trkpt lat="48.70232" lon="2.52903">
        <ele>82.5124</ele>
        <time>2017-05-31T08:44:52Z</time>
      </trkpt>
      <trkpt lat="48.70232" lon="2.52903">
        <ele>82.5124</ele>
        <time>2017-05-31T08:47:27Z</time>
      </trkpt>
      <trkpt lat="48.70212" lon="2.52923">
        <ele>82.3754</ele>
        <time>2017-05-31T08:48:58Z</time>
      </trkpt>
      <trkpt lat="48.70207" lon="2.52923">
        <ele>82.3668</ele>
        <time>2017-05-31T08:49:02Z</time>
      </trkpt>
      <trkpt lat="48.70207" lon="2.52923">
        <ele>39</ele>
        <time>2017-05-31T08:49:08Z</time>
      </trkpt>
      <trkpt lat="48.70207" lon="2.52923">
        <ele>39</ele>
        <time>2017-05-31T08:49:12Z</time>
      </trkpt>
      <trkpt lat="48.702" lon="2.52927">
        <ele>82.3439</ele>
        <time>2017-05-31T08:49:12Z</time>
      </trkpt>
      <trkpt lat="48.7019" lon="2.52936">
        <ele>82.3268</ele>
        <time>2017-05-31T08:49:19Z</time>
      </trkpt>
      <trkpt lat="48.7019" lon="2.52936">
        <ele>39.1</ele>
        <time>2017-05-31T08:49:27Z</time>
      </trkpt>
      <trkpt lat="48.7019" lon="2.52936">
        <ele>39.1</ele>
        <time>2017-05-31T08:49:34Z</time>
      </trkpt>
      <trkpt lat="48.70186" lon="2.5293">
        <ele>82.3134</ele>
        <time>2017-05-31T08:49:34Z</time>
      </trkpt>
      <trkpt lat="48.70172" lon="2.5295">
        <ele>82.286</ele>
        <time>2017-05-31T08:49:52Z</time>
      </trkpt>
      <trkpt lat="48.70158" lon="2.52964">
        <ele>82.2793</ele>
        <time>2017-05-31T08:50:01Z</time>
      </trkpt>
      <trkpt lat="48.70148" lon="2.5298">
        <ele>82.2567</ele>
        <time>2017-05-31T08:50:10Z</time>
      </trkpt>
      <trkpt lat="48.70122" lon="2.52997">
        <ele>82.2239</ele>
        <time>2017-05-31T08:50:27Z</time>
      </trkpt>
      <trkpt lat="48.70098" lon="2.53012">
        <ele>82.2019</ele>
        <time>2017-05-31T08:50:40Z</time>
      </trkpt>
      <trkpt lat="48.70085" lon="2.53016">
        <ele>82.1864</ele>
        <time>2017-05-31T08:50:52Z</time>
      </trkpt>
      <trkpt lat="48.70064" lon="2.53027">
        <ele>82.1811</ele>
        <time>2017-05-31T08:51:08Z</time>
      </trkpt>
      <trkpt lat="48.70055" lon="2.53034">
        <ele>82.1882</ele>
        <time>2017-05-31T08:51:15Z</time>
      </trkpt>
      <trkpt lat="48.70036" lon="2.53045">
        <ele>82.2117</ele>
        <time>2017-05-31T08:51:29Z</time>
      </trkpt>
      <trkpt lat="48.7001" lon="2.53064">
        <ele>82.3363</ele>
        <time>2017-05-31T08:51:48Z</time>
      </trkpt>
      <trkpt lat="48.69993" lon="2.53081">
        <ele>82.4374</ele>
        <time>2017-05-31T08:52:02Z</time>
      </trkpt>
      <trkpt lat="48.69978" lon="2.53094">
        <ele>82.5386</ele>
        <time>2017-05-31T08:52:16Z</time>
      </trkpt>
      <trkpt lat="48.69962" lon="2.53106">
        <ele>82.6656</ele>
        <time>2017-05-31T08:52:32Z</time>
      </trkpt>
      <trkpt lat="48.69948" lon="2.53115">
        <ele>82.7564</ele>
        <time>2017-05-31T08:52:47Z</time>
      </trkpt>
      <trkpt lat="48.69935" lon="2.53122">
        <ele>82.8232</ele>
        <time>2017-05-31T08:53:01Z</time>
      </trkpt>
      <trkpt lat="48.69921" lon="2.5313">
        <ele>82.8669</ele>
        <time>2017-05-31T08:53:14Z</time>
      </trkpt>
      <trkpt lat="48.69905" lon="2.53137">
        <ele>82.888</ele>
        <time>2017-05-31T08:53:27Z</time>
      </trkpt>
      <trkpt lat="48.69894" lon="2.5315">
        <ele>82.8866</ele>
        <time>2017-05-31T08:53:37Z</time>
      </trkpt>
      <trkpt lat="48.69875" lon="2.53164">
        <ele>82.8699</ele>
        <time>2017-05-31T08:53:56Z</time>
      </trkpt>
      <trkpt lat="48.69862" lon="2.53174">
        <ele>82.8564</ele>
        <time>2017-05-31T08:54:04Z</time>
      </trkpt>
      <trkpt lat="48.69852" lon="2.53178">
        <ele>82.843</ele>
        <time>2017-05-31T08:54:13Z</time>
      </trkpt>
      <trkpt lat="48.69831" lon="2.53176">
        <ele>82.8202</ele>
        <time>2017-05-31T08:54:27Z</time>
      </trkpt>
      <trkpt lat="48.69811" lon="2.5318">
        <ele>82.8083</ele>
        <time>2017-05-31T08:54:39Z</time>
      </trkpt>
      <trkpt lat="48.69811" lon="2.5318">
        <ele>82.8083</ele>
        <time>2017-05-31T08:54:46Z</time>
      </trkpt>
      <trkpt lat="48.69811" lon="2.5318">
        <ele>39</ele>
        <time>2017-05-31T08:54:46Z</time>
      </trkpt>
      <trkpt lat="48.69811" lon="2.5318">
        <ele>39</ele>
        <time>2017-05-31T08:54:51Z</time>
      </trkpt>
      <trkpt lat="48.69803" lon="2.53183">
        <ele>82.8096</ele>
        <time>2017-05-31T08:54:51Z</time>
      </trkpt>
      <trkpt lat="48.69791" lon="2.53167">
        <ele>82.8251</ele>
        <time>2017-05-31T08:55:00Z</time>
      </trkpt>
      <trkpt lat="48.69776" lon="2.53154">
        <ele>82.86</ele>
        <time>2017-05-31T08:55:16Z</time>
      </trkpt>
      <trkpt lat="48.69753" lon="2.53136">
        <ele>82.9098</ele>
        <time>2017-05-31T08:55:33Z</time>
      </trkpt>
      <trkpt lat="48.69741" lon="2.5313">
        <ele>82.9873</ele>
        <time>2017-05-31T08:55:47Z</time>
      </trkpt>
      <trkpt lat="48.69722" lon="2.53121">
        <ele>83.1201</ele>
        <time>2017-05-31T08:56:02Z</time>
      </trkpt>
      <trkpt lat="48.69706" lon="2.53117">
        <ele>83.2811</ele>
        <time>2017-05-31T08:56:17Z</time>
      </trkpt>
      <trkpt lat="48.69692" lon="2.53112">
        <ele>83.4324</ele>
        <time>2017-05-31T08:56:30Z</time>
      </trkpt>
      <trkpt lat="48.69678" lon="2.53105">
        <ele>83.5926</ele>
        <time>2017-05-31T08:56:45Z</time>
      </trkpt>
      <trkpt lat="48.69652" lon="2.53096">
        <ele>83.7417</ele>
        <time>2017-05-31T08:57:05Z</time>
      </trkpt>
      <trkpt lat="48.69652" lon="2.53096">
        <ele>83.7417</ele>
        <time>2017-05-31T08:57:13Z</time>
      </trkpt>
      <trkpt lat="48.69652" lon="2.53096">
        <ele>41.1</ele>
        <time>2017-05-31T08:57:13Z</time>
      </trkpt>
      <trkpt lat="48.69652" lon="2.53096">
        <ele>41.1</ele>
        <time>2017-05-31T08:58:26Z</time>
      </trkpt>
      <trkpt lat="48.69639" lon="2.53133">
        <ele>84.0782</ele>
        <time>2017-05-31T08:58:26Z</time>
      </trkpt>
      <trkpt lat="48.69639" lon="2.53156">
        <ele>84.0852</ele>
        <time>2017-05-31T08:58:40Z</time>
      </trkpt>
      <trkpt lat="48.69639" lon="2.53163">
        <ele>84.0957</ele>
        <time>2017-05-31T08:58:44Z</time>
      </trkpt>
      <trkpt lat="48.69639" lon="2.53163">
        <ele>39.4</ele>
        <time>2017-05-31T08:58:51Z</time>
      </trkpt>
      <trkpt lat="48.69639" lon="2.53163">
        <ele>39.4</ele>
        <time>2017-05-31T08:58:56Z</time>
      </trkpt>
      <trkpt lat="48.69639" lon="2.5318">
        <ele>84.115</ele>
        <time>2017-05-31T08:58:56Z</time>
      </trkpt>
      <trkpt lat="48.69641" lon="2.53192">
        <ele>84.1035</ele>
        <time>2017-05-31T08:59:07Z</time>
      </trkpt>
      <trkpt lat="48.69641" lon="2.53192">
        <ele>41.7</ele>
        <time>2017-05-31T08:59:14Z</time>
      </trkpt>
      <trkpt lat="48.69641" lon="2.53192">
        <ele>41.7</ele>
        <time>2017-05-31T08:59:18Z</time>
      </trkpt>
      <trkpt lat="48.69628" lon="2.53193">
        <ele>84.0729</ele>
        <time>2017-05-31T08:59:18Z</time>
      </trkpt>
      <trkpt lat="48.69618" lon="2.53196">
        <ele>84.0478</ele>
        <time>2017-05-31T08:59:26Z</time>
      </trkpt>
      <trkpt lat="48.69604" lon="2.53195">
        <ele>83.9977</ele>
        <time>2017-05-31T08:59:40Z</time>
      </trkpt>
      <trkpt lat="48.69589" lon="2.53191">
        <ele>83.9575</ele>
        <time>2017-05-31T08:59:50Z</time>
      </trkpt>
      <trkpt lat="48.69579" lon="2.53195">
        <ele>83.9295</ele>
        <time>2017-05-31T08:59:57Z</time>
      </trkpt>
      <trkpt lat="48.69566" lon="2.53203">
        <ele>83.8839</ele>
        <time>2017-05-31T09:00:11Z</time>
      </trkpt>
      <trkpt lat="48.69556" lon="2.53203">
        <ele>83.8729</ele>
        <time>2017-05-31T09:00:19Z</time>
      </trkpt>
      <trkpt lat="48.69538" lon="2.53206">
        <ele>83.8864</ele>
        <time>2017-05-31T09:00:38Z</time>
      </trkpt>
      <trkpt lat="48.69525" lon="2.53195">
        <ele>83.9392</ele>
        <time>2017-05-31T09:00:52Z</time>
      </trkpt>
      <trkpt lat="48.69521" lon="2.53185">
        <ele>83.9773</ele>
        <time>2017-05-31T09:01:00Z</time>
      </trkpt>
      <trkpt lat="48.69498" lon="2.53176">
        <ele>84.1984</ele>
        <time>2017-05-31T09:01:26Z</time>
      </trkpt>
      <trkpt lat="48.69482" lon="2.53165">
        <ele>84.3149</ele>
        <time>2017-05-31T09:01:37Z</time>
      </trkpt>
      <trkpt lat="48.69474" lon="2.5315">
        <ele>84.4632</ele>
        <time>2017-05-31T09:01:50Z</time>
      </trkpt>
      <trkpt lat="48.69465" lon="2.53132">
        <ele>84.5938</ele>
        <time>2017-05-31T09:02:05Z</time>
      </trkpt>
      <trkpt lat="48.6946" lon="2.53123">
        <ele>84.6374</ele>
        <time>2017-05-31T09:02:11Z</time>
      </trkpt>
      <trkpt lat="48.6946" lon="2.53123">
        <ele>44.5</ele>
        <time>2017-05-31T09:02:18Z</time>
      </trkpt>
      <trkpt lat="48.6946" lon="2.53123">
        <ele>44.5</ele>
        <time>2017-05-31T09:02:22Z</time>
      </trkpt>
      <trkpt lat="48.69449" lon="2.53127">
        <ele>84.708</ele>
        <time>2017-05-31T09:02:22Z</time>
      </trkpt>
      <trkpt lat="48.69434" lon="2.53129">
        <ele>84.7525</ele>
        <time>2017-05-31T09:02:33Z</time>
      </trkpt>
      <trkpt lat="48.69421" lon="2.53132">
        <ele>84.7615</ele>
        <time>2017-05-31T09:02:47Z</time>
      </trkpt>
      <trkpt lat="48.69405" lon="2.5312">
        <ele>84.8388</ele>
        <time>2017-05-31T09:03:08Z</time>
      </trkpt>
      <trkpt lat="48.69389" lon="2.53108">
        <ele>84.9094</ele>
        <time>2017-05-31T09:03:18Z</time>
      </trkpt>
      <trkpt lat="48.6938" lon="2.53102">
        <ele>85.0072</ele>
        <time>2017-05-31T09:03:25Z</time>
      </trkpt>
      <trkpt lat="48.69363" lon="2.53106">
        <ele>85.2723</ele>
        <time>2017-05-31T09:03:40Z</time>
      </trkpt>
      <trkpt lat="48.69346" lon="2.5311">
        <ele>85.6303</ele>
        <time>2017-05-31T09:03:55Z</time>
      </trkpt>
      <trkpt lat="48.69326" lon="2.53118">
        <ele>86.1443</ele>
        <time>2017-05-31T09:04:12Z</time>
      </trkpt>
      <trkpt lat="48.69308" lon="2.53126">
        <ele>86.6777</ele>
        <time>2017-05-31T09:04:29Z</time>
      </trkpt>
      <trkpt lat="48.69288" lon="2.53127">
        <ele>87.2287</ele>
        <time>2017-05-31T09:04:45Z</time>
      </trkpt>
      <trkpt lat="48.69269" lon="2.53131">
        <ele>87.9613</ele>
        <time>2017-05-31T09:05:04Z</time>
      </trkpt>
      <trkpt lat="48.69256" lon="2.53132">
        <ele>88.4894</ele>
        <time>2017-05-31T09:05:19Z</time>
      </trkpt>
      <trkpt lat="48.69238" lon="2.53137">
        <ele>88.9945</ele>
        <time>2017-05-31T09:05:35Z</time>
      </trkpt>
      <trkpt lat="48.69222" lon="2.53134">
        <ele>89.5678</ele>
        <time>2017-05-31T09:05:53Z</time>
      </trkpt>
      <trkpt lat="48.69209" lon="2.53126">
        <ele>90.0502</ele>
        <time>2017-05-31T09:06:08Z</time>
      </trkpt>
      <trkpt lat="48.69198" lon="2.53113">
        <ele>90.7152</ele>
        <time>2017-05-31T09:06:27Z</time>
      </trkpt>
      <trkpt lat="48.69187" lon="2.53099">
        <ele>91.1001</ele>
        <time>2017-05-31T09:06:38Z</time>
      </trkpt>
      <trkpt lat="48.69178" lon="2.53083">
        <ele>91.8034</ele>
        <time>2017-05-31T09:06:53Z</time>
      </trkpt>
      <trkpt lat="48.6917" lon="2.53068">
        <ele>92.4203</ele>
        <time>2017-05-31T09:07:03Z</time>
      </trkpt>
      <trkpt lat="48.69158" lon="2.53054">
        <ele>93.3704</ele>
        <time>2017-05-31T09:07:17Z</time>
      </trkpt>
      <trkpt lat="48.6915" lon="2.53042">
        <ele>94.0834</ele>
        <time>2017-05-31T09:07:27Z</time>
      </trkpt>
      <trkpt lat="48.69134" lon="2.53034">
        <ele>95.1972</ele>
        <time>2017-05-31T09:07:44Z</time>
      </trkpt>
      <trkpt lat="48.69119" lon="2.53015">
        <ele>96.0912</ele>
        <time>2017-05-31T09:08:01Z</time>
      </trkpt>
      <trkpt lat="48.69106" lon="2.52983">
        <ele>96.8745</ele>
        <time>2017-05-31T09:08:19Z</time>
      </trkpt>
      <trkpt lat="48.69092" lon="2.52964">
        <ele>97.3498</ele>
        <time>2017-05-31T09:08:35Z</time>
      </trkpt>
      <trkpt lat="48.69086" lon="2.52964">
        <ele>97.4404</ele>
        <time>2017-05-31T09:08:39Z</time>
      </trkpt>
      <trkpt lat="48.69086" lon="2.52964">
        <ele>55.7</ele>
        <time>2017-05-31T09:08:46Z</time>
      </trkpt>
      <trkpt lat="48.69086" lon="2.52964">
        <ele>55.7</ele>
        <time>2017-05-31T09:09:23Z</time>
      </trkpt>
      <trkpt lat="48.69065" lon="2.52966">
        <ele>98.0026</ele>
        <time>2017-05-31T09:09:23Z</time>
      </trkpt>
      <trkpt lat="48.69046" lon="2.52964">
        <ele>98.1578</ele>
        <time>2017-05-31T09:09:40Z</time>
      </trkpt>
      <trkpt lat="48.69026" lon="2.52956">
        <ele>98.2954</ele>
        <time>2017-05-31T09:09:58Z</time>
      </trkpt>
      <trkpt lat="48.69015" lon="2.52942">
        <ele>98.3509</ele>
        <time>2017-05-31T09:10:08Z</time>
      </trkpt>
      <trkpt lat="48.69014" lon="2.52939">
        <ele>98.3563</ele>
        <time>2017-05-31T09:10:09Z</time>
      </trkpt>
      <trkpt lat="48.69014" lon="2.52939">
        <ele>55.5</ele>
        <time>2017-05-31T09:10:16Z</time>
      </trkpt>
      <trkpt lat="48.69014" lon="2.52939">
        <ele>55.5</ele>
        <time>2017-05-31T09:10:59Z</time>
      </trkpt>
      <trkpt lat="48.68995" lon="2.52899">
        <ele>98.7861</ele>
        <time>2017-05-31T09:10:59Z</time>
      </trkpt>
      <trkpt lat="48.68985" lon="2.5289">
        <ele>98.9866</ele>
        <time>2017-05-31T09:11:08Z</time>
      </trkpt>
      <trkpt lat="48.68985" lon="2.5289">
        <ele>54.9</ele>
        <time>2017-05-31T09:11:15Z</time>
      </trkpt>
      <trkpt lat="48.68985" lon="2.5289">
        <ele>54.9</ele>
        <time>2017-05-31T09:11:18Z</time>
      </trkpt>
      <trkpt lat="48.68981" lon="2.52885">
        <ele>99.2412</ele>
        <time>2017-05-31T09:11:18Z</time>
      </trkpt>
      <trkpt lat="48.68976" lon="2.52883">
        <ele>99.4028</ele>
        <time>2017-05-31T09:11:24Z</time>
      </trkpt>
      <trkpt lat="48.68976" lon="2.52883">
        <ele>54.1</ele>
        <time>2017-05-31T09:11:29Z</time>
      </trkpt>
      <trkpt lat="48.68976" lon="2.52883">
        <ele>54.1</ele>
        <time>2017-05-31T09:15:22Z</time>
      </trkpt>
      <trkpt lat="48.68976" lon="2.5295">
        <ele>99.6572</ele>
        <time>2017-05-31T09:15:22Z</time>
      </trkpt>
      <trkpt lat="48.68986" lon="2.52959">
        <ele>99.6766</ele>
        <time>2017-05-31T09:15:33Z</time>
      </trkpt>
      <trkpt lat="48.68972" lon="2.52942">
        <ele>99.7031</ele>
        <time>2017-05-31T09:15:37Z</time>
      </trkpt>
      <trkpt lat="48.68972" lon="2.52942">
        <ele>55</ele>
        <time>2017-05-31T09:15:44Z</time>
      </trkpt>
      <trkpt lat="48.68972" lon="2.52942">
        <ele>55</ele>
        <time>2017-05-31T09:15:47Z</time>
      </trkpt>
      <trkpt lat="48.68964" lon="2.52934">
        <ele>99.7436</ele>
        <time>2017-05-31T09:15:47Z</time>
      </trkpt>
      <trkpt lat="48.68956" lon="2.52929">
        <ele>99.7562</ele>
        <time>2017-05-31T09:15:49Z</time>
      </trkpt>
      <trkpt lat="48.68956" lon="2.52929">
        <ele>54.4</ele>
        <time>2017-05-31T09:15:54Z</time>
      </trkpt>
      <trkpt lat="48.68956" lon="2.52929">
        <ele>54.4</ele>
        <time>2017-05-31T09:20:33Z</time>
      </trkpt>
      <trkpt lat="48.68963" lon="2.52882">
        <ele>99.4232</ele>
        <time>2017-05-31T09:20:33Z</time>
      </trkpt>
      <trkpt lat="48.68963" lon="2.52882">
        <ele>99.4232</ele>
        <time>2017-05-31T09:27:32Z</time>
      </trkpt>
      <trkpt lat="48.68952" lon="2.52875">
        <ele>99.0257</ele>
        <time>2017-05-31T09:32:10Z</time>
      </trkpt>
      <trkpt lat="48.68941" lon="2.52893">
        <ele>99.1154</ele>
        <time>2017-05-31T09:32:30Z</time>
      </trkpt>
      <trkpt lat="48.68938" lon="2.52913">
        <ele>99.1652</ele>
        <time>2017-05-31T09:32:49Z</time>
      </trkpt>
      <trkpt lat="48.6893" lon="2.5293">
        <ele>99.1842</ele>
        <time>2017-05-31T09:33:01Z</time>
      </trkpt>
      <trkpt lat="48.68926" lon="2.52951">
        <ele>99.1921</ele>
        <time>2017-05-31T09:33:14Z</time>
      </trkpt>
      <trkpt lat="48.68919" lon="2.52967">
        <ele>99.1948</ele>
        <time>2017-05-31T09:33:24Z</time>
      </trkpt>
      <trkpt lat="48.68904" lon="2.5297">
        <ele>99.1942</ele>
        <time>2017-05-31T09:33:42Z</time>
      </trkpt>
      <trkpt lat="48.68888" lon="2.52986">
        <ele>99.2102</ele>
        <time>2017-05-31T09:34:00Z</time>
      </trkpt>
      <trkpt lat="48.68874" lon="2.52997">
        <ele>99.2028</ele>
        <time>2017-05-31T09:34:16Z</time>
      </trkpt>
      <trkpt lat="48.68872" lon="2.53023">
        <ele>99.1704</ele>
        <time>2017-05-31T09:34:36Z</time>
      </trkpt>
      <trkpt lat="48.68865" lon="2.53045">
        <ele>99.1423</ele>
        <time>2017-05-31T09:34:53Z</time>
      </trkpt>
      <trkpt lat="48.68852" lon="2.53052">
        <ele>99.0867</ele>
        <time>2017-05-31T09:35:11Z</time>
      </trkpt>
      <trkpt lat="48.6883" lon="2.53065">
        <ele>99.0179</ele>
        <time>2017-05-31T09:35:28Z</time>
      </trkpt>
      <trkpt lat="48.6882" lon="2.53091">
        <ele>98.9373</ele>
        <time>2017-05-31T09:35:45Z</time>
      </trkpt>
      <trkpt lat="48.68815" lon="2.53116">
        <ele>98.8745</ele>
        <time>2017-05-31T09:35:58Z</time>
      </trkpt>
      <trkpt lat="48.68816" lon="2.53134">
        <ele>98.7738</ele>
        <time>2017-05-31T09:36:12Z</time>
      </trkpt>
      <trkpt lat="48.68819" lon="2.53155">
        <ele>98.6252</ele>
        <time>2017-05-31T09:36:31Z</time>
      </trkpt>
      <trkpt lat="48.68812" lon="2.5317">
        <ele>98.5067</ele>
        <time>2017-05-31T09:36:47Z</time>
      </trkpt>
      <trkpt lat="48.68802" lon="2.53188">
        <ele>98.3941</ele>
        <time>2017-05-31T09:37:01Z</time>
      </trkpt>
      <trkpt lat="48.68769" lon="2.53197">
        <ele>98.2626</ele>
        <time>2017-05-31T09:37:19Z</time>
      </trkpt>
      <trkpt lat="48.68758" lon="2.53201">
        <ele>98.2188</ele>
        <time>2017-05-31T09:37:25Z</time>
      </trkpt>
      <trkpt lat="48.68743" lon="2.53207">
        <ele>98.1509</ele>
        <time>2017-05-31T09:37:35Z</time>
      </trkpt>
      <trkpt lat="48.68737" lon="2.5323">
        <ele>98.0584</ele>
        <time>2017-05-31T09:37:52Z</time>
      </trkpt>
      <trkpt lat="48.68745" lon="2.53256">
        <ele>98</ele>
        <time>2017-05-31T09:38:05Z</time>
      </trkpt>
      <trkpt lat="48.68747" lon="2.5327">
        <ele>97.9506</ele>
        <time>2017-05-31T09:38:16Z</time>
      </trkpt>
      <trkpt lat="48.68751" lon="2.53298">
        <ele>97.8643</ele>
        <time>2017-05-31T09:38:34Z</time>
      </trkpt>
      <trkpt lat="48.68751" lon="2.53311">
        <ele>97.8258</ele>
        <time>2017-05-31T09:38:42Z</time>
      </trkpt>
      <trkpt lat="48.68755" lon="2.5333">
        <ele>97.7584</ele>
        <time>2017-05-31T09:38:54Z</time>
      </trkpt>
      <trkpt lat="48.68759" lon="2.53363">
        <ele>97.6245</ele>
        <time>2017-05-31T09:39:12Z</time>
      </trkpt>
      <trkpt lat="48.68768" lon="2.53374">
        <ele>97.472</ele>
        <time>2017-05-31T09:39:27Z</time>
      </trkpt>
      <trkpt lat="48.68768" lon="2.53374">
        <ele>42</ele>
        <time>2017-05-31T09:39:35Z</time>
      </trkpt>
      <trkpt lat="48.68768" lon="2.53374">
        <ele>42</ele>
        <time>2017-05-31T09:41:08Z</time>
      </trkpt>
      <trkpt lat="48.68781" lon="2.53374">
        <ele>95.8694</ele>
        <time>2017-05-31T09:41:08Z</time>
      </trkpt>
      <trkpt lat="48.68793" lon="2.5336">
        <ele>95.7571</ele>
        <time>2017-05-31T09:41:16Z</time>
      </trkpt>
      <trkpt lat="48.68806" lon="2.53349">
        <ele>95.5077</ele>
        <time>2017-05-31T09:41:32Z</time>
      </trkpt>
      <trkpt lat="48.68819" lon="2.53342">
        <ele>95.313</ele>
        <time>2017-05-31T09:41:40Z</time>
      </trkpt>
      <trkpt lat="48.68828" lon="2.53334">
        <ele>95.0996</ele>
        <time>2017-05-31T09:41:48Z</time>
      </trkpt>
      <trkpt lat="48.68844" lon="2.53323">
        <ele>94.7814</ele>
        <time>2017-05-31T09:42:01Z</time>
      </trkpt>
      <trkpt lat="48.68844" lon="2.53323">
        <ele>94.7814</ele>
        <time>2017-05-31T09:42:08Z</time>
      </trkpt>
      <trkpt lat="48.68844" lon="2.53323">
        <ele>40.8</ele>
        <time>2017-05-31T09:42:08Z</time>
      </trkpt>
      <trkpt lat="48.68844" lon="2.53323">
        <ele>40.8</ele>
        <time>2017-05-31T09:42:14Z</time>
      </trkpt>
      <trkpt lat="48.68849" lon="2.53322">
        <ele>94.4007</ele>
        <time>2017-05-31T09:42:14Z</time>
      </trkpt>
      <trkpt lat="48.68861" lon="2.5332">
        <ele>94.0784</ele>
        <time>2017-05-31T09:42:25Z</time>
      </trkpt>
      <trkpt lat="48.68864" lon="2.5332">
        <ele>94.0187</ele>
        <time>2017-05-31T09:42:27Z</time>
      </trkpt>
      <trkpt lat="48.68864" lon="2.5332">
        <ele>42.1</ele>
        <time>2017-05-31T09:42:34Z</time>
      </trkpt>
      <trkpt lat="48.68864" lon="2.5332">
        <ele>42.1</ele>
        <time>2017-05-31T09:42:45Z</time>
      </trkpt>
      <trkpt lat="48.68876" lon="2.53329">
        <ele>93.5745</ele>
        <time>2017-05-31T09:42:45Z</time>
      </trkpt>
      <trkpt lat="48.68882" lon="2.5335">
        <ele>93.2565</ele>
        <time>2017-05-31T09:43:01Z</time>
      </trkpt>
      <trkpt lat="48.68882" lon="2.53371">
        <ele>93.0169</ele>
        <time>2017-05-31T09:43:15Z</time>
      </trkpt>
      <trkpt lat="48.68882" lon="2.53389">
        <ele>92.8184</ele>
        <time>2017-05-31T09:43:29Z</time>
      </trkpt>
      <trkpt lat="48.689" lon="2.53418">
        <ele>92.5925</ele>
        <time>2017-05-31T09:43:47Z</time>
      </trkpt>
      <trkpt lat="48.68915" lon="2.53431">
        <ele>92.4977</ele>
        <time>2017-05-31T09:43:57Z</time>
      </trkpt>
      <trkpt lat="48.68923" lon="2.53445">
        <ele>92.4217</ele>
        <time>2017-05-31T09:44:06Z</time>
      </trkpt>
      <trkpt lat="48.68941" lon="2.53464">
        <ele>92.2695</ele>
        <time>2017-05-31T09:44:23Z</time>
      </trkpt>
      <trkpt lat="48.68941" lon="2.53464">
        <ele>92.2695</ele>
        <time>2017-05-31T09:44:28Z</time>
      </trkpt>
      <trkpt lat="48.68941" lon="2.53464">
        <ele>44</ele>
        <time>2017-05-31T09:44:28Z</time>
      </trkpt>
      <trkpt lat="48.68941" lon="2.53464">
        <ele>44</ele>
        <time>2017-05-31T09:44:33Z</time>
      </trkpt>
      <trkpt lat="48.6895" lon="2.53469">
        <ele>92.1816</ele>
        <time>2017-05-31T09:44:33Z</time>
      </trkpt>
      <trkpt lat="48.68955" lon="2.53459">
        <ele>92.0633</ele>
        <time>2017-05-31T09:44:46Z</time>
      </trkpt>
      <trkpt lat="48.68956" lon="2.5342">
        <ele>91.8816</ele>
        <time>2017-05-31T09:45:13Z</time>
      </trkpt>
      <trkpt lat="48.68956" lon="2.5342">
        <ele>91.8816</ele>
        <time>2017-05-31T09:45:18Z</time>
      </trkpt>
      <trkpt lat="48.68956" lon="2.5342">
        <ele>47.9</ele>
        <time>2017-05-31T09:45:18Z</time>
      </trkpt>
      <trkpt lat="48.68956" lon="2.5342">
        <ele>47.9</ele>
        <time>2017-05-31T09:45:24Z</time>
      </trkpt>
      <trkpt lat="48.68957" lon="2.53406">
        <ele>91.8183</ele>
        <time>2017-05-31T09:45:24Z</time>
      </trkpt>
      <trkpt lat="48.6897" lon="2.5339">
        <ele>91.6959</ele>
        <time>2017-05-31T09:45:38Z</time>
      </trkpt>
      <trkpt lat="48.68978" lon="2.53405">
        <ele>91.593</ele>
        <time>2017-05-31T09:45:57Z</time>
      </trkpt>
      <trkpt lat="48.68987" lon="2.53425">
        <ele>91.6018</ele>
        <time>2017-05-31T09:46:17Z</time>
      </trkpt>
      <trkpt lat="48.69003" lon="2.53453">
        <ele>91.6419</ele>
        <time>2017-05-31T09:46:34Z</time>
      </trkpt>
      <trkpt lat="48.69005" lon="2.53459">
        <ele>91.6654</ele>
        <time>2017-05-31T09:46:38Z</time>
      </trkpt>
      <trkpt lat="48.69005" lon="2.53459">
        <ele>51.4</ele>
        <time>2017-05-31T09:46:44Z</time>
      </trkpt>
      <trkpt lat="48.69005" lon="2.53459">
        <ele>51.4</ele>
        <time>2017-05-31T09:46:48Z</time>
      </trkpt>
      <trkpt lat="48.69014" lon="2.53468">
        <ele>91.7387</ele>
        <time>2017-05-31T09:46:48Z</time>
      </trkpt>
      <trkpt lat="48.69021" lon="2.53479">
        <ele>91.8448</ele>
        <time>2017-05-31T09:46:59Z</time>
      </trkpt>
      <trkpt lat="48.69034" lon="2.53495">
        <ele>91.9871</ele>
        <time>2017-05-31T09:47:14Z</time>
      </trkpt>
      <trkpt lat="48.69043" lon="2.53513">
        <ele>92.0855</ele>
        <time>2017-05-31T09:47:26Z</time>
      </trkpt>
      <trkpt lat="48.69051" lon="2.53537">
        <ele>92.2095</ele>
        <time>2017-05-31T09:47:42Z</time>
      </trkpt>
      <trkpt lat="48.6906" lon="2.53565">
        <ele>92.3416</ele>
        <time>2017-05-31T09:47:59Z</time>
      </trkpt>
      <trkpt lat="48.69072" lon="2.5359">
        <ele>92.471</ele>
        <time>2017-05-31T09:48:16Z</time>
      </trkpt>
      <trkpt lat="48.69082" lon="2.53612">
        <ele>92.5689</ele>
        <time>2017-05-31T09:48:32Z</time>
      </trkpt>
      <trkpt lat="48.69094" lon="2.53631">
        <ele>92.6444</ele>
        <time>2017-05-31T09:48:46Z</time>
      </trkpt>
      <trkpt lat="48.69102" lon="2.53658">
        <ele>92.7659</ele>
        <time>2017-05-31T09:49:05Z</time>
      </trkpt>
      <trkpt lat="48.69108" lon="2.5368">
        <ele>92.9036</ele>
        <time>2017-05-31T09:49:16Z</time>
      </trkpt>
      <trkpt lat="48.69122" lon="2.53704">
        <ele>93.5652</ele>
        <time>2017-05-31T09:49:32Z</time>
      </trkpt>
      <trkpt lat="48.69129" lon="2.53729">
        <ele>94.5031</ele>
        <time>2017-05-31T09:49:49Z</time>
      </trkpt>
      <trkpt lat="48.69135" lon="2.53749">
        <ele>95.2924</ele>
        <time>2017-05-31T09:50:04Z</time>
      </trkpt>
      <trkpt lat="48.69139" lon="2.53758">
        <ele>95.5583</ele>
        <time>2017-05-31T09:50:10Z</time>
      </trkpt>
      <trkpt lat="48.69139" lon="2.53758">
        <ele>57</ele>
        <time>2017-05-31T09:50:17Z</time>
      </trkpt>
      <trkpt lat="48.69139" lon="2.53758">
        <ele>57</ele>
        <time>2017-05-31T09:50:21Z</time>
      </trkpt>
      <trkpt lat="48.6914" lon="2.53773">
        <ele>95.926</ele>
        <time>2017-05-31T09:50:21Z</time>
      </trkpt>
      <trkpt lat="48.69144" lon="2.53792">
        <ele>96.5076</ele>
        <time>2017-05-31T09:50:35Z</time>
      </trkpt>
      <trkpt lat="48.69145" lon="2.53824">
        <ele>97.4153</ele>
        <time>2017-05-31T09:50:59Z</time>
      </trkpt>
      <trkpt lat="48.69155" lon="2.5385">
        <ele>97.8345</ele>
        <time>2017-05-31T09:51:14Z</time>
      </trkpt>
      <trkpt lat="48.69157" lon="2.53875">
        <ele>98.0861</ele>
        <time>2017-05-31T09:51:25Z</time>
      </trkpt>
      <trkpt lat="48.69163" lon="2.53896">
        <ele>98.3056</ele>
        <time>2017-05-31T09:51:37Z</time>
      </trkpt>
      <trkpt lat="48.69168" lon="2.53919">
        <ele>98.4911</ele>
        <time>2017-05-31T09:51:49Z</time>
      </trkpt>
      <trkpt lat="48.69174" lon="2.53936">
        <ele>98.6451</ele>
        <time>2017-05-31T09:52:01Z</time>
      </trkpt>
      <trkpt lat="48.69182" lon="2.53958">
        <ele>98.784</ele>
        <time>2017-05-31T09:52:16Z</time>
      </trkpt>
      <trkpt lat="48.69194" lon="2.53978">
        <ele>98.8747</ele>
        <time>2017-05-31T09:52:31Z</time>
      </trkpt>
      <trkpt lat="48.692" lon="2.53988">
        <ele>98.91</ele>
        <time>2017-05-31T09:52:39Z</time>
      </trkpt>
      <trkpt lat="48.69209" lon="2.54013">
        <ele>98.9643</ele>
        <time>2017-05-31T09:52:56Z</time>
      </trkpt>
      <trkpt lat="48.6922" lon="2.54033">
        <ele>98.9853</ele>
        <time>2017-05-31T09:53:10Z</time>
      </trkpt>
      <trkpt lat="48.69225" lon="2.54055">
        <ele>98.997</ele>
        <time>2017-05-31T09:53:25Z</time>
      </trkpt>
      <trkpt lat="48.69235" lon="2.54078">
        <ele>98.9838</ele>
        <time>2017-05-31T09:53:38Z</time>
      </trkpt>
      <trkpt lat="48.69253" lon="2.54094">
        <ele>98.969</ele>
        <time>2017-05-31T09:53:54Z</time>
      </trkpt>
      <trkpt lat="48.6927" lon="2.54118">
        <ele>98.9722</ele>
        <time>2017-05-31T09:54:11Z</time>
      </trkpt>
      <trkpt lat="48.69268" lon="2.54131">
        <ele>98.9719</ele>
        <time>2017-05-31T09:54:20Z</time>
      </trkpt>
      <trkpt lat="48.69268" lon="2.54131">
        <ele>98.9719</ele>
        <time>2017-05-31T09:54:27Z</time>
      </trkpt>
      <trkpt lat="48.69268" lon="2.54131">
        <ele>56.9</ele>
        <time>2017-05-31T09:54:27Z</time>
      </trkpt>
      <trkpt lat="48.69268" lon="2.54131">
        <ele>56.9</ele>
        <time>2017-05-31T09:54:39Z</time>
      </trkpt>
      <trkpt lat="48.69255" lon="2.5415">
        <ele>98.9995</ele>
        <time>2017-05-31T09:54:39Z</time>
      </trkpt>
      <trkpt lat="48.69254" lon="2.54168">
        <ele>99.0465</ele>
        <time>2017-05-31T09:54:53Z</time>
      </trkpt>
      <trkpt lat="48.69266" lon="2.54195">
        <ele>99.0658</ele>
        <time>2017-05-31T09:55:12Z</time>
      </trkpt>
      <trkpt lat="48.6928" lon="2.54221">
        <ele>99.0745</ele>
        <time>2017-05-31T09:55:32Z</time>
      </trkpt>
      <trkpt lat="48.69284" lon="2.54241">
        <ele>99.0673</ele>
        <time>2017-05-31T09:55:48Z</time>
      </trkpt>
      <trkpt lat="48.69294" lon="2.54251">
        <ele>99.0439</ele>
        <time>2017-05-31T09:56:00Z</time>
      </trkpt>
      <trkpt lat="48.69294" lon="2.54251">
        <ele>54.8</ele>
        <time>2017-05-31T09:56:07Z</time>
      </trkpt>
      <trkpt lat="48.69294" lon="2.54251">
        <ele>54.8</ele>
        <time>2017-05-31T09:56:13Z</time>
      </trkpt>
      <trkpt lat="48.69302" lon="2.54258">
        <ele>99.0034</ele>
        <time>2017-05-31T09:56:13Z</time>
      </trkpt>
      <trkpt lat="48.69316" lon="2.54259">
        <ele>98.9168</ele>
        <time>2017-05-31T09:56:29Z</time>
      </trkpt>
      <trkpt lat="48.69334" lon="2.54261">
        <ele>98.8274</ele>
        <time>2017-05-31T09:56:45Z</time>
      </trkpt>
      <trkpt lat="48.69349" lon="2.54272">
        <ele>98.7584</ele>
        <time>2017-05-31T09:57:05Z</time>
      </trkpt>
      <trkpt lat="48.69368" lon="2.54305">
        <ele>98.7672</ele>
        <time>2017-05-31T09:57:38Z</time>
      </trkpt>
      <trkpt lat="48.69382" lon="2.54319">
        <ele>98.772</ele>
        <time>2017-05-31T09:57:53Z</time>
      </trkpt>
      <trkpt lat="48.69385" lon="2.54324">
        <ele>98.7823</ele>
        <time>2017-05-31T09:57:58Z</time>
      </trkpt>
      <trkpt lat="48.69385" lon="2.54324">
        <ele>68.3</ele>
        <time>2017-05-31T09:58:05Z</time>
      </trkpt>
      <trkpt lat="48.69385" lon="2.54324">
        <ele>68.3</ele>
        <time>2017-05-31T09:58:09Z</time>
      </trkpt>
      <trkpt lat="48.69392" lon="2.54332">
        <ele>98.811</ele>
        <time>2017-05-31T09:58:09Z</time>
      </trkpt>
      <trkpt lat="48.69402" lon="2.54347">
        <ele>98.8497</ele>
        <time>2017-05-31T09:58:22Z</time>
      </trkpt>
      <trkpt lat="48.69413" lon="2.5436">
        <ele>98.9283</ele>
        <time>2017-05-31T09:58:38Z</time>
      </trkpt>
      <trkpt lat="48.69422" lon="2.5437">
        <ele>98.9748</ele>
        <time>2017-05-31T09:58:49Z</time>
      </trkpt>
      <trkpt lat="48.69433" lon="2.54381">
        <ele>99.0692</ele>
        <time>2017-05-31T09:59:05Z</time>
      </trkpt>
      <trkpt lat="48.69433" lon="2.54381">
        <ele>99.0692</ele>
        <time>2017-05-31T09:59:12Z</time>
      </trkpt>
      <trkpt lat="48.69433" lon="2.54381">
        <ele>75</ele>
        <time>2017-05-31T09:59:12Z</time>
      </trkpt>
      <trkpt lat="48.69433" lon="2.54381">
        <ele>75</ele>
        <time>2017-05-31T09:59:23Z</time>
      </trkpt>
      <trkpt lat="48.69444" lon="2.54387">
        <ele>99.169</ele>
        <time>2017-05-31T09:59:23Z</time>
      </trkpt>
      <trkpt lat="48.6946" lon="2.54376">
        <ele>99.2902</ele>
        <time>2017-05-31T09:59:42Z</time>
      </trkpt>
      <trkpt lat="48.69481" lon="2.5437">
        <ele>99.4079</ele>
        <time>2017-05-31T09:59:59Z</time>
      </trkpt>
      <trkpt lat="48.69494" lon="2.54362">
        <ele>99.5462</ele>
        <time>2017-05-31T10:00:16Z</time>
      </trkpt>
      <trkpt lat="48.6951" lon="2.54355">
        <ele>99.6494</ele>
        <time>2017-05-31T10:00:28Z</time>
      </trkpt>
      <trkpt lat="48.69518" lon="2.5435">
        <ele>99.7256</ele>
        <time>2017-05-31T10:00:37Z</time>
      </trkpt>
      <trkpt lat="48.69529" lon="2.5434">
        <ele>99.8019</ele>
        <time>2017-05-31T10:00:49Z</time>
      </trkpt>
      <trkpt lat="48.69546" lon="2.54336">
        <ele>99.9257</ele>
        <time>2017-05-31T10:01:06Z</time>
      </trkpt>
      <trkpt lat="48.69546" lon="2.54336">
        <ele>99.9257</ele>
        <time>2017-05-31T10:01:14Z</time>
      </trkpt>
      <trkpt lat="48.69546" lon="2.54336">
        <ele>82.4</ele>
        <time>2017-05-31T10:01:14Z</time>
      </trkpt>
      <trkpt lat="48.69546" lon="2.54336">
        <ele>82.4</ele>
        <time>2017-05-31T10:02:02Z</time>
      </trkpt>
      <trkpt lat="48.69562" lon="2.54338">
        <ele>100.345</ele>
        <time>2017-05-31T10:02:02Z</time>
      </trkpt>
      <trkpt lat="48.6958" lon="2.54323">
        <ele>100.677</ele>
        <time>2017-05-31T10:02:18Z</time>
      </trkpt>
      <trkpt lat="48.69584" lon="2.5432">
        <ele>100.745</ele>
        <time>2017-05-31T10:02:21Z</time>
      </trkpt>
      <trkpt lat="48.69584" lon="2.5432">
        <ele>84.5</ele>
        <time>2017-05-31T10:02:27Z</time>
      </trkpt>
      <trkpt lat="48.69584" lon="2.5432">
        <ele>84.5</ele>
        <time>2017-05-31T10:02:33Z</time>
      </trkpt>
      <trkpt lat="48.69592" lon="2.54312">
        <ele>101.042</ele>
        <time>2017-05-31T10:02:33Z</time>
      </trkpt>
      <trkpt lat="48.69613" lon="2.54294">
        <ele>101.472</ele>
        <time>2017-05-31T10:02:51Z</time>
      </trkpt>
      <trkpt lat="48.69636" lon="2.54278">
        <ele>101.898</ele>
        <time>2017-05-31T10:03:12Z</time>
      </trkpt>
      <trkpt lat="48.6965" lon="2.54263">
        <ele>102.265</ele>
        <time>2017-05-31T10:03:28Z</time>
      </trkpt>
      <trkpt lat="48.69662" lon="2.54253">
        <ele>102.731</ele>
        <time>2017-05-31T10:03:46Z</time>
      </trkpt>
      <trkpt lat="48.69665" lon="2.54251">
        <ele>102.814</ele>
        <time>2017-05-31T10:03:49Z</time>
      </trkpt>
      <trkpt lat="48.69665" lon="2.54251">
        <ele>85.9</ele>
        <time>2017-05-31T10:03:57Z</time>
      </trkpt>
      <trkpt lat="48.69665" lon="2.54251">
        <ele>85.9</ele>
        <time>2017-05-31T10:04:04Z</time>
      </trkpt>
      <trkpt lat="48.69673" lon="2.54254">
        <ele>103.18</ele>
        <time>2017-05-31T10:04:04Z</time>
      </trkpt>
      <trkpt lat="48.69692" lon="2.54267">
        <ele>103.625</ele>
        <time>2017-05-31T10:04:22Z</time>
      </trkpt>
      <trkpt lat="48.69704" lon="2.5428">
        <ele>103.968</ele>
        <time>2017-05-31T10:04:35Z</time>
      </trkpt>
      <trkpt lat="48.69722" lon="2.5429">
        <ele>104.475</ele>
        <time>2017-05-31T10:04:54Z</time>
      </trkpt>
      <trkpt lat="48.69734" lon="2.543">
        <ele>104.965</ele>
        <time>2017-05-31T10:05:11Z</time>
      </trkpt>
      <trkpt lat="48.69751" lon="2.54334">
        <ele>105.44</ele>
        <time>2017-05-31T10:05:31Z</time>
      </trkpt>
      <trkpt lat="48.69769" lon="2.54343">
        <ele>105.758</ele>
        <time>2017-05-31T10:05:46Z</time>
      </trkpt>
      <trkpt lat="48.69784" lon="2.5435">
        <ele>106.006</ele>
        <time>2017-05-31T10:05:59Z</time>
      </trkpt>
      <trkpt lat="48.69795" lon="2.54364">
        <ele>106.236</ele>
        <time>2017-05-31T10:06:13Z</time>
      </trkpt>
      <trkpt lat="48.69809" lon="2.54382">
        <ele>106.514</ele>
        <time>2017-05-31T10:06:30Z</time>
      </trkpt>
      <trkpt lat="48.69825" lon="2.54403">
        <ele>106.773</ele>
        <time>2017-05-31T10:06:47Z</time>
      </trkpt>
      <trkpt lat="48.69831" lon="2.54411">
        <ele>106.906</ele>
        <time>2017-05-31T10:06:54Z</time>
      </trkpt>
      <trkpt lat="48.69831" lon="2.54411">
        <ele>90.5</ele>
        <time>2017-05-31T10:07:02Z</time>
      </trkpt>
      <trkpt lat="48.69831" lon="2.54411">
        <ele>90.5</ele>
        <time>2017-05-31T10:07:08Z</time>
      </trkpt>
      <trkpt lat="48.69838" lon="2.54417">
        <ele>107.138</ele>
        <time>2017-05-31T10:07:08Z</time>
      </trkpt>
      <trkpt lat="48.69838" lon="2.54417">
        <ele>107.138</ele>
        <time>2017-05-31T10:07:16Z</time>
      </trkpt>
      <trkpt lat="48.69838" lon="2.54417">
        <ele>90.9</ele>
        <time>2017-05-31T10:07:16Z</time>
      </trkpt>
      <trkpt lat="48.69838" lon="2.54417">
        <ele>90.9</ele>
        <time>2017-05-31T10:07:28Z</time>
      </trkpt>
      <trkpt lat="48.69849" lon="2.54407">
        <ele>107.565</ele>
        <time>2017-05-31T10:07:28Z</time>
      </trkpt>
      <trkpt lat="48.69869" lon="2.54387">
        <ele>107.957</ele>
        <time>2017-05-31T10:07:47Z</time>
      </trkpt>
      <trkpt lat="48.6988" lon="2.54375">
        <ele>108.214</ele>
        <time>2017-05-31T10:07:59Z</time>
      </trkpt>
      <trkpt lat="48.69896" lon="2.54359">
        <ele>108.54</ele>
        <time>2017-05-31T10:08:17Z</time>
      </trkpt>
      <trkpt lat="48.69905" lon="2.54346">
        <ele>108.671</ele>
        <time>2017-05-31T10:08:26Z</time>
      </trkpt>
      <trkpt lat="48.69913" lon="2.54338">
        <ele>108.789</ele>
        <time>2017-05-31T10:08:34Z</time>
      </trkpt>
      <trkpt lat="48.69925" lon="2.54318">
        <ele>109.003</ele>
        <time>2017-05-31T10:08:47Z</time>
      </trkpt>
      <trkpt lat="48.69931" lon="2.54301">
        <ele>109.327</ele>
        <time>2017-05-31T10:09:00Z</time>
      </trkpt>
      <trkpt lat="48.69941" lon="2.54283">
        <ele>109.85</ele>
        <time>2017-05-31T10:09:16Z</time>
      </trkpt>
      <trkpt lat="48.69955" lon="2.54261">
        <ele>110.413</ele>
        <time>2017-05-31T10:09:32Z</time>
      </trkpt>
      <trkpt lat="48.69966" lon="2.54242">
        <ele>110.938</ele>
        <time>2017-05-31T10:09:49Z</time>
      </trkpt>
      <trkpt lat="48.69971" lon="2.54239">
        <ele>111.053</ele>
        <time>2017-05-31T10:09:54Z</time>
      </trkpt>
      <trkpt lat="48.69971" lon="2.54239">
        <ele>90</ele>
        <time>2017-05-31T10:10:01Z</time>
      </trkpt>
      <trkpt lat="48.69971" lon="2.54239">
        <ele>90</ele>
        <time>2017-05-31T10:11:05Z</time>
      </trkpt>
      <trkpt lat="48.69968" lon="2.54295">
        <ele>113.284</ele>
        <time>2017-05-31T10:11:05Z</time>
      </trkpt>
      <trkpt lat="48.69977" lon="2.54326">
        <ele>114.04</ele>
        <time>2017-05-31T10:11:25Z</time>
      </trkpt>
      <trkpt lat="48.69974" lon="2.54344">
        <ele>114.885</ele>
        <time>2017-05-31T10:11:42Z</time>
      </trkpt>
      <trkpt lat="48.69949" lon="2.54366">
        <ele>116.811</ele>
        <time>2017-05-31T10:12:36Z</time>
      </trkpt>
      <trkpt lat="48.69949" lon="2.54366">
        <ele>116.811</ele>
        <time>2017-05-31T10:15:32Z</time>
      </trkpt>
      <trkpt lat="48.69932" lon="2.54358">
        <ele>136.503</ele>
        <time>2017-05-31T10:48:04Z</time>
      </trkpt>
      <trkpt lat="48.69932" lon="2.54358">
        <ele>136.503</ele>
        <time>2017-05-31T10:48:11Z</time>
      </trkpt>
      <trkpt lat="48.69932" lon="2.54358">
        <ele>90.4</ele>
        <time>2017-05-31T10:48:11Z</time>
      </trkpt>
      <trkpt lat="48.69932" lon="2.54358">
        <ele>90.4</ele>
        <time>2017-05-31T10:52:43Z</time>
      </trkpt>
      <trkpt lat="48.69951" lon="2.54356">
        <ele>132.16</ele>
        <time>2017-05-31T10:52:50Z</time>
      </trkpt>
      <trkpt lat="48.69966" lon="2.54351">
        <ele>131.932</ele>
        <time>2017-05-31T10:53:00Z</time>
      </trkpt>
      <trkpt lat="48.69984" lon="2.5434">
        <ele>131.693</ele>
        <time>2017-05-31T10:53:12Z</time>
      </trkpt>
      <trkpt lat="48.69984" lon="2.5434">
        <ele>91</ele>
        <time>2017-05-31T10:53:19Z</time>
      </trkpt>
      <trkpt lat="48.69984" lon="2.5434">
        <ele>91</ele>
        <time>2017-05-31T10:53:24Z</time>
      </trkpt>
      <trkpt lat="48.69988" lon="2.54328">
        <ele>131.506</ele>
        <time>2017-05-31T10:53:24Z</time>
      </trkpt>
      <trkpt lat="48.70003" lon="2.54304">
        <ele>131.34</ele>
        <time>2017-05-31T10:53:42Z</time>
      </trkpt>
      <trkpt lat="48.70009" lon="2.54284">
        <ele>131.249</ele>
        <time>2017-05-31T10:53:55Z</time>
      </trkpt>
      <trkpt lat="48.70009" lon="2.54284">
        <ele>131.249</ele>
        <time>2017-05-31T10:54:03Z</time>
      </trkpt>
      <trkpt lat="48.70009" lon="2.54284">
        <ele>91</ele>
        <time>2017-05-31T10:54:03Z</time>
      </trkpt>
      <trkpt lat="48.70009" lon="2.54284">
        <ele>91</ele>
        <time>2017-05-31T10:54:15Z</time>
      </trkpt>
      <trkpt lat="48.69994" lon="2.54315">
        <ele>132.292</ele>
        <time>2017-05-31T10:58:40Z</time>
      </trkpt>
      <trkpt lat="48.69994" lon="2.54315">
        <ele>132.292</ele>
        <time>2017-05-31T11:00:47Z</time>
      </trkpt>
      <trkpt lat="48.70016" lon="2.54274">
        <ele>131.496</ele>
        <time>2017-05-31T11:01:40Z</time>
      </trkpt>
      <trkpt lat="48.70038" lon="2.54303">
        <ele>131.649</ele>
        <time>2017-05-31T11:02:17Z</time>
      </trkpt>
      <trkpt lat="48.70049" lon="2.54312">
        <ele>131.69</ele>
        <time>2017-05-31T11:02:29Z</time>
      </trkpt>
      <trkpt lat="48.70059" lon="2.54332">
        <ele>131.694</ele>
        <time>2017-05-31T11:02:43Z</time>
      </trkpt>
      <trkpt lat="48.70071" lon="2.54353">
        <ele>131.659</ele>
        <time>2017-05-31T11:03:01Z</time>
      </trkpt>
      <trkpt lat="48.70085" lon="2.54372">
        <ele>131.64</ele>
        <time>2017-05-31T11:03:14Z</time>
      </trkpt>
      <trkpt lat="48.70093" lon="2.54392">
        <ele>131.631</ele>
        <time>2017-05-31T11:03:28Z</time>
      </trkpt>
      <trkpt lat="48.70102" lon="2.54406">
        <ele>131.63</ele>
        <time>2017-05-31T11:03:43Z</time>
      </trkpt>
      <trkpt lat="48.70115" lon="2.54421">
        <ele>131.646</ele>
        <time>2017-05-31T11:03:57Z</time>
      </trkpt>
      <trkpt lat="48.70132" lon="2.54438">
        <ele>131.729</ele>
        <time>2017-05-31T11:04:16Z</time>
      </trkpt>
      <trkpt lat="48.70146" lon="2.54443">
        <ele>131.755</ele>
        <time>2017-05-31T11:04:29Z</time>
      </trkpt>
      <trkpt lat="48.7016" lon="2.54456">
        <ele>131.768</ele>
        <time>2017-05-31T11:04:42Z</time>
      </trkpt>
      <trkpt lat="48.7017" lon="2.54476">
        <ele>131.804</ele>
        <time>2017-05-31T11:04:57Z</time>
      </trkpt>
      <trkpt lat="48.70183" lon="2.54503">
        <ele>131.826</ele>
        <time>2017-05-31T11:05:14Z</time>
      </trkpt>
      <trkpt lat="48.70193" lon="2.54523">
        <ele>131.836</ele>
        <time>2017-05-31T11:05:29Z</time>
      </trkpt>
      <trkpt lat="48.70201" lon="2.54543">
        <ele>131.842</ele>
        <time>2017-05-31T11:05:40Z</time>
      </trkpt>
      <trkpt lat="48.70213" lon="2.54552">
        <ele>131.856</ele>
        <time>2017-05-31T11:05:54Z</time>
      </trkpt>
      <trkpt lat="48.7022" lon="2.54536">
        <ele>131.872</ele>
        <time>2017-05-31T11:06:06Z</time>
      </trkpt>
      <trkpt lat="48.70233" lon="2.54529">
        <ele>131.89</ele>
        <time>2017-05-31T11:06:18Z</time>
      </trkpt>
      <trkpt lat="48.70246" lon="2.5452">
        <ele>131.91</ele>
        <time>2017-05-31T11:06:31Z</time>
      </trkpt>
      <trkpt lat="48.70258" lon="2.54521">
        <ele>131.932</ele>
        <time>2017-05-31T11:06:47Z</time>
      </trkpt>
      <trkpt lat="48.70282" lon="2.54506">
        <ele>131.968</ele>
        <time>2017-05-31T11:07:21Z</time>
      </trkpt>
      <trkpt lat="48.70292" lon="2.54503">
        <ele>131.992</ele>
        <time>2017-05-31T11:07:33Z</time>
      </trkpt>
      <trkpt lat="48.70307" lon="2.54496">
        <ele>132.018</ele>
        <time>2017-05-31T11:07:52Z</time>
      </trkpt>
      <trkpt lat="48.70319" lon="2.54485">
        <ele>132.029</ele>
        <time>2017-05-31T11:08:04Z</time>
      </trkpt>
      <trkpt lat="48.70328" lon="2.54474">
        <ele>132.037</ele>
        <time>2017-05-31T11:08:12Z</time>
      </trkpt>
      <trkpt lat="48.70348" lon="2.54481">
        <ele>132.043</ele>
        <time>2017-05-31T11:08:26Z</time>
      </trkpt>
      <trkpt lat="48.70357" lon="2.5449">
        <ele>132.04</ele>
        <time>2017-05-31T11:08:32Z</time>
      </trkpt>
      <trkpt lat="48.70364" lon="2.545">
        <ele>132.034</ele>
        <time>2017-05-31T11:08:41Z</time>
      </trkpt>
      <trkpt lat="48.70373" lon="2.54514">
        <ele>132.015</ele>
        <time>2017-05-31T11:08:52Z</time>
      </trkpt>
      <trkpt lat="48.70384" lon="2.54531">
        <ele>131.986</ele>
        <time>2017-05-31T11:09:07Z</time>
      </trkpt>
      <trkpt lat="48.70399" lon="2.54541">
        <ele>131.941</ele>
        <time>2017-05-31T11:09:20Z</time>
      </trkpt>
      <trkpt lat="48.70409" lon="2.54544">
        <ele>131.902</ele>
        <time>2017-05-31T11:09:31Z</time>
      </trkpt>
      <trkpt lat="48.70434" lon="2.54551">
        <ele>131.859</ele>
        <time>2017-05-31T11:09:52Z</time>
      </trkpt>
      <trkpt lat="48.70446" lon="2.54555">
        <ele>131.844</ele>
        <time>2017-05-31T11:10:05Z</time>
      </trkpt>
      <trkpt lat="48.70464" lon="2.54564">
        <ele>131.842</ele>
        <time>2017-05-31T11:10:20Z</time>
      </trkpt>
      <trkpt lat="48.70481" lon="2.54571">
        <ele>131.883</ele>
        <time>2017-05-31T11:10:35Z</time>
      </trkpt>
      <trkpt lat="48.70499" lon="2.5457">
        <ele>131.944</ele>
        <time>2017-05-31T11:10:51Z</time>
      </trkpt>
      <trkpt lat="48.70519" lon="2.54563">
        <ele>132.018</ele>
        <time>2017-05-31T11:11:06Z</time>
      </trkpt>
      <trkpt lat="48.70537" lon="2.54562">
        <ele>132.139</ele>
        <time>2017-05-31T11:11:23Z</time>
      </trkpt>
      <trkpt lat="48.70545" lon="2.54575">
        <ele>132.249</ele>
        <time>2017-05-31T11:11:36Z</time>
      </trkpt>
      <trkpt lat="48.70558" lon="2.54593">
        <ele>132.429</ele>
        <time>2017-05-31T11:11:55Z</time>
      </trkpt>
      <trkpt lat="48.70574" lon="2.54598">
        <ele>132.626</ele>
        <time>2017-05-31T11:12:15Z</time>
      </trkpt>
      <trkpt lat="48.70597" lon="2.54604">
        <ele>132.774</ele>
        <time>2017-05-31T11:12:36Z</time>
      </trkpt>
      <trkpt lat="48.70614" lon="2.54609">
        <ele>132.844</ele>
        <time>2017-05-31T11:12:49Z</time>
      </trkpt>
      <trkpt lat="48.70622" lon="2.54613">
        <ele>132.875</ele>
        <time>2017-05-31T11:12:57Z</time>
      </trkpt>
      <trkpt lat="48.70635" lon="2.54615">
        <ele>132.911</ele>
        <time>2017-05-31T11:13:09Z</time>
      </trkpt>
      <trkpt lat="48.70647" lon="2.54619">
        <ele>132.939</ele>
        <time>2017-05-31T11:13:23Z</time>
      </trkpt>
      <trkpt lat="48.70668" lon="2.54623">
        <ele>132.966</ele>
        <time>2017-05-31T11:13:46Z</time>
      </trkpt>
      <trkpt lat="48.70683" lon="2.54623">
        <ele>132.968</ele>
        <time>2017-05-31T11:14:04Z</time>
      </trkpt>
      <trkpt lat="48.70698" lon="2.54606">
        <ele>132.983</ele>
        <time>2017-05-31T11:14:20Z</time>
      </trkpt>
      <trkpt lat="48.70704" lon="2.54592">
        <ele>132.976</ele>
        <time>2017-05-31T11:14:29Z</time>
      </trkpt>
      <trkpt lat="48.70714" lon="2.54568">
        <ele>132.883</ele>
        <time>2017-05-31T11:14:46Z</time>
      </trkpt>
      <trkpt lat="48.70718" lon="2.54554">
        <ele>132.839</ele>
        <time>2017-05-31T11:14:55Z</time>
      </trkpt>
      <trkpt lat="48.70718" lon="2.54554">
        <ele>93</ele>
        <time>2017-05-31T11:15:03Z</time>
      </trkpt>
      <trkpt lat="48.70718" lon="2.54554">
        <ele>93</ele>
        <time>2017-05-31T11:15:07Z</time>
      </trkpt>
      <trkpt lat="48.70723" lon="2.54547">
        <ele>132.818</ele>
        <time>2017-05-31T11:15:07Z</time>
      </trkpt>
      <trkpt lat="48.70736" lon="2.54531">
        <ele>132.826</ele>
        <time>2017-05-31T11:15:18Z</time>
      </trkpt>
      <trkpt lat="48.70746" lon="2.54513">
        <ele>132.833</ele>
        <time>2017-05-31T11:15:30Z</time>
      </trkpt>
      <trkpt lat="48.70759" lon="2.5449">
        <ele>132.775</ele>
        <time>2017-05-31T11:15:47Z</time>
      </trkpt>
      <trkpt lat="48.7077" lon="2.54484">
        <ele>132.706</ele>
        <time>2017-05-31T11:16:01Z</time>
      </trkpt>
      <trkpt lat="48.70787" lon="2.54503">
        <ele>132.677</ele>
        <time>2017-05-31T11:16:17Z</time>
      </trkpt>
      <trkpt lat="48.70797" lon="2.54519">
        <ele>132.7</ele>
        <time>2017-05-31T11:16:29Z</time>
      </trkpt>
      <trkpt lat="48.70808" lon="2.54535">
        <ele>132.746</ele>
        <time>2017-05-31T11:16:43Z</time>
      </trkpt>
      <trkpt lat="48.70827" lon="2.54567">
        <ele>132.85</ele>
        <time>2017-05-31T11:17:02Z</time>
      </trkpt>
      <trkpt lat="48.70834" lon="2.5458">
        <ele>132.913</ele>
        <time>2017-05-31T11:17:13Z</time>
      </trkpt>
      <trkpt lat="48.70847" lon="2.54596">
        <ele>132.993</ele>
        <time>2017-05-31T11:17:29Z</time>
      </trkpt>
      <trkpt lat="48.70867" lon="2.54616">
        <ele>133.078</ele>
        <time>2017-05-31T11:17:47Z</time>
      </trkpt>
      <trkpt lat="48.70888" lon="2.54632">
        <ele>133.155</ele>
        <time>2017-05-31T11:18:07Z</time>
      </trkpt>
      <trkpt lat="48.70907" lon="2.54649">
        <ele>133.217</ele>
        <time>2017-05-31T11:18:25Z</time>
      </trkpt>
      <trkpt lat="48.7092" lon="2.54657">
        <ele>133.244</ele>
        <time>2017-05-31T11:18:37Z</time>
      </trkpt>
      <trkpt lat="48.70938" lon="2.5467">
        <ele>133.275</ele>
        <time>2017-05-31T11:18:53Z</time>
      </trkpt>
      <trkpt lat="48.7095" lon="2.54682">
        <ele>133.304</ele>
        <time>2017-05-31T11:19:08Z</time>
      </trkpt>
      <trkpt lat="48.70967" lon="2.54697">
        <ele>133.333</ele>
        <time>2017-05-31T11:19:25Z</time>
      </trkpt>
      <trkpt lat="48.70988" lon="2.54712">
        <ele>133.355</ele>
        <time>2017-05-31T11:19:42Z</time>
      </trkpt>
      <trkpt lat="48.70998" lon="2.54719">
        <ele>133.367</ele>
        <time>2017-05-31T11:19:53Z</time>
      </trkpt>
      <trkpt lat="48.71014" lon="2.5473">
        <ele>133.383</ele>
        <time>2017-05-31T11:20:09Z</time>
      </trkpt>
      <trkpt lat="48.71025" lon="2.54735">
        <ele>133.392</ele>
        <time>2017-05-31T11:20:21Z</time>
      </trkpt>
      <trkpt lat="48.71045" lon="2.54749">
        <ele>133.415</ele>
        <time>2017-05-31T11:20:38Z</time>
      </trkpt>
      <trkpt lat="48.71058" lon="2.54762">
        <ele>133.431</ele>
        <time>2017-05-31T11:20:50Z</time>
      </trkpt>
      <trkpt lat="48.71074" lon="2.54774">
        <ele>133.454</ele>
        <time>2017-05-31T11:21:05Z</time>
      </trkpt>
      <trkpt lat="48.71088" lon="2.54787">
        <ele>133.476</ele>
        <time>2017-05-31T11:21:20Z</time>
      </trkpt>
      <trkpt lat="48.71108" lon="2.54802">
        <ele>133.498</ele>
        <time>2017-05-31T11:21:42Z</time>
      </trkpt>
      <trkpt lat="48.7113" lon="2.54818">
        <ele>133.516</ele>
        <time>2017-05-31T11:22:01Z</time>
      </trkpt>
      <trkpt lat="48.71148" lon="2.5483">
        <ele>133.543</ele>
        <time>2017-05-31T11:22:18Z</time>
      </trkpt>
      <trkpt lat="48.71164" lon="2.54843">
        <ele>133.573</ele>
        <time>2017-05-31T11:22:33Z</time>
      </trkpt>
      <trkpt lat="48.7118" lon="2.54857">
        <ele>133.606</ele>
        <time>2017-05-31T11:22:48Z</time>
      </trkpt>
      <trkpt lat="48.71195" lon="2.54869">
        <ele>133.635</ele>
        <time>2017-05-31T11:23:02Z</time>
      </trkpt>
      <trkpt lat="48.71206" lon="2.54872">
        <ele>133.666</ele>
        <time>2017-05-31T11:23:11Z</time>
      </trkpt>
      <trkpt lat="48.71218" lon="2.54877">
        <ele>133.719</ele>
        <time>2017-05-31T11:23:22Z</time>
      </trkpt>
      <trkpt lat="48.71232" lon="2.54886">
        <ele>133.781</ele>
        <time>2017-05-31T11:23:35Z</time>
      </trkpt>
      <trkpt lat="48.7125" lon="2.54896">
        <ele>133.861</ele>
        <time>2017-05-31T11:23:52Z</time>
      </trkpt>
      <trkpt lat="48.7125" lon="2.54896">
        <ele>133.861</ele>
        <time>2017-05-31T11:24:00Z</time>
      </trkpt>
      <trkpt lat="48.7125" lon="2.54896">
        <ele>90</ele>
        <time>2017-05-31T11:24:00Z</time>
      </trkpt>
      <trkpt lat="48.7125" lon="2.54896">
        <ele>90</ele>
        <time>2017-05-31T11:24:52Z</time>
      </trkpt>
      <trkpt lat="48.71275" lon="2.54918">
        <ele>133.968</ele>
        <time>2017-05-31T11:24:52Z</time>
      </trkpt>
      <trkpt lat="48.71275" lon="2.54918">
        <ele>133.968</ele>
        <time>2017-05-31T11:27:08Z</time>
      </trkpt>
      <trkpt lat="48.71305" lon="2.54907">
        <ele>133.328</ele>
        <time>2017-05-31T11:28:34Z</time>
      </trkpt>
      <trkpt lat="48.71318" lon="2.54896">
        <ele>133.205</ele>
        <time>2017-05-31T11:28:49Z</time>
      </trkpt>
      <trkpt lat="48.71331" lon="2.54889">
        <ele>133.126</ele>
        <time>2017-05-31T11:29:01Z</time>
      </trkpt>
      <trkpt lat="48.71346" lon="2.54879">
        <ele>133.047</ele>
        <time>2017-05-31T11:29:15Z</time>
      </trkpt>
      <trkpt lat="48.71365" lon="2.5487">
        <ele>132.944</ele>
        <time>2017-05-31T11:29:32Z</time>
      </trkpt>
      <trkpt lat="48.71382" lon="2.54857">
        <ele>132.858</ele>
        <time>2017-05-31T11:29:48Z</time>
      </trkpt>
      <trkpt lat="48.71395" lon="2.54851">
        <ele>132.778</ele>
        <time>2017-05-31T11:30:01Z</time>
      </trkpt>
      <trkpt lat="48.7141" lon="2.54836">
        <ele>132.694</ele>
        <time>2017-05-31T11:30:17Z</time>
      </trkpt>
      <trkpt lat="48.71427" lon="2.54833">
        <ele>132.631</ele>
        <time>2017-05-31T11:30:32Z</time>
      </trkpt>
      <trkpt lat="48.7144" lon="2.54832">
        <ele>132.58</ele>
        <time>2017-05-31T11:30:45Z</time>
      </trkpt>
      <trkpt lat="48.71455" lon="2.54827">
        <ele>132.547</ele>
        <time>2017-05-31T11:30:54Z</time>
      </trkpt>
      <trkpt lat="48.71465" lon="2.54826">
        <ele>132.503</ele>
        <time>2017-05-31T11:31:04Z</time>
      </trkpt>
      <trkpt lat="48.71477" lon="2.54823">
        <ele>132.459</ele>
        <time>2017-05-31T11:31:14Z</time>
      </trkpt>
      <trkpt lat="48.71481" lon="2.54822">
        <ele>132.44</ele>
        <time>2017-05-31T11:31:19Z</time>
      </trkpt>
      <trkpt lat="48.71481" lon="2.54822">
        <ele>83.5</ele>
        <time>2017-05-31T11:31:25Z</time>
      </trkpt>
      <trkpt lat="48.71481" lon="2.54822">
        <ele>83.5</ele>
        <time>2017-05-31T11:31:28Z</time>
      </trkpt>
      <trkpt lat="48.71491" lon="2.54822">
        <ele>132.408</ele>
        <time>2017-05-31T11:31:28Z</time>
      </trkpt>
      <trkpt lat="48.71507" lon="2.54819">
        <ele>132.367</ele>
        <time>2017-05-31T11:31:41Z</time>
      </trkpt>
      <trkpt lat="48.71521" lon="2.54816">
        <ele>132.313</ele>
        <time>2017-05-31T11:31:55Z</time>
      </trkpt>
      <trkpt lat="48.71535" lon="2.54811">
        <ele>132.262</ele>
        <time>2017-05-31T11:32:11Z</time>
      </trkpt>
      <trkpt lat="48.71549" lon="2.5481">
        <ele>132.238</ele>
        <time>2017-05-31T11:32:21Z</time>
      </trkpt>
      <trkpt lat="48.71565" lon="2.54813">
        <ele>132.202</ele>
        <time>2017-05-31T11:32:34Z</time>
      </trkpt>
      <trkpt lat="48.7158" lon="2.54808">
        <ele>132.168</ele>
        <time>2017-05-31T11:32:45Z</time>
      </trkpt>
      <trkpt lat="48.71591" lon="2.5481">
        <ele>132.131</ele>
        <time>2017-05-31T11:32:57Z</time>
      </trkpt>
      <trkpt lat="48.71606" lon="2.54808">
        <ele>132.072</ele>
        <time>2017-05-31T11:33:12Z</time>
      </trkpt>
      <trkpt lat="48.71626" lon="2.54803">
        <ele>132</ele>
        <time>2017-05-31T11:33:27Z</time>
      </trkpt>
      <trkpt lat="48.71648" lon="2.54797">
        <ele>131.892</ele>
        <time>2017-05-31T11:33:44Z</time>
      </trkpt>
      <trkpt lat="48.71658" lon="2.54795">
        <ele>131.817</ele>
        <time>2017-05-31T11:33:55Z</time>
      </trkpt>
      <trkpt lat="48.71681" lon="2.54791">
        <ele>131.66</ele>
        <time>2017-05-31T11:34:14Z</time>
      </trkpt>
      <trkpt lat="48.71686" lon="2.5479">
        <ele>131.607</ele>
        <time>2017-05-31T11:34:19Z</time>
      </trkpt>
      <trkpt lat="48.71686" lon="2.5479">
        <ele>76.5</ele>
        <time>2017-05-31T11:34:26Z</time>
      </trkpt>
      <trkpt lat="48.71686" lon="2.5479">
        <ele>76.5</ele>
        <time>2017-05-31T11:34:30Z</time>
      </trkpt>
      <trkpt lat="48.71692" lon="2.54788">
        <ele>131.506</ele>
        <time>2017-05-31T11:34:30Z</time>
      </trkpt>
      <trkpt lat="48.7171" lon="2.54788">
        <ele>131.348</ele>
        <time>2017-05-31T11:34:47Z</time>
      </trkpt>
      <trkpt lat="48.7172" lon="2.54787">
        <ele>131.269</ele>
        <time>2017-05-31T11:34:56Z</time>
      </trkpt>
      <trkpt lat="48.71742" lon="2.54787">
        <ele>131.162</ele>
        <time>2017-05-31T11:35:09Z</time>
      </trkpt>
      <trkpt lat="48.71756" lon="2.54781">
        <ele>131.057</ele>
        <time>2017-05-31T11:35:22Z</time>
      </trkpt>
      <trkpt lat="48.71774" lon="2.54755">
        <ele>130.907</ele>
        <time>2017-05-31T11:35:36Z</time>
      </trkpt>
      <trkpt lat="48.71773" lon="2.54748">
        <ele>130.847</ele>
        <time>2017-05-31T11:35:41Z</time>
      </trkpt>
      <trkpt lat="48.71773" lon="2.54748">
        <ele>74</ele>
        <time>2017-05-31T11:35:46Z</time>
      </trkpt>
      <trkpt lat="48.71773" lon="2.54748">
        <ele>74</ele>
        <time>2017-05-31T11:35:59Z</time>
      </trkpt>
      <trkpt lat="48.7177" lon="2.5472">
        <ele>130.651</ele>
        <time>2017-05-31T11:35:59Z</time>
      </trkpt>
      <trkpt lat="48.71766" lon="2.54711">
        <ele>130.544</ele>
        <time>2017-05-31T11:36:08Z</time>
      </trkpt>
      <trkpt lat="48.71753" lon="2.54694">
        <ele>130.394</ele>
        <time>2017-05-31T11:36:23Z</time>
      </trkpt>
      <trkpt lat="48.71749" lon="2.54692">
        <ele>130.336</ele>
        <time>2017-05-31T11:36:29Z</time>
      </trkpt>
      <trkpt lat="48.71749" lon="2.54692">
        <ele>74</ele>
        <time>2017-05-31T11:36:35Z</time>
      </trkpt>
      <trkpt lat="48.71749" lon="2.54692">
        <ele>74</ele>
        <time>2017-05-31T11:36:41Z</time>
      </trkpt>
      <trkpt lat="48.7174" lon="2.54689">
        <ele>130.193</ele>
        <time>2017-05-31T11:36:41Z</time>
      </trkpt>
      <trkpt lat="48.71725" lon="2.54681">
        <ele>129.985</ele>
        <time>2017-05-31T11:36:55Z</time>
      </trkpt>
      <trkpt lat="48.71722" lon="2.5468">
        <ele>129.895</ele>
        <time>2017-05-31T11:37:01Z</time>
      </trkpt>
      <trkpt lat="48.71722" lon="2.5468">
        <ele>75</ele>
        <time>2017-05-31T11:37:09Z</time>
      </trkpt>
      <trkpt lat="48.71722" lon="2.5468">
        <ele>75</ele>
        <time>2017-05-31T11:37:52Z</time>
      </trkpt>
      <trkpt lat="48.71732" lon="2.54684">
        <ele>129.2</ele>
        <time>2017-05-31T11:37:52Z</time>
      </trkpt>
      <trkpt lat="48.71736" lon="2.54686">
        <ele>129.104</ele>
        <time>2017-05-31T11:37:56Z</time>
      </trkpt>
      <trkpt lat="48.71736" lon="2.54686">
        <ele>74.4</ele>
        <time>2017-05-31T11:38:03Z</time>
      </trkpt>
      <trkpt lat="48.71736" lon="2.54686">
        <ele>74.4</ele>
        <time>2017-05-31T11:38:09Z</time>
      </trkpt>
      <trkpt lat="48.71743" lon="2.54696">
        <ele>128.833</ele>
        <time>2017-05-31T11:38:09Z</time>
      </trkpt>
      <trkpt lat="48.71759" lon="2.5471">
        <ele>128.548</ele>
        <time>2017-05-31T11:38:23Z</time>
      </trkpt>
      <trkpt lat="48.71777" lon="2.54731">
        <ele>128.282</ele>
        <time>2017-05-31T11:38:38Z</time>
      </trkpt>
      <trkpt lat="48.71791" lon="2.54754">
        <ele>128.015</ele>
        <time>2017-05-31T11:38:55Z</time>
      </trkpt>
      <trkpt lat="48.71808" lon="2.54771">
        <ele>127.765</ele>
        <time>2017-05-31T11:39:13Z</time>
      </trkpt>
      <trkpt lat="48.71815" lon="2.54779">
        <ele>127.686</ele>
        <time>2017-05-31T11:39:20Z</time>
      </trkpt>
      <trkpt lat="48.71815" lon="2.54779">
        <ele>75.3</ele>
        <time>2017-05-31T11:39:27Z</time>
      </trkpt>
      <trkpt lat="48.71815" lon="2.54779">
        <ele>75.3</ele>
        <time>2017-05-31T11:39:35Z</time>
      </trkpt>
      <trkpt lat="48.7182" lon="2.54784">
        <ele>127.547</ele>
        <time>2017-05-31T11:39:35Z</time>
      </trkpt>
      <trkpt lat="48.71834" lon="2.54787">
        <ele>127.463</ele>
        <time>2017-05-31T11:39:46Z</time>
      </trkpt>
      <trkpt lat="48.71846" lon="2.5479">
        <ele>127.375</ele>
        <time>2017-05-31T11:39:58Z</time>
      </trkpt>
      <trkpt lat="48.7187" lon="2.54785">
        <ele>127.255</ele>
        <time>2017-05-31T11:40:16Z</time>
      </trkpt>
      <trkpt lat="48.71889" lon="2.54788">
        <ele>127.159</ele>
        <time>2017-05-31T11:40:29Z</time>
      </trkpt>
      <trkpt lat="48.71911" lon="2.54793">
        <ele>127.016</ele>
        <time>2017-05-31T11:40:47Z</time>
      </trkpt>
      <trkpt lat="48.71923" lon="2.54786">
        <ele>126.953</ele>
        <time>2017-05-31T11:40:55Z</time>
      </trkpt>
      <trkpt lat="48.71938" lon="2.54783">
        <ele>126.836</ele>
        <time>2017-05-31T11:41:11Z</time>
      </trkpt>
      <trkpt lat="48.71957" lon="2.54777">
        <ele>126.691</ele>
        <time>2017-05-31T11:41:28Z</time>
      </trkpt>
      <trkpt lat="48.71972" lon="2.54774">
        <ele>126.525</ele>
        <time>2017-05-31T11:41:44Z</time>
      </trkpt>
      <trkpt lat="48.71995" lon="2.54774">
        <ele>126.358</ele>
        <time>2017-05-31T11:42:02Z</time>
      </trkpt>
      <trkpt lat="48.72005" lon="2.54773">
        <ele>126.258</ele>
        <time>2017-05-31T11:42:14Z</time>
      </trkpt>
      <trkpt lat="48.72005" lon="2.54773">
        <ele>79.8</ele>
        <time>2017-05-31T11:42:21Z</time>
      </trkpt>
      <trkpt lat="48.72005" lon="2.54773">
        <ele>79.8</ele>
        <time>2017-05-31T11:42:30Z</time>
      </trkpt>
      <trkpt lat="48.7202" lon="2.5477">
        <ele>126.136</ele>
        <time>2017-05-31T11:42:30Z</time>
      </trkpt>
      <trkpt lat="48.72047" lon="2.54771">
        <ele>126.011</ele>
        <time>2017-05-31T11:42:47Z</time>
      </trkpt>
      <trkpt lat="48.72073" lon="2.54764">
        <ele>125.912</ele>
        <time>2017-05-31T11:43:04Z</time>
      </trkpt>
      <trkpt lat="48.72088" lon="2.54767">
        <ele>125.828</ele>
        <time>2017-05-31T11:43:18Z</time>
      </trkpt>
      <trkpt lat="48.72088" lon="2.54767">
        <ele>79.6</ele>
        <time>2017-05-31T11:43:25Z</time>
      </trkpt>
      <trkpt lat="48.72088" lon="2.54767">
        <ele>79.6</ele>
        <time>2017-05-31T11:43:31Z</time>
      </trkpt>
      <trkpt lat="48.72094" lon="2.54762">
        <ele>125.744</ele>
        <time>2017-05-31T11:43:31Z</time>
      </trkpt>
      <trkpt lat="48.7211" lon="2.54759">
        <ele>125.63</ele>
        <time>2017-05-31T11:43:48Z</time>
      </trkpt>
      <trkpt lat="48.72127" lon="2.54753">
        <ele>125.518</ele>
        <time>2017-05-31T11:44:07Z</time>
      </trkpt>
      <trkpt lat="48.72145" lon="2.54755">
        <ele>125.46</ele>
        <time>2017-05-31T11:44:20Z</time>
      </trkpt>
      <trkpt lat="48.72145" lon="2.54755">
        <ele>125.46</ele>
        <time>2017-05-31T11:44:28Z</time>
      </trkpt>
      <trkpt lat="48.72145" lon="2.54755">
        <ele>76.5</ele>
        <time>2017-05-31T11:44:28Z</time>
      </trkpt>
      <trkpt lat="48.72145" lon="2.54755">
        <ele>76.5</ele>
        <time>2017-05-31T11:44:39Z</time>
      </trkpt>
      <trkpt lat="48.72157" lon="2.54749">
        <ele>125.388</ele>
        <time>2017-05-31T11:44:39Z</time>
      </trkpt>
      <trkpt lat="48.72181" lon="2.54738">
        <ele>125.338</ele>
        <time>2017-05-31T11:44:54Z</time>
      </trkpt>
      <trkpt lat="48.72202" lon="2.54721">
        <ele>125.224</ele>
        <time>2017-05-31T11:45:09Z</time>
      </trkpt>
      <trkpt lat="48.72208" lon="2.54688">
        <ele>125.053</ele>
        <time>2017-05-31T11:45:26Z</time>
      </trkpt>
      <trkpt lat="48.7221" lon="2.54679">
        <ele>125.012</ele>
        <time>2017-05-31T11:45:30Z</time>
      </trkpt>
      <trkpt lat="48.7221" lon="2.54679">
        <ele>70.9</ele>
        <time>2017-05-31T11:45:36Z</time>
      </trkpt>
      <trkpt lat="48.7221" lon="2.54679">
        <ele>70.9</ele>
        <time>2017-05-31T11:45:41Z</time>
      </trkpt>
      <trkpt lat="48.7221" lon="2.54665">
        <ele>124.915</ele>
        <time>2017-05-31T11:45:41Z</time>
      </trkpt>
      <trkpt lat="48.72216" lon="2.5464">
        <ele>124.8</ele>
        <time>2017-05-31T11:45:54Z</time>
      </trkpt>
      <trkpt lat="48.72226" lon="2.54616">
        <ele>124.668</ele>
        <time>2017-05-31T11:46:09Z</time>
      </trkpt>
      <trkpt lat="48.72232" lon="2.54582">
        <ele>124.477</ele>
        <time>2017-05-31T11:46:31Z</time>
      </trkpt>
      <trkpt lat="48.72235" lon="2.54553">
        <ele>124.301</ele>
        <time>2017-05-31T11:46:50Z</time>
      </trkpt>
      <trkpt lat="48.72236" lon="2.54528">
        <ele>124.134</ele>
        <time>2017-05-31T11:47:07Z</time>
      </trkpt>
      <trkpt lat="48.72238" lon="2.54494">
        <ele>123.941</ele>
        <time>2017-05-31T11:47:24Z</time>
      </trkpt>
      <trkpt lat="48.72239" lon="2.54487">
        <ele>123.918</ele>
        <time>2017-05-31T11:47:26Z</time>
      </trkpt>
      <trkpt lat="48.72239" lon="2.54487">
        <ele>57.9</ele>
        <time>2017-05-31T11:47:34Z</time>
      </trkpt>
      <trkpt lat="48.72239" lon="2.54487">
        <ele>57.9</ele>
        <time>2017-05-31T11:47:40Z</time>
      </trkpt>
      <trkpt lat="48.72239" lon="2.54474">
        <ele>123.76</ele>
        <time>2017-05-31T11:47:40Z</time>
      </trkpt>
      <trkpt lat="48.72238" lon="2.54441">
        <ele>123.527</ele>
        <time>2017-05-31T11:47:58Z</time>
      </trkpt>
      <trkpt lat="48.7224" lon="2.54435">
        <ele>123.476</ele>
        <time>2017-05-31T11:48:02Z</time>
      </trkpt>
      <trkpt lat="48.7224" lon="2.54435">
        <ele>57.4</ele>
        <time>2017-05-31T11:48:09Z</time>
      </trkpt>
      <trkpt lat="48.7224" lon="2.54435">
        <ele>57.4</ele>
        <time>2017-05-31T11:48:14Z</time>
      </trkpt>
      <trkpt lat="48.72242" lon="2.54421">
        <ele>123.312</ele>
        <time>2017-05-31T11:48:14Z</time>
      </trkpt>
      <trkpt lat="48.72244" lon="2.544">
        <ele>123.11</ele>
        <time>2017-05-31T11:48:25Z</time>
      </trkpt>
      <trkpt lat="48.72241" lon="2.54377">
        <ele>122.888</ele>
        <time>2017-05-31T11:48:37Z</time>
      </trkpt>
      <trkpt lat="48.72241" lon="2.54377">
        <ele>57.2</ele>
        <time>2017-05-31T11:48:44Z</time>
      </trkpt>
      <trkpt lat="48.72241" lon="2.54377">
        <ele>57.2</ele>
        <time>2017-05-31T11:48:49Z</time>
      </trkpt>
      <trkpt lat="48.72241" lon="2.5436">
        <ele>122.69</ele>
        <time>2017-05-31T11:48:49Z</time>
      </trkpt>
      <trkpt lat="48.72241" lon="2.54339">
        <ele>122.461</ele>
        <time>2017-05-31T11:49:02Z</time>
      </trkpt>
      <trkpt lat="48.72232" lon="2.54334">
        <ele>122.3</ele>
        <time>2017-05-31T11:49:09Z</time>
      </trkpt>
      <trkpt lat="48.72232" lon="2.54334">
        <ele>57.4</ele>
        <time>2017-05-31T11:49:16Z</time>
      </trkpt>
      <trkpt lat="48.72232" lon="2.54334">
        <ele>57.4</ele>
        <time>2017-05-31T11:49:23Z</time>
      </trkpt>
      <trkpt lat="48.72223" lon="2.54329">
        <ele>121.819</ele>
        <time>2017-05-31T11:49:23Z</time>
      </trkpt>
      <trkpt lat="48.7221" lon="2.54322">
        <ele>121.355</ele>
        <time>2017-05-31T11:49:38Z</time>
      </trkpt>
      <trkpt lat="48.72189" lon="2.54307">
        <ele>120.873</ele>
        <time>2017-05-31T11:49:56Z</time>
      </trkpt>
      <trkpt lat="48.72172" lon="2.54303">
        <ele>120.553</ele>
        <time>2017-05-31T11:50:10Z</time>
      </trkpt>
      <trkpt lat="48.72153" lon="2.54295">
        <ele>120.195</ele>
        <time>2017-05-31T11:50:26Z</time>
      </trkpt>
      <trkpt lat="48.72135" lon="2.54297">
        <ele>119.925</ele>
        <time>2017-05-31T11:50:42Z</time>
      </trkpt>
      <trkpt lat="48.72123" lon="2.54292">
        <ele>119.693</ele>
        <time>2017-05-31T11:50:55Z</time>
      </trkpt>
      <trkpt lat="48.72096" lon="2.54279">
        <ele>119.263</ele>
        <time>2017-05-31T11:51:16Z</time>
      </trkpt>
      <trkpt lat="48.72083" lon="2.54279">
        <ele>118.95</ele>
        <time>2017-05-31T11:51:32Z</time>
      </trkpt>
      <trkpt lat="48.72061" lon="2.54291">
        <ele>118.491</ele>
        <time>2017-05-31T11:51:58Z</time>
      </trkpt>
      <trkpt lat="48.72053" lon="2.54306">
        <ele>118.206</ele>
        <time>2017-05-31T11:52:07Z</time>
      </trkpt>
      <trkpt lat="48.72049" lon="2.54319">
        <ele>117.967</ele>
        <time>2017-05-31T11:52:15Z</time>
      </trkpt>
      <trkpt lat="48.72042" lon="2.54335">
        <ele>117.459</ele>
        <time>2017-05-31T11:52:30Z</time>
      </trkpt>
      <trkpt lat="48.72016" lon="2.54313">
        <ele>116.463</ele>
        <time>2017-05-31T11:53:25Z</time>
      </trkpt>
      <trkpt lat="48.72005" lon="2.54296">
        <ele>116.258</ele>
        <time>2017-05-31T11:53:37Z</time>
      </trkpt>
      <trkpt lat="48.71987" lon="2.5428">
        <ele>115.904</ele>
        <time>2017-05-31T11:53:54Z</time>
      </trkpt>
      <trkpt lat="48.71972" lon="2.54267">
        <ele>115.568</ele>
        <time>2017-05-31T11:54:08Z</time>
      </trkpt>
      <trkpt lat="48.71964" lon="2.54257">
        <ele>115.38</ele>
        <time>2017-05-31T11:54:17Z</time>
      </trkpt>
      <trkpt lat="48.71951" lon="2.54236">
        <ele>115.025</ele>
        <time>2017-05-31T11:54:34Z</time>
      </trkpt>
      <trkpt lat="48.71944" lon="2.54223">
        <ele>114.83</ele>
        <time>2017-05-31T11:54:45Z</time>
      </trkpt>
      <trkpt lat="48.71935" lon="2.54204">
        <ele>114.609</ele>
        <time>2017-05-31T11:55:00Z</time>
      </trkpt>
      <trkpt lat="48.71925" lon="2.54182">
        <ele>114.441</ele>
        <time>2017-05-31T11:55:15Z</time>
      </trkpt>
      <trkpt lat="48.71914" lon="2.54156">
        <ele>114.209</ele>
        <time>2017-05-31T11:55:30Z</time>
      </trkpt>
      <trkpt lat="48.71902" lon="2.54126">
        <ele>113.576</ele>
        <time>2017-05-31T11:55:47Z</time>
      </trkpt>
      <trkpt lat="48.71894" lon="2.54105">
        <ele>112.813</ele>
        <time>2017-05-31T11:56:02Z</time>
      </trkpt>
      <trkpt lat="48.71891" lon="2.54074">
        <ele>110.994</ele>
        <time>2017-05-31T11:56:21Z</time>
      </trkpt>
      <trkpt lat="48.71878" lon="2.54053">
        <ele>109.624</ele>
        <time>2017-05-31T11:56:36Z</time>
      </trkpt>
      <trkpt lat="48.71863" lon="2.54034">
        <ele>108.368</ele>
        <time>2017-05-31T11:56:55Z</time>
      </trkpt>
      <trkpt lat="48.71845" lon="2.54012">
        <ele>107.439</ele>
        <time>2017-05-31T11:57:15Z</time>
      </trkpt>
      <trkpt lat="48.71837" lon="2.53992">
        <ele>106.975</ele>
        <time>2017-05-31T11:57:28Z</time>
      </trkpt>
      <trkpt lat="48.71826" lon="2.53971">
        <ele>106.428</ele>
        <time>2017-05-31T11:57:48Z</time>
      </trkpt>
      <trkpt lat="48.71813" lon="2.53951">
        <ele>106.12</ele>
        <time>2017-05-31T11:58:03Z</time>
      </trkpt>
      <trkpt lat="48.71798" lon="2.53933">
        <ele>105.812</ele>
        <time>2017-05-31T11:58:20Z</time>
      </trkpt>
      <trkpt lat="48.71786" lon="2.53915">
        <ele>105.603</ele>
        <time>2017-05-31T11:58:34Z</time>
      </trkpt>
      <trkpt lat="48.71773" lon="2.53897">
        <ele>105.448</ele>
        <time>2017-05-31T11:58:47Z</time>
      </trkpt>
      <trkpt lat="48.71761" lon="2.53884">
        <ele>105.303</ele>
        <time>2017-05-31T11:59:02Z</time>
      </trkpt>
      <trkpt lat="48.71752" lon="2.53869">
        <ele>105.204</ele>
        <time>2017-05-31T11:59:14Z</time>
      </trkpt>
      <trkpt lat="48.71743" lon="2.53853">
        <ele>105.132</ele>
        <time>2017-05-31T11:59:24Z</time>
      </trkpt>
      <trkpt lat="48.71726" lon="2.53833">
        <ele>105.043</ele>
        <time>2017-05-31T11:59:42Z</time>
      </trkpt>
      <trkpt lat="48.71713" lon="2.5381">
        <ele>104.984</ele>
        <time>2017-05-31T11:59:57Z</time>
      </trkpt>
      <trkpt lat="48.71701" lon="2.53785">
        <ele>104.915</ele>
        <time>2017-05-31T12:00:14Z</time>
      </trkpt>
      <trkpt lat="48.71693" lon="2.53764">
        <ele>104.85</ele>
        <time>2017-05-31T12:00:29Z</time>
      </trkpt>
      <trkpt lat="48.71685" lon="2.53737">
        <ele>104.794</ele>
        <time>2017-05-31T12:00:45Z</time>
      </trkpt>
      <trkpt lat="48.7168" lon="2.5371">
        <ele>104.719</ele>
        <time>2017-05-31T12:01:02Z</time>
      </trkpt>
      <trkpt lat="48.71679" lon="2.53706">
        <ele>104.691</ele>
        <time>2017-05-31T12:01:07Z</time>
      </trkpt>
      <trkpt lat="48.71679" lon="2.53706">
        <ele>57.3</ele>
        <time>2017-05-31T12:01:14Z</time>
      </trkpt>
      <trkpt lat="48.71679" lon="2.53706">
        <ele>57.3</ele>
        <time>2017-05-31T12:01:22Z</time>
      </trkpt>
      <trkpt lat="48.71679" lon="2.53698">
        <ele>104.626</ele>
        <time>2017-05-31T12:01:22Z</time>
      </trkpt>
      <trkpt lat="48.71676" lon="2.53677">
        <ele>104.478</ele>
        <time>2017-05-31T12:01:36Z</time>
      </trkpt>
      <trkpt lat="48.71664" lon="2.5365">
        <ele>104.28</ele>
        <time>2017-05-31T12:01:54Z</time>
      </trkpt>
      <trkpt lat="48.71659" lon="2.53629">
        <ele>104.121</ele>
        <time>2017-05-31T12:02:10Z</time>
      </trkpt>
      <trkpt lat="48.71665" lon="2.53605">
        <ele>103.971</ele>
        <time>2017-05-31T12:02:25Z</time>
      </trkpt>
      <trkpt lat="48.71672" lon="2.53575">
        <ele>103.794</ele>
        <time>2017-05-31T12:02:43Z</time>
      </trkpt>
      <trkpt lat="48.71674" lon="2.53546">
        <ele>103.621</ele>
        <time>2017-05-31T12:02:59Z</time>
      </trkpt>
      <trkpt lat="48.71675" lon="2.53514">
        <ele>103.416</ele>
        <time>2017-05-31T12:03:15Z</time>
      </trkpt>
      <trkpt lat="48.71672" lon="2.53499">
        <ele>103.326</ele>
        <time>2017-05-31T12:03:23Z</time>
      </trkpt>
      <trkpt lat="48.71672" lon="2.53499">
        <ele>54</ele>
        <time>2017-05-31T12:03:31Z</time>
      </trkpt>
      <trkpt lat="48.71672" lon="2.53499">
        <ele>54</ele>
        <time>2017-05-31T12:08:12Z</time>
      </trkpt>
      <trkpt lat="48.71665" lon="2.53483">
        <ele>100.264</ele>
        <time>2017-05-31T12:08:15Z</time>
      </trkpt>
      <trkpt lat="48.71665" lon="2.53483">
        <ele>100.264</ele>
        <time>2017-05-31T12:08:22Z</time>
      </trkpt>
      <trkpt lat="48.71665" lon="2.53483">
        <ele>54</ele>
        <time>2017-05-31T12:08:22Z</time>
      </trkpt>
      <trkpt lat="48.71665" lon="2.53483">
        <ele>54</ele>
        <time>2017-05-31T12:08:28Z</time>
      </trkpt>
      <trkpt lat="48.71661" lon="2.53468">
        <ele>99.8708</ele>
        <time>2017-05-31T12:08:28Z</time>
      </trkpt>
      <trkpt lat="48.71654" lon="2.53443">
        <ele>99.4521</ele>
        <time>2017-05-31T12:08:45Z</time>
      </trkpt>
      <trkpt lat="48.71642" lon="2.53423">
        <ele>99.1356</ele>
        <time>2017-05-31T12:09:03Z</time>
      </trkpt>
      <trkpt lat="48.71633" lon="2.53393">
        <ele>98.9029</ele>
        <time>2017-05-31T12:09:20Z</time>
      </trkpt>
      <trkpt lat="48.71623" lon="2.53365">
        <ele>98.7309</ele>
        <time>2017-05-31T12:09:36Z</time>
      </trkpt>
      <trkpt lat="48.71618" lon="2.53357">
        <ele>98.6654</ele>
        <time>2017-05-31T12:09:44Z</time>
      </trkpt>
      <trkpt lat="48.71618" lon="2.53357">
        <ele>53.1</ele>
        <time>2017-05-31T12:09:51Z</time>
      </trkpt>
      <trkpt lat="48.71618" lon="2.53357">
        <ele>53.1</ele>
        <time>2017-05-31T12:09:56Z</time>
      </trkpt>
      <trkpt lat="48.71613" lon="2.53354">
        <ele>98.6005</ele>
        <time>2017-05-31T12:09:56Z</time>
      </trkpt>
      <trkpt lat="48.71604" lon="2.5334">
        <ele>98.552</ele>
        <time>2017-05-31T12:10:05Z</time>
      </trkpt>
      <trkpt lat="48.71598" lon="2.53324">
        <ele>98.5141</ele>
        <time>2017-05-31T12:10:13Z</time>
      </trkpt>
      <trkpt lat="48.71585" lon="2.53286">
        <ele>98.4125</ele>
        <time>2017-05-31T12:10:31Z</time>
      </trkpt>
      <trkpt lat="48.71578" lon="2.53267">
        <ele>98.3686</ele>
        <time>2017-05-31T12:10:42Z</time>
      </trkpt>
      <trkpt lat="48.71569" lon="2.53251">
        <ele>98.3274</ele>
        <time>2017-05-31T12:10:55Z</time>
      </trkpt>
      <trkpt lat="48.71564" lon="2.5322">
        <ele>98.2514</ele>
        <time>2017-05-31T12:11:10Z</time>
      </trkpt>
      <trkpt lat="48.71561" lon="2.53205">
        <ele>98.2132</ele>
        <time>2017-05-31T12:11:19Z</time>
      </trkpt>
      <trkpt lat="48.71554" lon="2.5318">
        <ele>98.1607</ele>
        <time>2017-05-31T12:11:35Z</time>
      </trkpt>
      <trkpt lat="48.71546" lon="2.53163">
        <ele>98.1195</ele>
        <time>2017-05-31T12:11:46Z</time>
      </trkpt>
      <trkpt lat="48.7154" lon="2.53145">
        <ele>98.0727</ele>
        <time>2017-05-31T12:11:59Z</time>
      </trkpt>
      <trkpt lat="48.71532" lon="2.53129">
        <ele>98.0481</ele>
        <time>2017-05-31T12:12:10Z</time>
      </trkpt>
      <trkpt lat="48.71522" lon="2.53109">
        <ele>98.0118</ele>
        <time>2017-05-31T12:12:26Z</time>
      </trkpt>
      <trkpt lat="48.71507" lon="2.53092">
        <ele>97.9809</ele>
        <time>2017-05-31T12:12:40Z</time>
      </trkpt>
      <trkpt lat="48.71499" lon="2.53083">
        <ele>97.9443</ele>
        <time>2017-05-31T12:12:51Z</time>
      </trkpt>
      <trkpt lat="48.7148" lon="2.53052">
        <ele>97.8415</ele>
        <time>2017-05-31T12:13:08Z</time>
      </trkpt>
      <trkpt lat="48.71473" lon="2.53031">
        <ele>97.7654</ele>
        <time>2017-05-31T12:13:19Z</time>
      </trkpt>
      <trkpt lat="48.71462" lon="2.53007">
        <ele>97.6677</ele>
        <time>2017-05-31T12:13:34Z</time>
      </trkpt>
      <trkpt lat="48.71453" lon="2.52983">
        <ele>97.5605</ele>
        <time>2017-05-31T12:13:50Z</time>
      </trkpt>
      <trkpt lat="48.71441" lon="2.52959">
        <ele>97.4549</ele>
        <time>2017-05-31T12:14:05Z</time>
      </trkpt>
      <trkpt lat="48.71436" lon="2.52946">
        <ele>97.4099</ele>
        <time>2017-05-31T12:14:12Z</time>
      </trkpt>
      <trkpt lat="48.7143" lon="2.52929">
        <ele>97.3461</ele>
        <time>2017-05-31T12:14:22Z</time>
      </trkpt>
      <trkpt lat="48.71425" lon="2.52917">
        <ele>97.2896</ele>
        <time>2017-05-31T12:14:31Z</time>
      </trkpt>
      <trkpt lat="48.71416" lon="2.52888">
        <ele>97.1964</ele>
        <time>2017-05-31T12:14:47Z</time>
      </trkpt>
      <trkpt lat="48.71414" lon="2.52865">
        <ele>97.1179</ele>
        <time>2017-05-31T12:14:58Z</time>
      </trkpt>
      <trkpt lat="48.7141" lon="2.52846">
        <ele>97.0245</ele>
        <time>2017-05-31T12:15:09Z</time>
      </trkpt>
      <trkpt lat="48.71402" lon="2.52817">
        <ele>96.8833</ele>
        <time>2017-05-31T12:15:26Z</time>
      </trkpt>
      <trkpt lat="48.71401" lon="2.52804">
        <ele>96.8171</ele>
        <time>2017-05-31T12:15:36Z</time>
      </trkpt>
      <trkpt lat="48.71401" lon="2.52788">
        <ele>96.7585</ele>
        <time>2017-05-31T12:15:45Z</time>
      </trkpt>
      <trkpt lat="48.71399" lon="2.52759">
        <ele>96.6714</ele>
        <time>2017-05-31T12:15:58Z</time>
      </trkpt>
      <trkpt lat="48.71398" lon="2.52743">
        <ele>96.6308</ele>
        <time>2017-05-31T12:16:06Z</time>
      </trkpt>
      <trkpt lat="48.71398" lon="2.52743">
        <ele>53.8</ele>
        <time>2017-05-31T12:16:14Z</time>
      </trkpt>
      <trkpt lat="48.71398" lon="2.52743">
        <ele>53.8</ele>
        <time>2017-05-31T12:16:51Z</time>
      </trkpt>
      <trkpt lat="48.71426" lon="2.52729">
        <ele>96.5678</ele>
        <time>2017-05-31T12:16:51Z</time>
      </trkpt>
      <trkpt lat="48.71424" lon="2.5268">
        <ele>96.4677</ele>
        <time>2017-05-31T12:17:43Z</time>
      </trkpt>
      <trkpt lat="48.71425" lon="2.5266">
        <ele>96.4241</ele>
        <time>2017-05-31T12:17:55Z</time>
      </trkpt>
      <trkpt lat="48.71416" lon="2.52627">
        <ele>96.3333</ele>
        <time>2017-05-31T12:18:13Z</time>
      </trkpt>
      <trkpt lat="48.71401" lon="2.52608">
        <ele>96.2644</ele>
        <time>2017-05-31T12:18:26Z</time>
      </trkpt>
      <trkpt lat="48.71389" lon="2.52594">
        <ele>96.2133</ele>
        <time>2017-05-31T12:18:38Z</time>
      </trkpt>
      <trkpt lat="48.71376" lon="2.52573">
        <ele>96.1296</ele>
        <time>2017-05-31T12:18:55Z</time>
      </trkpt>
      <trkpt lat="48.71366" lon="2.52552">
        <ele>96.0734</ele>
        <time>2017-05-31T12:19:08Z</time>
      </trkpt>
      <trkpt lat="48.71355" lon="2.52525">
        <ele>95.9857</ele>
        <time>2017-05-31T12:19:25Z</time>
      </trkpt>
      <trkpt lat="48.71348" lon="2.52509">
        <ele>95.9556</ele>
        <time>2017-05-31T12:19:32Z</time>
      </trkpt>
      <trkpt lat="48.71345" lon="2.52492">
        <ele>95.9417</ele>
        <time>2017-05-31T12:19:41Z</time>
      </trkpt>
      <trkpt lat="48.71341" lon="2.5247">
        <ele>95.9295</ele>
        <time>2017-05-31T12:19:54Z</time>
      </trkpt>
      <trkpt lat="48.71338" lon="2.52443">
        <ele>95.9004</ele>
        <time>2017-05-31T12:20:11Z</time>
      </trkpt>
      <trkpt lat="48.71338" lon="2.52422">
        <ele>95.8486</ele>
        <time>2017-05-31T12:20:21Z</time>
      </trkpt>
      <trkpt lat="48.71344" lon="2.524">
        <ele>95.7548</ele>
        <time>2017-05-31T12:20:35Z</time>
      </trkpt>
      <trkpt lat="48.71351" lon="2.52382">
        <ele>95.68</ele>
        <time>2017-05-31T12:20:47Z</time>
      </trkpt>
      <trkpt lat="48.71362" lon="2.5236">
        <ele>95.6213</ele>
        <time>2017-05-31T12:21:02Z</time>
      </trkpt>
      <trkpt lat="48.71373" lon="2.52337">
        <ele>95.5663</ele>
        <time>2017-05-31T12:21:19Z</time>
      </trkpt>
      <trkpt lat="48.71385" lon="2.52307">
        <ele>95.5094</ele>
        <time>2017-05-31T12:21:36Z</time>
      </trkpt>
      <trkpt lat="48.71391" lon="2.52289">
        <ele>95.4787</ele>
        <time>2017-05-31T12:21:48Z</time>
      </trkpt>
      <trkpt lat="48.71398" lon="2.52268">
        <ele>95.4595</ele>
        <time>2017-05-31T12:21:57Z</time>
      </trkpt>
      <trkpt lat="48.71404" lon="2.52252">
        <ele>95.443</ele>
        <time>2017-05-31T12:22:06Z</time>
      </trkpt>
      <trkpt lat="48.71412" lon="2.5223">
        <ele>95.4438</ele>
        <time>2017-05-31T12:22:18Z</time>
      </trkpt>
      <trkpt lat="48.71422" lon="2.5221">
        <ele>95.437</ele>
        <time>2017-05-31T12:22:30Z</time>
      </trkpt>
      <trkpt lat="48.71424" lon="2.52204">
        <ele>95.4184</ele>
        <time>2017-05-31T12:22:37Z</time>
      </trkpt>
      <trkpt lat="48.71424" lon="2.52204">
        <ele>49.3</ele>
        <time>2017-05-31T12:22:44Z</time>
      </trkpt>
      <trkpt lat="48.71424" lon="2.52204">
        <ele>49.3</ele>
        <time>2017-05-31T12:22:48Z</time>
      </trkpt>
      <trkpt lat="48.71431" lon="2.52197">
        <ele>95.3827</ele>
        <time>2017-05-31T12:22:48Z</time>
      </trkpt>
      <trkpt lat="48.71438" lon="2.52173">
        <ele>95.3411</ele>
        <time>2017-05-31T12:23:00Z</time>
      </trkpt>
      <trkpt lat="48.71438" lon="2.52148">
        <ele>95.307</ele>
        <time>2017-05-31T12:23:14Z</time>
      </trkpt>
      <trkpt lat="48.71437" lon="2.52119">
        <ele>95.2611</ele>
        <time>2017-05-31T12:23:30Z</time>
      </trkpt>
      <trkpt lat="48.71425" lon="2.52094">
        <ele>95.2276</ele>
        <time>2017-05-31T12:23:42Z</time>
      </trkpt>
      <trkpt lat="48.71425" lon="2.52082">
        <ele>95.1917</ele>
        <time>2017-05-31T12:23:55Z</time>
      </trkpt>
      <trkpt lat="48.71422" lon="2.5206">
        <ele>95.0983</ele>
        <time>2017-05-31T12:24:11Z</time>
      </trkpt>
      <trkpt lat="48.71403" lon="2.52045">
        <ele>94.9942</ele>
        <time>2017-05-31T12:24:28Z</time>
      </trkpt>
      <trkpt lat="48.71398" lon="2.52043">
        <ele>94.9761</ele>
        <time>2017-05-31T12:24:32Z</time>
      </trkpt>
      <trkpt lat="48.71398" lon="2.52043">
        <ele>49.4</ele>
        <time>2017-05-31T12:24:39Z</time>
      </trkpt>
      <trkpt lat="48.71398" lon="2.52043">
        <ele>49.4</ele>
        <time>2017-05-31T12:24:45Z</time>
      </trkpt>
      <trkpt lat="48.71389" lon="2.52049">
        <ele>94.9263</ele>
        <time>2017-05-31T12:24:45Z</time>
      </trkpt>
      <trkpt lat="48.71365" lon="2.52028">
        <ele>94.8678</ele>
        <time>2017-05-31T12:25:01Z</time>
      </trkpt>
      <trkpt lat="48.71352" lon="2.52055">
        <ele>94.8053</ele>
        <time>2017-05-31T12:25:18Z</time>
      </trkpt>
      <trkpt lat="48.71337" lon="2.52062">
        <ele>94.7361</ele>
        <time>2017-05-31T12:25:36Z</time>
      </trkpt>
      <trkpt lat="48.71322" lon="2.52058">
        <ele>94.6975</ele>
        <time>2017-05-31T12:25:49Z</time>
      </trkpt>
      <trkpt lat="48.7131" lon="2.52052">
        <ele>94.6575</ele>
        <time>2017-05-31T12:25:57Z</time>
      </trkpt>
      <trkpt lat="48.71297" lon="2.52034">
        <ele>94.6022</ele>
        <time>2017-05-31T12:26:07Z</time>
      </trkpt>
      <trkpt lat="48.71296" lon="2.52019">
        <ele>94.5579</ele>
        <time>2017-05-31T12:26:14Z</time>
      </trkpt>
      <trkpt lat="48.71284" lon="2.51983">
        <ele>94.4334</ele>
        <time>2017-05-31T12:26:32Z</time>
      </trkpt>
      <trkpt lat="48.71284" lon="2.51966">
        <ele>94.3704</ele>
        <time>2017-05-31T12:26:43Z</time>
      </trkpt>
      <trkpt lat="48.7128" lon="2.51943">
        <ele>94.3061</ele>
        <time>2017-05-31T12:26:58Z</time>
      </trkpt>
      <trkpt lat="48.71275" lon="2.5191">
        <ele>94.2327</ele>
        <time>2017-05-31T12:27:14Z</time>
      </trkpt>
      <trkpt lat="48.71294" lon="2.51877">
        <ele>94.1741</ele>
        <time>2017-05-31T12:27:30Z</time>
      </trkpt>
      <trkpt lat="48.71304" lon="2.51876">
        <ele>94.1479</ele>
        <time>2017-05-31T12:27:38Z</time>
      </trkpt>
      <trkpt lat="48.71314" lon="2.51864">
        <ele>94.1242</ele>
        <time>2017-05-31T12:27:53Z</time>
      </trkpt>
      <trkpt lat="48.71331" lon="2.51847">
        <ele>94.111</ele>
        <time>2017-05-31T12:28:09Z</time>
      </trkpt>
      <trkpt lat="48.71347" lon="2.51823">
        <ele>94.0771</ele>
        <time>2017-05-31T12:28:24Z</time>
      </trkpt>
      <trkpt lat="48.71353" lon="2.51809">
        <ele>94.0658</ele>
        <time>2017-05-31T12:28:34Z</time>
      </trkpt>
      <trkpt lat="48.71361" lon="2.51789">
        <ele>94.0308</ele>
        <time>2017-05-31T12:28:48Z</time>
      </trkpt>
      <trkpt lat="48.7136" lon="2.51765">
        <ele>93.9818</ele>
        <time>2017-05-31T12:29:05Z</time>
      </trkpt>
      <trkpt lat="48.71361" lon="2.51742">
        <ele>93.9443</ele>
        <time>2017-05-31T12:29:19Z</time>
      </trkpt>
      <trkpt lat="48.7135" lon="2.51712">
        <ele>93.8934</ele>
        <time>2017-05-31T12:29:31Z</time>
      </trkpt>
      <trkpt lat="48.71343" lon="2.51702">
        <ele>93.859</ele>
        <time>2017-05-31T12:29:38Z</time>
      </trkpt>
      <trkpt lat="48.71335" lon="2.51685">
        <ele>93.8026</ele>
        <time>2017-05-31T12:29:50Z</time>
      </trkpt>
      <trkpt lat="48.71329" lon="2.51674">
        <ele>93.7469</ele>
        <time>2017-05-31T12:30:00Z</time>
      </trkpt>
      <trkpt lat="48.7132" lon="2.51649">
        <ele>93.668</ele>
        <time>2017-05-31T12:30:16Z</time>
      </trkpt>
      <trkpt lat="48.71315" lon="2.51633">
        <ele>93.6266</ele>
        <time>2017-05-31T12:30:23Z</time>
      </trkpt>
      <trkpt lat="48.71307" lon="2.51612">
        <ele>93.5474</ele>
        <time>2017-05-31T12:30:37Z</time>
      </trkpt>
      <trkpt lat="48.71298" lon="2.51594">
        <ele>93.4906</ele>
        <time>2017-05-31T12:30:48Z</time>
      </trkpt>
      <trkpt lat="48.71295" lon="2.51566">
        <ele>93.4178</ele>
        <time>2017-05-31T12:31:03Z</time>
      </trkpt>
      <trkpt lat="48.71289" lon="2.51547">
        <ele>93.3358</ele>
        <time>2017-05-31T12:31:17Z</time>
      </trkpt>
      <trkpt lat="48.71282" lon="2.5152">
        <ele>93.2557</ele>
        <time>2017-05-31T12:31:28Z</time>
      </trkpt>
      <trkpt lat="48.71275" lon="2.51499">
        <ele>93.2065</ele>
        <time>2017-05-31T12:31:35Z</time>
      </trkpt>
      <trkpt lat="48.71275" lon="2.51499">
        <ele>47.1</ele>
        <time>2017-05-31T12:31:42Z</time>
      </trkpt>
      <trkpt lat="48.71275" lon="2.51499">
        <ele>47.1</ele>
        <time>2017-05-31T12:31:47Z</time>
      </trkpt>
      <trkpt lat="48.71273" lon="2.51488">
        <ele>93.1109</ele>
        <time>2017-05-31T12:31:47Z</time>
      </trkpt>
      <trkpt lat="48.71268" lon="2.51458">
        <ele>92.932</ele>
        <time>2017-05-31T12:32:06Z</time>
      </trkpt>
      <trkpt lat="48.71259" lon="2.51433">
        <ele>92.7825</ele>
        <time>2017-05-31T12:32:24Z</time>
      </trkpt>
      <trkpt lat="48.7125" lon="2.51415">
        <ele>92.7041</ele>
        <time>2017-05-31T12:32:36Z</time>
      </trkpt>
      <trkpt lat="48.71246" lon="2.51401">
        <ele>92.6167</ele>
        <time>2017-05-31T12:32:49Z</time>
      </trkpt>
      <trkpt lat="48.7124" lon="2.51381">
        <ele>92.5407</ele>
        <time>2017-05-31T12:33:00Z</time>
      </trkpt>
      <trkpt lat="48.71238" lon="2.51358">
        <ele>92.4797</ele>
        <time>2017-05-31T12:33:11Z</time>
      </trkpt>
      <trkpt lat="48.7125" lon="2.51336">
        <ele>92.4284</ele>
        <time>2017-05-31T12:33:26Z</time>
      </trkpt>
      <trkpt lat="48.71253" lon="2.51313">
        <ele>92.3885</ele>
        <time>2017-05-31T12:33:38Z</time>
      </trkpt>
      <trkpt lat="48.71259" lon="2.51283">
        <ele>92.3354</ele>
        <time>2017-05-31T12:33:54Z</time>
      </trkpt>
      <trkpt lat="48.71267" lon="2.51258">
        <ele>92.2877</ele>
        <time>2017-05-31T12:34:12Z</time>
      </trkpt>
      <trkpt lat="48.71274" lon="2.51237">
        <ele>92.2402</ele>
        <time>2017-05-31T12:34:24Z</time>
      </trkpt>
      <trkpt lat="48.71273" lon="2.51205">
        <ele>92.1794</ele>
        <time>2017-05-31T12:34:41Z</time>
      </trkpt>
      <trkpt lat="48.71273" lon="2.5119">
        <ele>92.1457</ele>
        <time>2017-05-31T12:34:48Z</time>
      </trkpt>
      <trkpt lat="48.71273" lon="2.5119">
        <ele>45</ele>
        <time>2017-05-31T12:34:53Z</time>
      </trkpt>
      <trkpt lat="48.71273" lon="2.5119">
        <ele>45</ele>
        <time>2017-05-31T12:34:58Z</time>
      </trkpt>
      <trkpt lat="48.71269" lon="2.51175">
        <ele>92.0941</ele>
        <time>2017-05-31T12:34:58Z</time>
      </trkpt>
      <trkpt lat="48.71267" lon="2.51145">
        <ele>92.034</ele>
        <time>2017-05-31T12:35:13Z</time>
      </trkpt>
      <trkpt lat="48.71274" lon="2.51125">
        <ele>91.9947</ele>
        <time>2017-05-31T12:35:26Z</time>
      </trkpt>
      <trkpt lat="48.71277" lon="2.51094">
        <ele>91.9042</ele>
        <time>2017-05-31T12:35:42Z</time>
      </trkpt>
      <trkpt lat="48.7127" lon="2.51051">
        <ele>91.7908</ele>
        <time>2017-05-31T12:36:02Z</time>
      </trkpt>
      <trkpt lat="48.71274" lon="2.5103">
        <ele>91.7611</ele>
        <time>2017-05-31T12:36:08Z</time>
      </trkpt>
      <trkpt lat="48.71274" lon="2.5103">
        <ele>47.4</ele>
        <time>2017-05-31T12:36:15Z</time>
      </trkpt>
      <trkpt lat="48.71274" lon="2.5103">
        <ele>47.4</ele>
        <time>2017-05-31T12:36:20Z</time>
      </trkpt>
      <trkpt lat="48.71268" lon="2.51022">
        <ele>91.6889</ele>
        <time>2017-05-31T12:36:20Z</time>
      </trkpt>
      <trkpt lat="48.71265" lon="2.51">
        <ele>91.5976</ele>
        <time>2017-05-31T12:36:35Z</time>
      </trkpt>
      <trkpt lat="48.71265" lon="2.51">
        <ele>91.5976</ele>
        <time>2017-05-31T12:36:43Z</time>
      </trkpt>
      <trkpt lat="48.71265" lon="2.51">
        <ele>46.2</ele>
        <time>2017-05-31T12:36:43Z</time>
      </trkpt>
      <trkpt lat="48.71265" lon="2.51">
        <ele>46.2</ele>
        <time>2017-05-31T12:37:38Z</time>
      </trkpt>
      <trkpt lat="48.71246" lon="2.50996">
        <ele>91.254</ele>
        <time>2017-05-31T12:37:38Z</time>
      </trkpt>
      <trkpt lat="48.71246" lon="2.50996">
        <ele>91.254</ele>
        <time>2017-05-31T12:40:04Z</time>
      </trkpt>
      <trkpt lat="48.71246" lon="2.50962">
        <ele>90.9374</ele>
        <time>2017-05-31T12:40:14Z</time>
      </trkpt>
      <trkpt lat="48.71247" lon="2.50938">
        <ele>90.8579</ele>
        <time>2017-05-31T12:40:31Z</time>
      </trkpt>
      <trkpt lat="48.71243" lon="2.50916">
        <ele>90.7998</ele>
        <time>2017-05-31T12:40:42Z</time>
      </trkpt>
      <trkpt lat="48.7124" lon="2.50892">
        <ele>90.7358</ele>
        <time>2017-05-31T12:40:53Z</time>
      </trkpt>
      <trkpt lat="48.71234" lon="2.50873">
        <ele>90.6441</ele>
        <time>2017-05-31T12:41:06Z</time>
      </trkpt>
      <trkpt lat="48.71234" lon="2.50838">
        <ele>90.4465</ele>
        <time>2017-05-31T12:41:27Z</time>
      </trkpt>
      <trkpt lat="48.7124" lon="2.50804">
        <ele>90.3102</ele>
        <time>2017-05-31T12:41:43Z</time>
      </trkpt>
      <trkpt lat="48.71225" lon="2.50782">
        <ele>90.1865</ele>
        <time>2017-05-31T12:41:56Z</time>
      </trkpt>
      <trkpt lat="48.71217" lon="2.5078">
        <ele>90.1083</ele>
        <time>2017-05-31T12:42:04Z</time>
      </trkpt>
      <trkpt lat="48.71217" lon="2.5078">
        <ele>90.1083</ele>
        <time>2017-05-31T12:42:09Z</time>
      </trkpt>
      <trkpt lat="48.71217" lon="2.5078">
        <ele>45.2</ele>
        <time>2017-05-31T12:42:09Z</time>
      </trkpt>
      <trkpt lat="48.71217" lon="2.5078">
        <ele>45.2</ele>
        <time>2017-05-31T12:42:21Z</time>
      </trkpt>
      <trkpt lat="48.71206" lon="2.50768">
        <ele>89.9571</ele>
        <time>2017-05-31T12:42:21Z</time>
      </trkpt>
      <trkpt lat="48.71199" lon="2.50752">
        <ele>89.8641</ele>
        <time>2017-05-31T12:42:30Z</time>
      </trkpt>
      <trkpt lat="48.71178" lon="2.50729">
        <ele>89.7477</ele>
        <time>2017-05-31T12:42:42Z</time>
      </trkpt>
      <trkpt lat="48.71176" lon="2.50713">
        <ele>89.6638</ele>
        <time>2017-05-31T12:42:52Z</time>
      </trkpt>
      <trkpt lat="48.71181" lon="2.50676">
        <ele>89.5571</ele>
        <time>2017-05-31T12:43:10Z</time>
      </trkpt>
      <trkpt lat="48.71183" lon="2.50655">
        <ele>89.4678</ele>
        <time>2017-05-31T12:43:25Z</time>
      </trkpt>
      <trkpt lat="48.71187" lon="2.50642">
        <ele>89.4208</ele>
        <time>2017-05-31T12:43:34Z</time>
      </trkpt>
      <trkpt lat="48.71194" lon="2.50617">
        <ele>89.3075</ele>
        <time>2017-05-31T12:43:52Z</time>
      </trkpt>
      <trkpt lat="48.71201" lon="2.50589">
        <ele>89.2002</ele>
        <time>2017-05-31T12:44:09Z</time>
      </trkpt>
      <trkpt lat="48.71204" lon="2.50566">
        <ele>89.1471</ele>
        <time>2017-05-31T12:44:18Z</time>
      </trkpt>
      <trkpt lat="48.71196" lon="2.50552">
        <ele>89.0617</ele>
        <time>2017-05-31T12:44:30Z</time>
      </trkpt>
      <trkpt lat="48.71194" lon="2.50528">
        <ele>88.9669</ele>
        <time>2017-05-31T12:44:44Z</time>
      </trkpt>
      <trkpt lat="48.7117" lon="2.50504">
        <ele>88.8399</ele>
        <time>2017-05-31T12:45:02Z</time>
      </trkpt>
      <trkpt lat="48.71156" lon="2.5049">
        <ele>88.7073</ele>
        <time>2017-05-31T12:45:20Z</time>
      </trkpt>
      <trkpt lat="48.71141" lon="2.50488">
        <ele>88.6238</ele>
        <time>2017-05-31T12:45:30Z</time>
      </trkpt>
      <trkpt lat="48.7113" lon="2.50471">
        <ele>88.5034</ele>
        <time>2017-05-31T12:45:43Z</time>
      </trkpt>
      <trkpt lat="48.71125" lon="2.50468">
        <ele>88.4579</ele>
        <time>2017-05-31T12:45:48Z</time>
      </trkpt>
      <trkpt lat="48.71125" lon="2.50468">
        <ele>44.6</ele>
        <time>2017-05-31T12:45:53Z</time>
      </trkpt>
      <trkpt lat="48.71125" lon="2.50468">
        <ele>44.6</ele>
        <time>2017-05-31T12:45:59Z</time>
      </trkpt>
      <trkpt lat="48.71116" lon="2.50464">
        <ele>88.38</ele>
        <time>2017-05-31T12:45:59Z</time>
      </trkpt>
      <trkpt lat="48.71091" lon="2.50437">
        <ele>88.258</ele>
        <time>2017-05-31T12:46:20Z</time>
      </trkpt>
      <trkpt lat="48.71091" lon="2.50437">
        <ele>88.258</ele>
        <time>2017-05-31T12:46:27Z</time>
      </trkpt>
      <trkpt lat="48.71091" lon="2.50437">
        <ele>42.3</ele>
        <time>2017-05-31T12:46:27Z</time>
      </trkpt>
      <trkpt lat="48.71091" lon="2.50437">
        <ele>42.3</ele>
        <time>2017-05-31T12:46:38Z</time>
      </trkpt>
      <trkpt lat="48.71078" lon="2.50425">
        <ele>88.1516</ele>
        <time>2017-05-31T12:46:38Z</time>
      </trkpt>
      <trkpt lat="48.71073" lon="2.50421">
        <ele>88.1275</ele>
        <time>2017-05-31T12:46:41Z</time>
      </trkpt>
      <trkpt lat="48.71073" lon="2.50421">
        <ele>41.1</ele>
        <time>2017-05-31T12:46:48Z</time>
      </trkpt>
      <trkpt lat="48.71073" lon="2.50421">
        <ele>41.1</ele>
        <time>2017-05-31T12:46:55Z</time>
      </trkpt>
      <trkpt lat="48.71074" lon="2.5041">
        <ele>87.9818</ele>
        <time>2017-05-31T12:46:55Z</time>
      </trkpt>
      <trkpt lat="48.71064" lon="2.50387">
        <ele>87.8514</ele>
        <time>2017-05-31T12:47:03Z</time>
      </trkpt>
      <trkpt lat="48.71067" lon="2.50365">
        <ele>87.7438</ele>
        <time>2017-05-31T12:47:10Z</time>
      </trkpt>
      <trkpt lat="48.71065" lon="2.50345">
        <ele>87.6311</ele>
        <time>2017-05-31T12:47:18Z</time>
      </trkpt>
      <trkpt lat="48.71053" lon="2.50319">
        <ele>87.4232</ele>
        <time>2017-05-31T12:47:33Z</time>
      </trkpt>
      <trkpt lat="48.7104" lon="2.50309">
        <ele>87.2536</ele>
        <time>2017-05-31T12:47:43Z</time>
      </trkpt>
      <trkpt lat="48.71034" lon="2.50309">
        <ele>87.1884</ele>
        <time>2017-05-31T12:47:47Z</time>
      </trkpt>
      <trkpt lat="48.71034" lon="2.50309">
        <ele>40</ele>
        <time>2017-05-31T12:47:54Z</time>
      </trkpt>
      <trkpt lat="48.71034" lon="2.50309">
        <ele>40</ele>
        <time>2017-05-31T12:48:50Z</time>
      </trkpt>
      <trkpt lat="48.71016" lon="2.50272">
        <ele>86.3386</ele>
        <time>2017-05-31T12:48:50Z</time>
      </trkpt>
      <trkpt lat="48.71005" lon="2.50247">
        <ele>86.1518</ele>
        <time>2017-05-31T12:49:03Z</time>
      </trkpt>
      <trkpt lat="48.70994" lon="2.5023">
        <ele>85.954</ele>
        <time>2017-05-31T12:49:16Z</time>
      </trkpt>
      <trkpt lat="48.70982" lon="2.50208">
        <ele>85.7634</ele>
        <time>2017-05-31T12:49:31Z</time>
      </trkpt>
      <trkpt lat="48.7097" lon="2.50221">
        <ele>85.6327</ele>
        <time>2017-05-31T12:49:46Z</time>
      </trkpt>
      <trkpt lat="48.70949" lon="2.5019">
        <ele>85.2475</ele>
        <time>2017-05-31T12:50:43Z</time>
      </trkpt>
      <trkpt lat="48.7094" lon="2.50168">
        <ele>85.1274</ele>
        <time>2017-05-31T12:51:01Z</time>
      </trkpt>
      <trkpt lat="48.70941" lon="2.50148">
        <ele>85.0126</ele>
        <time>2017-05-31T12:51:19Z</time>
      </trkpt>
      <trkpt lat="48.70948" lon="2.50131">
        <ele>84.9375</ele>
        <time>2017-05-31T12:51:31Z</time>
      </trkpt>
      <trkpt lat="48.7095" lon="2.50124">
        <ele>84.9144</ele>
        <time>2017-05-31T12:51:35Z</time>
      </trkpt>
      <trkpt lat="48.7095" lon="2.50124">
        <ele>39.8</ele>
        <time>2017-05-31T12:51:43Z</time>
      </trkpt>
      <trkpt lat="48.7095" lon="2.50124">
        <ele>39.8</ele>
        <time>2017-05-31T12:51:49Z</time>
      </trkpt>
      <trkpt lat="48.70954" lon="2.50112">
        <ele>84.8549</ele>
        <time>2017-05-31T12:51:49Z</time>
      </trkpt>
      <trkpt lat="48.70943" lon="2.50087">
        <ele>84.768</ele>
        <time>2017-05-31T12:52:05Z</time>
      </trkpt>
      <trkpt lat="48.70933" lon="2.50046">
        <ele>84.6781</ele>
        <time>2017-05-31T12:52:22Z</time>
      </trkpt>
      <trkpt lat="48.70922" lon="2.50029">
        <ele>84.6221</ele>
        <time>2017-05-31T12:52:35Z</time>
      </trkpt>
      <trkpt lat="48.70914" lon="2.50015">
        <ele>84.5787</ele>
        <time>2017-05-31T12:52:45Z</time>
      </trkpt>
      <trkpt lat="48.70913" lon="2.49995">
        <ele>84.4249</ele>
        <time>2017-05-31T12:52:55Z</time>
      </trkpt>
      <trkpt lat="48.70911" lon="2.49973">
        <ele>84.375</ele>
        <time>2017-05-31T12:53:03Z</time>
      </trkpt>
      <trkpt lat="48.70915" lon="2.49953">
        <ele>84.3846</ele>
        <time>2017-05-31T12:53:13Z</time>
      </trkpt>
      <trkpt lat="48.70915" lon="2.49953">
        <ele>40.9</ele>
        <time>2017-05-31T12:53:20Z</time>
      </trkpt>
      <trkpt lat="48.70915" lon="2.49953">
        <ele>40.9</ele>
        <time>2017-05-31T12:53:26Z</time>
      </trkpt>
      <trkpt lat="48.7092" lon="2.49945">
        <ele>84.3989</ele>
        <time>2017-05-31T12:53:26Z</time>
      </trkpt>
      <trkpt lat="48.70929" lon="2.49928">
        <ele>84.4095</ele>
        <time>2017-05-31T12:53:38Z</time>
      </trkpt>
      <trkpt lat="48.70929" lon="2.49928">
        <ele>41.6</ele>
        <time>2017-05-31T12:53:46Z</time>
      </trkpt>
      <trkpt lat="48.70929" lon="2.49928">
        <ele>41.6</ele>
        <time>2017-05-31T12:53:52Z</time>
      </trkpt>
      <trkpt lat="48.70936" lon="2.49926">
        <ele>84.4515</ele>
        <time>2017-05-31T12:53:52Z</time>
      </trkpt>
      <trkpt lat="48.70954" lon="2.49914">
        <ele>84.4971</ele>
        <time>2017-05-31T12:54:08Z</time>
      </trkpt>
      <trkpt lat="48.70975" lon="2.49899">
        <ele>84.5545</ele>
        <time>2017-05-31T12:54:25Z</time>
      </trkpt>
      <trkpt lat="48.70983" lon="2.49898">
        <ele>84.5815</ele>
        <time>2017-05-31T12:54:36Z</time>
      </trkpt>
      <trkpt lat="48.70977" lon="2.4986">
        <ele>84.9079</ele>
        <time>2017-05-31T12:55:49Z</time>
      </trkpt>
      <trkpt lat="48.70967" lon="2.49852">
        <ele>84.9925</ele>
        <time>2017-05-31T12:56:01Z</time>
      </trkpt>
      <trkpt lat="48.70957" lon="2.49842">
        <ele>85.0556</ele>
        <time>2017-05-31T12:56:13Z</time>
      </trkpt>
      <trkpt lat="48.70942" lon="2.49819">
        <ele>85.088</ele>
        <time>2017-05-31T12:56:31Z</time>
      </trkpt>
      <trkpt lat="48.70926" lon="2.49804">
        <ele>85.114</ele>
        <time>2017-05-31T12:56:46Z</time>
      </trkpt>
      <trkpt lat="48.70903" lon="2.49785">
        <ele>85.1399</ele>
        <time>2017-05-31T12:57:05Z</time>
      </trkpt>
      <trkpt lat="48.70899" lon="2.49764">
        <ele>85.1152</ele>
        <time>2017-05-31T12:57:19Z</time>
      </trkpt>
      <trkpt lat="48.70884" lon="2.49753">
        <ele>85.0355</ele>
        <time>2017-05-31T12:57:34Z</time>
      </trkpt>
      <trkpt lat="48.70858" lon="2.49754">
        <ele>84.8936</ele>
        <time>2017-05-31T12:57:53Z</time>
      </trkpt>
      <trkpt lat="48.70843" lon="2.49757">
        <ele>84.7875</ele>
        <time>2017-05-31T12:58:06Z</time>
      </trkpt>
      <trkpt lat="48.70824" lon="2.4976">
        <ele>84.6402</ele>
        <time>2017-05-31T12:58:23Z</time>
      </trkpt>
      <trkpt lat="48.70804" lon="2.49751">
        <ele>84.5156</ele>
        <time>2017-05-31T12:58:39Z</time>
      </trkpt>
      <trkpt lat="48.70793" lon="2.49739">
        <ele>84.4105</ele>
        <time>2017-05-31T12:58:51Z</time>
      </trkpt>
      <trkpt lat="48.70795" lon="2.49708">
        <ele>84.2829</ele>
        <time>2017-05-31T12:59:08Z</time>
      </trkpt>
      <trkpt lat="48.70796" lon="2.49686">
        <ele>84.185</ele>
        <time>2017-05-31T12:59:24Z</time>
      </trkpt>
      <trkpt lat="48.70805" lon="2.49676">
        <ele>84.1087</ele>
        <time>2017-05-31T12:59:37Z</time>
      </trkpt>
      <trkpt lat="48.7083" lon="2.49663">
        <ele>83.9197</ele>
        <time>2017-05-31T13:00:14Z</time>
      </trkpt>
      <trkpt lat="48.70854" lon="2.49644">
        <ele>83.8616</ele>
        <time>2017-05-31T13:00:30Z</time>
      </trkpt>
      <trkpt lat="48.70864" lon="2.49646">
        <ele>83.8154</ele>
        <time>2017-05-31T13:00:43Z</time>
      </trkpt>
      <trkpt lat="48.7088" lon="2.49642">
        <ele>83.7822</ele>
        <time>2017-05-31T13:00:51Z</time>
      </trkpt>
      <trkpt lat="48.70892" lon="2.49647">
        <ele>83.748</ele>
        <time>2017-05-31T13:01:00Z</time>
      </trkpt>
      <trkpt lat="48.70912" lon="2.49651">
        <ele>83.6935</ele>
        <time>2017-05-31T13:01:15Z</time>
      </trkpt>
      <trkpt lat="48.7093" lon="2.49646">
        <ele>83.5953</ele>
        <time>2017-05-31T13:01:38Z</time>
      </trkpt>
      <trkpt lat="48.70942" lon="2.49646">
        <ele>83.5492</ele>
        <time>2017-05-31T13:01:48Z</time>
      </trkpt>
      <trkpt lat="48.70958" lon="2.49635">
        <ele>83.4836</ele>
        <time>2017-05-31T13:02:02Z</time>
      </trkpt>
      <trkpt lat="48.70974" lon="2.49633">
        <ele>83.4417</ele>
        <time>2017-05-31T13:02:13Z</time>
      </trkpt>
      <trkpt lat="48.70983" lon="2.49632">
        <ele>83.4227</ele>
        <time>2017-05-31T13:02:18Z</time>
      </trkpt>
      <trkpt lat="48.70983" lon="2.49632">
        <ele>83.4227</ele>
        <time>2017-05-31T13:02:25Z</time>
      </trkpt>
      <trkpt lat="48.70983" lon="2.49632">
        <ele>36.2</ele>
        <time>2017-05-31T13:02:25Z</time>
      </trkpt>
      <trkpt lat="48.70983" lon="2.49632">
        <ele>36.2</ele>
        <time>2017-05-31T13:02:36Z</time>
      </trkpt>
      <trkpt lat="48.70995" lon="2.49623">
        <ele>83.3539</ele>
        <time>2017-05-31T13:02:36Z</time>
      </trkpt>
      <trkpt lat="48.71007" lon="2.49606">
        <ele>83.3206</ele>
        <time>2017-05-31T13:02:47Z</time>
      </trkpt>
      <trkpt lat="48.71015" lon="2.4959">
        <ele>83.3055</ele>
        <time>2017-05-31T13:02:56Z</time>
      </trkpt>
      <trkpt lat="48.71031" lon="2.4956">
        <ele>83.3089</ele>
        <time>2017-05-31T13:03:14Z</time>
      </trkpt>
      <trkpt lat="48.71037" lon="2.49541">
        <ele>83.3243</ele>
        <time>2017-05-31T13:03:24Z</time>
      </trkpt>
      <trkpt lat="48.71052" lon="2.49527">
        <ele>83.365</ele>
        <time>2017-05-31T13:03:42Z</time>
      </trkpt>
      <trkpt lat="48.71065" lon="2.49523">
        <ele>83.3698</ele>
        <time>2017-05-31T13:03:54Z</time>
      </trkpt>
      <trkpt lat="48.71071" lon="2.49522">
        <ele>83.3652</ele>
        <time>2017-05-31T13:04:02Z</time>
      </trkpt>
      <trkpt lat="48.71084" lon="2.49514">
        <ele>83.3484</ele>
        <time>2017-05-31T13:04:10Z</time>
      </trkpt>
      <trkpt lat="48.71095" lon="2.49502">
        <ele>83.3367</ele>
        <time>2017-05-31T13:04:21Z</time>
      </trkpt>
      <trkpt lat="48.71105" lon="2.49504">
        <ele>83.3244</ele>
        <time>2017-05-31T13:04:28Z</time>
      </trkpt>
      <trkpt lat="48.71105" lon="2.49504">
        <ele>36.1</ele>
        <time>2017-05-31T13:04:34Z</time>
      </trkpt>
      <trkpt lat="48.71105" lon="2.49504">
        <ele>36.1</ele>
        <time>2017-05-31T13:04:39Z</time>
      </trkpt>
      <trkpt lat="48.71114" lon="2.49498">
        <ele>83.2853</ele>
        <time>2017-05-31T13:04:39Z</time>
      </trkpt>
      <trkpt lat="48.71128" lon="2.49483">
        <ele>83.2529</ele>
        <time>2017-05-31T13:04:52Z</time>
      </trkpt>
      <trkpt lat="48.71138" lon="2.49473">
        <ele>83.2298</ele>
        <time>2017-05-31T13:05:03Z</time>
      </trkpt>
      <trkpt lat="48.7115" lon="2.49458">
        <ele>83.1982</ele>
        <time>2017-05-31T13:05:15Z</time>
      </trkpt>
      <trkpt lat="48.71156" lon="2.49447">
        <ele>83.1885</ele>
        <time>2017-05-31T13:05:20Z</time>
      </trkpt>
      <trkpt lat="48.71174" lon="2.49434">
        <ele>83.146</ele>
        <time>2017-05-31T13:05:35Z</time>
      </trkpt>
      <trkpt lat="48.7119" lon="2.49414">
        <ele>83.0642</ele>
        <time>2017-05-31T13:05:52Z</time>
      </trkpt>
      <trkpt lat="48.71198" lon="2.49409">
        <ele>83.0296</ele>
        <time>2017-05-31T13:06:00Z</time>
      </trkpt>
      <trkpt lat="48.7121" lon="2.49402">
        <ele>82.9827</ele>
        <time>2017-05-31T13:06:08Z</time>
      </trkpt>
      <trkpt lat="48.71225" lon="2.49393">
        <ele>82.9098</ele>
        <time>2017-05-31T13:06:18Z</time>
      </trkpt>
      <trkpt lat="48.71235" lon="2.49387">
        <ele>82.8482</ele>
        <time>2017-05-31T13:06:27Z</time>
      </trkpt>
      <trkpt lat="48.71238" lon="2.49385">
        <ele>82.8366</ele>
        <time>2017-05-31T13:06:29Z</time>
      </trkpt>
      <trkpt lat="48.71238" lon="2.49385">
        <ele>36.1</ele>
        <time>2017-05-31T13:06:37Z</time>
      </trkpt>
      <trkpt lat="48.71238" lon="2.49385">
        <ele>36.1</ele>
        <time>2017-05-31T13:06:46Z</time>
      </trkpt>
      <trkpt lat="48.71248" lon="2.49386">
        <ele>82.748</ele>
        <time>2017-05-31T13:06:46Z</time>
      </trkpt>
      <trkpt lat="48.7126" lon="2.4938">
        <ele>82.6828</ele>
        <time>2017-05-31T13:06:57Z</time>
      </trkpt>
      <trkpt lat="48.71282" lon="2.49357">
        <ele>82.6083</ele>
        <time>2017-05-31T13:07:09Z</time>
      </trkpt>
      <trkpt lat="48.71288" lon="2.49346">
        <ele>82.5655</ele>
        <time>2017-05-31T13:07:15Z</time>
      </trkpt>
      <trkpt lat="48.71298" lon="2.49319">
        <ele>82.5645</ele>
        <time>2017-05-31T13:07:35Z</time>
      </trkpt>
      <trkpt lat="48.71318" lon="2.49302">
        <ele>82.5755</ele>
        <time>2017-05-31T13:07:55Z</time>
      </trkpt>
      <trkpt lat="48.7133" lon="2.49294">
        <ele>82.5676</ele>
        <time>2017-05-31T13:08:08Z</time>
      </trkpt>
      <trkpt lat="48.7133" lon="2.49294">
        <ele>35</ele>
        <time>2017-05-31T13:08:15Z</time>
      </trkpt>
      <trkpt lat="48.7133" lon="2.49294">
        <ele>35</ele>
        <time>2017-05-31T13:10:25Z</time>
      </trkpt>
      <trkpt lat="48.71336" lon="2.49319">
        <ele>82.5866</ele>
        <time>2017-05-31T13:10:25Z</time>
      </trkpt>
      <trkpt lat="48.71352" lon="2.49325">
        <ele>82.5929</ele>
        <time>2017-05-31T13:10:39Z</time>
      </trkpt>
      <trkpt lat="48.71367" lon="2.49297">
        <ele>82.5824</ele>
        <time>2017-05-31T13:10:59Z</time>
      </trkpt>
      <trkpt lat="48.71379" lon="2.4927">
        <ele>82.5376</ele>
        <time>2017-05-31T13:11:17Z</time>
      </trkpt>
      <trkpt lat="48.71378" lon="2.49239">
        <ele>82.4799</ele>
        <time>2017-05-31T13:11:42Z</time>
      </trkpt>
      <trkpt lat="48.71378" lon="2.49211">
        <ele>82.4522</ele>
        <time>2017-05-31T13:11:55Z</time>
      </trkpt>
      <trkpt lat="48.71376" lon="2.49195">
        <ele>82.4255</ele>
        <time>2017-05-31T13:12:06Z</time>
      </trkpt>
      <trkpt lat="48.71382" lon="2.4917">
        <ele>82.4</ele>
        <time>2017-05-31T13:12:20Z</time>
      </trkpt>
      <trkpt lat="48.71401" lon="2.49135">
        <ele>82.3281</ele>
        <time>2017-05-31T13:12:35Z</time>
      </trkpt>
      <trkpt lat="48.7141" lon="2.49122">
        <ele>82.2599</ele>
        <time>2017-05-31T13:12:44Z</time>
      </trkpt>
      <trkpt lat="48.71419" lon="2.491">
        <ele>82.1387</ele>
        <time>2017-05-31T13:13:00Z</time>
      </trkpt>
      <trkpt lat="48.71432" lon="2.4907">
        <ele>82.0696</ele>
        <time>2017-05-31T13:13:13Z</time>
      </trkpt>
      <trkpt lat="48.71443" lon="2.49054">
        <ele>81.9967</ele>
        <time>2017-05-31T13:13:25Z</time>
      </trkpt>
      <trkpt lat="48.71447" lon="2.49041">
        <ele>81.9615</ele>
        <time>2017-05-31T13:13:33Z</time>
      </trkpt>
      <trkpt lat="48.71451" lon="2.49011">
        <ele>81.8918</ele>
        <time>2017-05-31T13:13:51Z</time>
      </trkpt>
      <trkpt lat="48.71455" lon="2.48992">
        <ele>81.8524</ele>
        <time>2017-05-31T13:14:05Z</time>
      </trkpt>
      <trkpt lat="48.71452" lon="2.4897">
        <ele>81.8278</ele>
        <time>2017-05-31T13:14:16Z</time>
      </trkpt>
      <trkpt lat="48.71452" lon="2.4897">
        <ele>36.1</ele>
        <time>2017-05-31T13:14:23Z</time>
      </trkpt>
      <trkpt lat="48.71452" lon="2.4897">
        <ele>36.1</ele>
        <time>2017-05-31T13:14:29Z</time>
      </trkpt>
      <trkpt lat="48.71464" lon="2.48963">
        <ele>81.782</ele>
        <time>2017-05-31T13:14:29Z</time>
      </trkpt>
      <trkpt lat="48.7148" lon="2.4894">
        <ele>81.7482</ele>
        <time>2017-05-31T13:14:40Z</time>
      </trkpt>
      <trkpt lat="48.71482" lon="2.48938">
        <ele>81.7322</ele>
        <time>2017-05-31T13:14:45Z</time>
      </trkpt>
      <trkpt lat="48.71482" lon="2.48938">
        <ele>38.3</ele>
        <time>2017-05-31T13:14:53Z</time>
      </trkpt>
      <trkpt lat="48.71482" lon="2.48938">
        <ele>38.3</ele>
        <time>2017-05-31T13:15:32Z</time>
      </trkpt>
      <trkpt lat="48.71454" lon="2.48938">
        <ele>81.4437</ele>
        <time>2017-05-31T13:15:32Z</time>
      </trkpt>
      <trkpt lat="48.71446" lon="2.48934">
        <ele>81.4062</ele>
        <time>2017-05-31T13:15:39Z</time>
      </trkpt>
      <trkpt lat="48.71427" lon="2.48922">
        <ele>81.3336</ele>
        <time>2017-05-31T13:15:57Z</time>
      </trkpt>
      <trkpt lat="48.71413" lon="2.48908">
        <ele>81.2714</ele>
        <time>2017-05-31T13:16:14Z</time>
      </trkpt>
      <trkpt lat="48.71413" lon="2.48908">
        <ele>81.2714</ele>
        <time>2017-05-31T13:16:22Z</time>
      </trkpt>
      <trkpt lat="48.71413" lon="2.48908">
        <ele>36.7</ele>
        <time>2017-05-31T13:16:22Z</time>
      </trkpt>
      <trkpt lat="48.71413" lon="2.48908">
        <ele>36.7</ele>
        <time>2017-05-31T13:16:29Z</time>
      </trkpt>
      <trkpt lat="48.71403" lon="2.48907">
        <ele>81.2272</ele>
        <time>2017-05-31T13:16:29Z</time>
      </trkpt>
      <trkpt lat="48.71396" lon="2.48885">
        <ele>81.2065</ele>
        <time>2017-05-31T13:16:46Z</time>
      </trkpt>
      <trkpt lat="48.714" lon="2.48857">
        <ele>81.1768</ele>
        <time>2017-05-31T13:16:59Z</time>
      </trkpt>
      <trkpt lat="48.7141" lon="2.4884">
        <ele>81.1589</ele>
        <time>2017-05-31T13:17:11Z</time>
      </trkpt>
      <trkpt lat="48.71423" lon="2.48819">
        <ele>81.1645</ele>
        <time>2017-05-31T13:17:29Z</time>
      </trkpt>
      <trkpt lat="48.71433" lon="2.48786">
        <ele>81.167</ele>
        <time>2017-05-31T13:17:47Z</time>
      </trkpt>
      <trkpt lat="48.71439" lon="2.48765">
        <ele>81.1727</ele>
        <time>2017-05-31T13:18:01Z</time>
      </trkpt>
      <trkpt lat="48.71441" lon="2.4876">
        <ele>81.1761</ele>
        <time>2017-05-31T13:18:06Z</time>
      </trkpt>
      <trkpt lat="48.71441" lon="2.4876">
        <ele>36.2</ele>
        <time>2017-05-31T13:18:13Z</time>
      </trkpt>
      <trkpt lat="48.71441" lon="2.4876">
        <ele>36.2</ele>
        <time>2017-05-31T13:18:18Z</time>
      </trkpt>
      <trkpt lat="48.71451" lon="2.48757">
        <ele>81.186</ele>
        <time>2017-05-31T13:18:18Z</time>
      </trkpt>
      <trkpt lat="48.71462" lon="2.48739">
        <ele>81.1917</ele>
        <time>2017-05-31T13:18:30Z</time>
      </trkpt>
      <trkpt lat="48.71474" lon="2.48724">
        <ele>81.2075</ele>
        <time>2017-05-31T13:18:42Z</time>
      </trkpt>
      <trkpt lat="48.71479" lon="2.487">
        <ele>81.2251</ele>
        <time>2017-05-31T13:18:57Z</time>
      </trkpt>
      <trkpt lat="48.71482" lon="2.48686">
        <ele>81.2129</ele>
        <time>2017-05-31T13:19:05Z</time>
      </trkpt>
      <trkpt lat="48.71485" lon="2.48652">
        <ele>81.1213</ele>
        <time>2017-05-31T13:19:23Z</time>
      </trkpt>
      <trkpt lat="48.71488" lon="2.4862">
        <ele>81.0159</ele>
        <time>2017-05-31T13:19:40Z</time>
      </trkpt>
      <trkpt lat="48.71495" lon="2.48606">
        <ele>80.9862</ele>
        <time>2017-05-31T13:19:49Z</time>
      </trkpt>
      <trkpt lat="48.71505" lon="2.48584">
        <ele>80.9649</ele>
        <time>2017-05-31T13:20:06Z</time>
      </trkpt>
      <trkpt lat="48.71513" lon="2.4856">
        <ele>80.9805</ele>
        <time>2017-05-31T13:20:20Z</time>
      </trkpt>
      <trkpt lat="48.71524" lon="2.48521">
        <ele>81.0153</ele>
        <time>2017-05-31T13:20:37Z</time>
      </trkpt>
      <trkpt lat="48.71523" lon="2.4849">
        <ele>81.0884</ele>
        <time>2017-05-31T13:20:55Z</time>
      </trkpt>
      <trkpt lat="48.7151" lon="2.48465">
        <ele>81.1733</ele>
        <time>2017-05-31T13:21:14Z</time>
      </trkpt>
      <trkpt lat="48.71508" lon="2.48458">
        <ele>81.1854</ele>
        <time>2017-05-31T13:21:18Z</time>
      </trkpt>
      <trkpt lat="48.71508" lon="2.48458">
        <ele>35.8</ele>
        <time>2017-05-31T13:21:26Z</time>
      </trkpt>
      <trkpt lat="48.71508" lon="2.48458">
        <ele>35.8</ele>
        <time>2017-05-31T13:21:30Z</time>
      </trkpt>
      <trkpt lat="48.71502" lon="2.48454">
        <ele>81.2067</ele>
        <time>2017-05-31T13:21:30Z</time>
      </trkpt>
      <trkpt lat="48.71512" lon="2.48438">
        <ele>81.202</ele>
        <time>2017-05-31T13:21:44Z</time>
      </trkpt>
      <trkpt lat="48.71512" lon="2.48438">
        <ele>35.6</ele>
        <time>2017-05-31T13:21:51Z</time>
      </trkpt>
      <trkpt lat="48.71512" lon="2.48438">
        <ele>35.6</ele>
        <time>2017-05-31T13:21:54Z</time>
      </trkpt>
      <trkpt lat="48.71522" lon="2.48433">
        <ele>81.1703</ele>
        <time>2017-05-31T13:21:54Z</time>
      </trkpt>
      <trkpt lat="48.71537" lon="2.48429">
        <ele>81.1298</ele>
        <time>2017-05-31T13:22:01Z</time>
      </trkpt>
      <trkpt lat="48.71546" lon="2.48424">
        <ele>81.0497</ele>
        <time>2017-05-31T13:22:13Z</time>
      </trkpt>
      <trkpt lat="48.71561" lon="2.48396">
        <ele>80.9696</ele>
        <time>2017-05-31T13:22:28Z</time>
      </trkpt>
      <trkpt lat="48.71568" lon="2.48373">
        <ele>80.9365</ele>
        <time>2017-05-31T13:22:42Z</time>
      </trkpt>
      <trkpt lat="48.7157" lon="2.48359">
        <ele>80.9331</ele>
        <time>2017-05-31T13:22:53Z</time>
      </trkpt>
      <trkpt lat="48.7157" lon="2.48332">
        <ele>80.9277</ele>
        <time>2017-05-31T13:23:08Z</time>
      </trkpt>
      <trkpt lat="48.71581" lon="2.48313">
        <ele>80.9137</ele>
        <time>2017-05-31T13:23:21Z</time>
      </trkpt>
      <trkpt lat="48.71581" lon="2.48285">
        <ele>80.9022</ele>
        <time>2017-05-31T13:23:32Z</time>
      </trkpt>
      <trkpt lat="48.71581" lon="2.48285">
        <ele>80.9022</ele>
        <time>2017-05-31T13:23:39Z</time>
      </trkpt>
      <trkpt lat="48.71581" lon="2.48285">
        <ele>35</ele>
        <time>2017-05-31T13:23:39Z</time>
      </trkpt>
      <trkpt lat="48.71581" lon="2.48285">
        <ele>35</ele>
        <time>2017-05-31T13:23:49Z</time>
      </trkpt>
      <trkpt lat="48.71578" lon="2.48262">
        <ele>80.8607</ele>
        <time>2017-05-31T13:23:49Z</time>
      </trkpt>
      <trkpt lat="48.71573" lon="2.48237">
        <ele>80.8345</ele>
        <time>2017-05-31T13:24:04Z</time>
      </trkpt>
      <trkpt lat="48.71575" lon="2.482">
        <ele>80.8155</ele>
        <time>2017-05-31T13:24:22Z</time>
      </trkpt>
      <trkpt lat="48.7158" lon="2.48175">
        <ele>80.787</ele>
        <time>2017-05-31T13:24:35Z</time>
      </trkpt>
      <trkpt lat="48.71585" lon="2.48148">
        <ele>80.767</ele>
        <time>2017-05-31T13:24:56Z</time>
      </trkpt>
      <trkpt lat="48.7158" lon="2.48111">
        <ele>80.7956</ele>
        <time>2017-05-31T13:25:16Z</time>
      </trkpt>
      <trkpt lat="48.71576" lon="2.48082">
        <ele>80.8364</ele>
        <time>2017-05-31T13:25:32Z</time>
      </trkpt>
      <trkpt lat="48.71576" lon="2.48064">
        <ele>80.8512</ele>
        <time>2017-05-31T13:25:41Z</time>
      </trkpt>
      <trkpt lat="48.71581" lon="2.48041">
        <ele>80.8635</ele>
        <time>2017-05-31T13:25:51Z</time>
      </trkpt>
      <trkpt lat="48.71581" lon="2.48041">
        <ele>80.8635</ele>
        <time>2017-05-31T13:25:58Z</time>
      </trkpt>
      <trkpt lat="48.71581" lon="2.48041">
        <ele>34.1</ele>
        <time>2017-05-31T13:25:58Z</time>
      </trkpt>
      <trkpt lat="48.71581" lon="2.48041">
        <ele>34.1</ele>
        <time>2017-05-31T13:26:35Z</time>
      </trkpt>
      <trkpt lat="48.71567" lon="2.48022">
        <ele>80.8882</ele>
        <time>2017-05-31T13:26:35Z</time>
      </trkpt>
      <trkpt lat="48.71564" lon="2.48006">
        <ele>80.8698</ele>
        <time>2017-05-31T13:26:44Z</time>
      </trkpt>
      <trkpt lat="48.71564" lon="2.48006">
        <ele>34.9</ele>
        <time>2017-05-31T13:26:52Z</time>
      </trkpt>
      <trkpt lat="48.71564" lon="2.48006">
        <ele>34.9</ele>
        <time>2017-05-31T13:26:58Z</time>
      </trkpt>
      <trkpt lat="48.71567" lon="2.47991">
        <ele>80.8489</ele>
        <time>2017-05-31T13:26:58Z</time>
      </trkpt>
      <trkpt lat="48.71556" lon="2.4796">
        <ele>80.8263</ele>
        <time>2017-05-31T13:27:18Z</time>
      </trkpt>
      <trkpt lat="48.71549" lon="2.4794">
        <ele>80.8163</ele>
        <time>2017-05-31T13:27:29Z</time>
      </trkpt>
      <trkpt lat="48.7154" lon="2.47915">
        <ele>80.7451</ele>
        <time>2017-05-31T13:27:45Z</time>
      </trkpt>
      <trkpt lat="48.7154" lon="2.47915">
        <ele>35</ele>
        <time>2017-05-31T13:28:03Z</time>
      </trkpt>
      <trkpt lat="48.7154" lon="2.47915">
        <ele>35</ele>
        <time>2017-05-31T13:33:36Z</time>
      </trkpt>
      <trkpt lat="48.71484" lon="2.47884">
        <ele>78.9167</ele>
        <time>2017-05-31T13:33:36Z</time>
      </trkpt>
      <trkpt lat="48.71484" lon="2.47884">
        <ele>37.6</ele>
        <time>2017-05-31T13:33:40Z</time>
      </trkpt>
    </trkseg>
  </trk>
</gpx>